<?xml version="1.0" encoding="UTF-8" standalone="no" ?>
<gpx xmlns="http://www.topografix.com/GPX/1/1" xmlns:xsi="http://www.w3.org/2001/XMLSchema-instance" xsi:schemaLocation="http://www.topografix.com/GPX/1/1 http://www.topografix.com/GPX/1/1/gpx.xsd" version="1.1" creator="VisuGPX - https://www.visugpx.com">
  <metadata>
    <name>Foire des agnelles - 49 km</name>
    <desc><![CDATA[Foire des agnelles à Mens. Tour sud]]></desc>
  </metadata>
  <wpt lat="44.81533" lon="5.74849">
    <ele>769</ele>
    <name><![CDATA[VAE - Trieves sud]]></name>
    <type><![CDATA[Generic]]></type>
  </wpt>
  <trk>
    <name><![CDATA[VAE - Trieves sud on edp-parcours.com]]></name>
    <trkseg>
      <trkpt lat="44.81533" lon="5.74849">
        <ele>769</ele>
        <time>2017-08-08T10:19:37Z</time>
      </trkpt>
      <trkpt lat="44.81566" lon="5.74828">
        <ele>770</ele>
        <time>2017-08-08T10:19:52Z</time>
      </trkpt>
      <trkpt lat="44.81588" lon="5.74816">
        <ele>770</ele>
        <time>2017-08-08T10:19:55Z</time>
      </trkpt>
      <trkpt lat="44.81597" lon="5.74814">
        <ele>770</ele>
        <time>2017-08-08T10:20:03Z</time>
      </trkpt>
      <trkpt lat="44.81615" lon="5.74814">
        <ele>770</ele>
        <time>2017-08-08T10:20:19Z</time>
      </trkpt>
      <trkpt lat="44.81653" lon="5.74811">
        <ele>769</ele>
        <time>2017-08-08T10:20:39Z</time>
      </trkpt>
      <trkpt lat="44.81668" lon="5.74808">
        <ele>767</ele>
        <time>2017-08-08T10:20:54Z</time>
      </trkpt>
      <trkpt lat="44.81667" lon="5.74794">
        <ele>767</ele>
        <time>2017-08-08T10:21:00Z</time>
      </trkpt>
      <trkpt lat="44.81665" lon="5.74777">
        <ele>769</ele>
        <time>2017-08-08T10:21:13Z</time>
      </trkpt>
      <trkpt lat="44.81657" lon="5.74709">
        <ele>767</ele>
        <time>2017-08-08T10:21:19Z</time>
      </trkpt>
      <trkpt lat="44.81648" lon="5.746">
        <ele>764</ele>
        <time>2017-08-08T10:21:37Z</time>
      </trkpt>
      <trkpt lat="44.81641" lon="5.74498">
        <ele>758</ele>
        <time>2017-08-08T10:21:49Z</time>
      </trkpt>
      <trkpt lat="44.81642" lon="5.74479">
        <ele>758</ele>
        <time>2017-08-08T10:22:01Z</time>
      </trkpt>
      <trkpt lat="44.81649" lon="5.74448">
        <ele>756</ele>
        <time>2017-08-08T10:22:14Z</time>
      </trkpt>
      <trkpt lat="44.8166" lon="5.74425">
        <ele>754</ele>
        <time>2017-08-08T10:22:31Z</time>
      </trkpt>
      <trkpt lat="44.8167" lon="5.7441">
        <ele>752</ele>
        <time>2017-08-08T10:22:45Z</time>
      </trkpt>
      <trkpt lat="44.81684" lon="5.74392">
        <ele>750</ele>
        <time>2017-08-08T10:22:50Z</time>
      </trkpt>
      <trkpt lat="44.81707" lon="5.74374">
        <ele>749</ele>
        <time>2017-08-08T10:23:05Z</time>
      </trkpt>
      <trkpt lat="44.81722" lon="5.74367">
        <ele>749</ele>
        <time>2017-08-08T10:23:18Z</time>
      </trkpt>
      <trkpt lat="44.8173" lon="5.74366">
        <ele>749</ele>
        <time>2017-08-08T10:23:21Z</time>
      </trkpt>
      <trkpt lat="44.81756" lon="5.7437">
        <ele>748</ele>
        <time>2017-08-08T10:23:26Z</time>
      </trkpt>
      <trkpt lat="44.81819" lon="5.7439">
        <ele>747</ele>
        <time>2017-08-08T10:23:44Z</time>
      </trkpt>
      <trkpt lat="44.81835" lon="5.7439">
        <ele>750</ele>
        <time>2017-08-08T10:23:50Z</time>
      </trkpt>
      <trkpt lat="44.8187" lon="5.74384">
        <ele>751</ele>
        <time>2017-08-08T10:23:54Z</time>
      </trkpt>
      <trkpt lat="44.81889" lon="5.74379">
        <ele>753</ele>
        <time>2017-08-08T10:24:04Z</time>
      </trkpt>
      <trkpt lat="44.819" lon="5.74368">
        <ele>754</ele>
        <time>2017-08-08T10:24:15Z</time>
      </trkpt>
      <trkpt lat="44.81907" lon="5.74352">
        <ele>756</ele>
        <time>2017-08-08T10:24:22Z</time>
      </trkpt>
      <trkpt lat="44.81907" lon="5.74325">
        <ele>758</ele>
        <time>2017-08-08T10:24:35Z</time>
      </trkpt>
      <trkpt lat="44.81898" lon="5.74292">
        <ele>757</ele>
        <time>2017-08-08T10:24:47Z</time>
      </trkpt>
      <trkpt lat="44.81889" lon="5.74268">
        <ele>757</ele>
        <time>2017-08-08T10:24:53Z</time>
      </trkpt>
      <trkpt lat="44.81881" lon="5.74245">
        <ele>757</ele>
        <time>2017-08-08T10:25:10Z</time>
      </trkpt>
      <trkpt lat="44.81881" lon="5.74222">
        <ele>757</ele>
        <time>2017-08-08T10:25:26Z</time>
      </trkpt>
      <trkpt lat="44.81891" lon="5.74201">
        <ele>757</ele>
        <time>2017-08-08T10:25:29Z</time>
      </trkpt>
      <trkpt lat="44.81906" lon="5.74181">
        <ele>759</ele>
        <time>2017-08-08T10:25:49Z</time>
      </trkpt>
      <trkpt lat="44.81929" lon="5.74149">
        <ele>765</ele>
        <time>2017-08-08T10:25:55Z</time>
      </trkpt>
      <trkpt lat="44.81959" lon="5.74107">
        <ele>767</ele>
        <time>2017-08-08T10:25:59Z</time>
      </trkpt>
      <trkpt lat="44.81972" lon="5.74078">
        <ele>765</ele>
        <time>2017-08-08T10:26:19Z</time>
      </trkpt>
      <trkpt lat="44.81978" lon="5.74054">
        <ele>765</ele>
        <time>2017-08-08T10:26:28Z</time>
      </trkpt>
      <trkpt lat="44.81986" lon="5.73987">
        <ele>766</ele>
        <time>2017-08-08T10:26:31Z</time>
      </trkpt>
      <trkpt lat="44.8199" lon="5.73959">
        <ele>764</ele>
        <time>2017-08-08T10:26:48Z</time>
      </trkpt>
      <trkpt lat="44.81997" lon="5.73932">
        <ele>766</ele>
        <time>2017-08-08T10:27:05Z</time>
      </trkpt>
      <trkpt lat="44.82014" lon="5.73898">
        <ele>771</ele>
        <time>2017-08-08T10:27:12Z</time>
      </trkpt>
      <trkpt lat="44.82034" lon="5.73877">
        <ele>773</ele>
        <time>2017-08-08T10:27:14Z</time>
      </trkpt>
      <trkpt lat="44.82036" lon="5.73868">
        <ele>773</ele>
        <time>2017-08-08T10:27:26Z</time>
      </trkpt>
      <trkpt lat="44.82043" lon="5.73858">
        <ele>773</ele>
        <time>2017-08-08T10:27:36Z</time>
      </trkpt>
      <trkpt lat="44.82053" lon="5.73843">
        <ele>773</ele>
        <time>2017-08-08T10:27:44Z</time>
      </trkpt>
      <trkpt lat="44.82074" lon="5.73814">
        <ele>771</ele>
        <time>2017-08-08T10:28:02Z</time>
      </trkpt>
      <trkpt lat="44.82121" lon="5.73746">
        <ele>768</ele>
        <time>2017-08-08T10:28:12Z</time>
      </trkpt>
      <trkpt lat="44.82134" lon="5.73723">
        <ele>768</ele>
        <time>2017-08-08T10:28:19Z</time>
      </trkpt>
      <trkpt lat="44.82145" lon="5.73699">
        <ele>768</ele>
        <time>2017-08-08T10:28:23Z</time>
      </trkpt>
      <trkpt lat="44.82161" lon="5.73647">
        <ele>766</ele>
        <time>2017-08-08T10:28:39Z</time>
      </trkpt>
      <trkpt lat="44.82191" lon="5.73547">
        <ele>766</ele>
        <time>2017-08-08T10:28:55Z</time>
      </trkpt>
      <trkpt lat="44.82209" lon="5.73487">
        <ele>766</ele>
        <time>2017-08-08T10:28:58Z</time>
      </trkpt>
      <trkpt lat="44.8221" lon="5.73478">
        <ele>765</ele>
        <time>2017-08-08T10:29:05Z</time>
      </trkpt>
      <trkpt lat="44.82226" lon="5.73454">
        <ele>766</ele>
        <time>2017-08-08T10:29:11Z</time>
      </trkpt>
      <trkpt lat="44.82252" lon="5.73406">
        <ele>771</ele>
        <time>2017-08-08T10:29:24Z</time>
      </trkpt>
      <trkpt lat="44.8227" lon="5.73352">
        <ele>773</ele>
        <time>2017-08-08T10:29:42Z</time>
      </trkpt>
      <trkpt lat="44.82278" lon="5.73307">
        <ele>776</ele>
        <time>2017-08-08T10:29:51Z</time>
      </trkpt>
      <trkpt lat="44.8229" lon="5.73265">
        <ele>778</ele>
        <time>2017-08-08T10:30:04Z</time>
      </trkpt>
      <trkpt lat="44.82302" lon="5.73232">
        <ele>781</ele>
        <time>2017-08-08T10:30:24Z</time>
      </trkpt>
      <trkpt lat="44.82311" lon="5.73226">
        <ele>782</ele>
        <time>2017-08-08T10:30:28Z</time>
      </trkpt>
      <trkpt lat="44.82345" lon="5.732">
        <ele>795</ele>
        <time>2017-08-08T10:30:35Z</time>
      </trkpt>
      <trkpt lat="44.8236" lon="5.73182">
        <ele>796</ele>
        <time>2017-08-08T10:30:55Z</time>
      </trkpt>
      <trkpt lat="44.82367" lon="5.7317">
        <ele>797</ele>
        <time>2017-08-08T10:31:13Z</time>
      </trkpt>
      <trkpt lat="44.82381" lon="5.73138">
        <ele>801</ele>
        <time>2017-08-08T10:31:17Z</time>
      </trkpt>
      <trkpt lat="44.82388" lon="5.7312">
        <ele>802</ele>
        <time>2017-08-08T10:31:20Z</time>
      </trkpt>
      <trkpt lat="44.82396" lon="5.73105">
        <ele>804</ele>
        <time>2017-08-08T10:31:30Z</time>
      </trkpt>
      <trkpt lat="44.82396" lon="5.73077">
        <ele>807</ele>
        <time>2017-08-08T10:31:48Z</time>
      </trkpt>
      <trkpt lat="44.82404" lon="5.73051">
        <ele>807</ele>
        <time>2017-08-08T10:31:58Z</time>
      </trkpt>
      <trkpt lat="44.82412" lon="5.73034">
        <ele>808</ele>
        <time>2017-08-08T10:32:13Z</time>
      </trkpt>
      <trkpt lat="44.82426" lon="5.73027">
        <ele>823</ele>
        <time>2017-08-08T10:32:26Z</time>
      </trkpt>
      <trkpt lat="44.82433" lon="5.73016">
        <ele>823</ele>
        <time>2017-08-08T10:32:33Z</time>
      </trkpt>
      <trkpt lat="44.82436" lon="5.73004">
        <ele>823</ele>
        <time>2017-08-08T10:32:49Z</time>
      </trkpt>
      <trkpt lat="44.82445" lon="5.7299">
        <ele>828</ele>
        <time>2017-08-08T10:32:53Z</time>
      </trkpt>
      <trkpt lat="44.82452" lon="5.72987">
        <ele>830</ele>
        <time>2017-08-08T10:33:02Z</time>
      </trkpt>
      <trkpt lat="44.82455" lon="5.72982">
        <ele>831</ele>
        <time>2017-08-08T10:33:09Z</time>
      </trkpt>
      <trkpt lat="44.82458" lon="5.72965">
        <ele>832</ele>
        <time>2017-08-08T10:33:23Z</time>
      </trkpt>
      <trkpt lat="44.82463" lon="5.72916">
        <ele>837</ele>
        <time>2017-08-08T10:33:26Z</time>
      </trkpt>
      <trkpt lat="44.82467" lon="5.72895">
        <ele>838</ele>
        <time>2017-08-08T10:33:39Z</time>
      </trkpt>
      <trkpt lat="44.82467" lon="5.72877">
        <ele>839</ele>
        <time>2017-08-08T10:33:47Z</time>
      </trkpt>
      <trkpt lat="44.82476" lon="5.72827">
        <ele>848</ele>
        <time>2017-08-08T10:34:00Z</time>
      </trkpt>
      <trkpt lat="44.82481" lon="5.72814">
        <ele>848</ele>
        <time>2017-08-08T10:34:04Z</time>
      </trkpt>
      <trkpt lat="44.82486" lon="5.72783">
        <ele>850</ele>
        <time>2017-08-08T10:34:18Z</time>
      </trkpt>
      <trkpt lat="44.82492" lon="5.72717">
        <ele>856</ele>
        <time>2017-08-08T10:34:28Z</time>
      </trkpt>
      <trkpt lat="44.82503" lon="5.72657">
        <ele>870</ele>
        <time>2017-08-08T10:34:36Z</time>
      </trkpt>
      <trkpt lat="44.82505" lon="5.72616">
        <ele>876</ele>
        <time>2017-08-08T10:34:45Z</time>
      </trkpt>
      <trkpt lat="44.82509" lon="5.72558">
        <ele>882</ele>
        <time>2017-08-08T10:35:02Z</time>
      </trkpt>
      <trkpt lat="44.82524" lon="5.72505">
        <ele>885</ele>
        <time>2017-08-08T10:35:11Z</time>
      </trkpt>
      <trkpt lat="44.82532" lon="5.72447">
        <ele>883</ele>
        <time>2017-08-08T10:35:31Z</time>
      </trkpt>
      <trkpt lat="44.82538" lon="5.72429">
        <ele>882</ele>
        <time>2017-08-08T10:35:46Z</time>
      </trkpt>
      <trkpt lat="44.8254" lon="5.72421">
        <ele>882</ele>
        <time>2017-08-08T10:35:54Z</time>
      </trkpt>
      <trkpt lat="44.82547" lon="5.72414">
        <ele>877</ele>
        <time>2017-08-08T10:35:57Z</time>
      </trkpt>
      <trkpt lat="44.82562" lon="5.72396">
        <ele>876</ele>
        <time>2017-08-08T10:36:07Z</time>
      </trkpt>
      <trkpt lat="44.82575" lon="5.72378">
        <ele>875</ele>
        <time>2017-08-08T10:36:25Z</time>
      </trkpt>
      <trkpt lat="44.82582" lon="5.72362">
        <ele>873</ele>
        <time>2017-08-08T10:36:31Z</time>
      </trkpt>
      <trkpt lat="44.82588" lon="5.72342">
        <ele>870</ele>
        <time>2017-08-08T10:36:36Z</time>
      </trkpt>
      <trkpt lat="44.82599" lon="5.72301">
        <ele>866</ele>
        <time>2017-08-08T10:36:38Z</time>
      </trkpt>
      <trkpt lat="44.82606" lon="5.72285">
        <ele>865</ele>
        <time>2017-08-08T10:36:48Z</time>
      </trkpt>
      <trkpt lat="44.82617" lon="5.7227">
        <ele>865</ele>
        <time>2017-08-08T10:36:52Z</time>
      </trkpt>
      <trkpt lat="44.82649" lon="5.72226">
        <ele>860</ele>
        <time>2017-08-08T10:37:01Z</time>
      </trkpt>
      <trkpt lat="44.82661" lon="5.72206">
        <ele>859</ele>
        <time>2017-08-08T10:37:06Z</time>
      </trkpt>
      <trkpt lat="44.82695" lon="5.72147">
        <ele>858</ele>
        <time>2017-08-08T10:37:17Z</time>
      </trkpt>
      <trkpt lat="44.82711" lon="5.72109">
        <ele>858</ele>
        <time>2017-08-08T10:37:36Z</time>
      </trkpt>
      <trkpt lat="44.8273" lon="5.72051">
        <ele>854</ele>
        <time>2017-08-08T10:37:53Z</time>
      </trkpt>
      <trkpt lat="44.82752" lon="5.71992">
        <ele>854</ele>
        <time>2017-08-08T10:38:01Z</time>
      </trkpt>
      <trkpt lat="44.82769" lon="5.71935">
        <ele>853</ele>
        <time>2017-08-08T10:38:13Z</time>
      </trkpt>
      <trkpt lat="44.82775" lon="5.71902">
        <ele>848</ele>
        <time>2017-08-08T10:38:20Z</time>
      </trkpt>
      <trkpt lat="44.82783" lon="5.71875">
        <ele>847</ele>
        <time>2017-08-08T10:38:40Z</time>
      </trkpt>
      <trkpt lat="44.82798" lon="5.71855">
        <ele>846</ele>
        <time>2017-08-08T10:38:49Z</time>
      </trkpt>
      <trkpt lat="44.82821" lon="5.71836">
        <ele>845</ele>
        <time>2017-08-08T10:39:02Z</time>
      </trkpt>
      <trkpt lat="44.82835" lon="5.71827">
        <ele>841</ele>
        <time>2017-08-08T10:39:10Z</time>
      </trkpt>
      <trkpt lat="44.82847" lon="5.7182">
        <ele>838</ele>
        <time>2017-08-08T10:39:20Z</time>
      </trkpt>
      <trkpt lat="44.82873" lon="5.71808">
        <ele>835</ele>
        <time>2017-08-08T10:39:23Z</time>
      </trkpt>
      <trkpt lat="44.829" lon="5.718">
        <ele>834</ele>
        <time>2017-08-08T10:39:26Z</time>
      </trkpt>
      <trkpt lat="44.82938" lon="5.718">
        <ele>832</ele>
        <time>2017-08-08T10:39:38Z</time>
      </trkpt>
      <trkpt lat="44.82956" lon="5.71797">
        <ele>831</ele>
        <time>2017-08-08T10:39:44Z</time>
      </trkpt>
      <trkpt lat="44.82962" lon="5.71791">
        <ele>831</ele>
        <time>2017-08-08T10:39:54Z</time>
      </trkpt>
      <trkpt lat="44.82976" lon="5.71779">
        <ele>830</ele>
        <time>2017-08-08T10:40:06Z</time>
      </trkpt>
      <trkpt lat="44.82986" lon="5.71733">
        <ele>820</ele>
        <time>2017-08-08T10:40:12Z</time>
      </trkpt>
      <trkpt lat="44.82977" lon="5.71726">
        <ele>819</ele>
        <time>2017-08-08T10:40:18Z</time>
      </trkpt>
      <trkpt lat="44.82959" lon="5.7171">
        <ele>818</ele>
        <time>2017-08-08T10:40:27Z</time>
      </trkpt>
      <trkpt lat="44.82944" lon="5.71702">
        <ele>817</ele>
        <time>2017-08-08T10:40:32Z</time>
      </trkpt>
      <trkpt lat="44.82902" lon="5.71697">
        <ele>814</ele>
        <time>2017-08-08T10:40:50Z</time>
      </trkpt>
      <trkpt lat="44.82844" lon="5.71689">
        <ele>810</ele>
        <time>2017-08-08T10:40:56Z</time>
      </trkpt>
      <trkpt lat="44.82815" lon="5.71687">
        <ele>809</ele>
        <time>2017-08-08T10:41:10Z</time>
      </trkpt>
      <trkpt lat="44.8276" lon="5.71686">
        <ele>806</ele>
        <time>2017-08-08T10:41:14Z</time>
      </trkpt>
      <trkpt lat="44.82756" lon="5.71686">
        <ele>806</ele>
        <time>2017-08-08T10:41:28Z</time>
      </trkpt>
      <trkpt lat="44.82744" lon="5.71686">
        <ele>804</ele>
        <time>2017-08-08T10:41:32Z</time>
      </trkpt>
      <trkpt lat="44.82728" lon="5.7169">
        <ele>806</ele>
        <time>2017-08-08T10:41:52Z</time>
      </trkpt>
      <trkpt lat="44.82703" lon="5.71694">
        <ele>806</ele>
        <time>2017-08-08T10:42:12Z</time>
      </trkpt>
      <trkpt lat="44.8269" lon="5.71691">
        <ele>805</ele>
        <time>2017-08-08T10:42:30Z</time>
      </trkpt>
      <trkpt lat="44.82676" lon="5.71686">
        <ele>804</ele>
        <time>2017-08-08T10:42:47Z</time>
      </trkpt>
      <trkpt lat="44.82656" lon="5.71671">
        <ele>801</ele>
        <time>2017-08-08T10:42:53Z</time>
      </trkpt>
      <trkpt lat="44.82648" lon="5.71661">
        <ele>797</ele>
        <time>2017-08-08T10:43:03Z</time>
      </trkpt>
      <trkpt lat="44.82634" lon="5.71636">
        <ele>795</ele>
        <time>2017-08-08T10:43:13Z</time>
      </trkpt>
      <trkpt lat="44.82614" lon="5.71586">
        <ele>793</ele>
        <time>2017-08-08T10:43:16Z</time>
      </trkpt>
      <trkpt lat="44.82604" lon="5.71565">
        <ele>787</ele>
        <time>2017-08-08T10:43:27Z</time>
      </trkpt>
      <trkpt lat="44.82595" lon="5.71553">
        <ele>787</ele>
        <time>2017-08-08T10:43:45Z</time>
      </trkpt>
      <trkpt lat="44.82577" lon="5.7154">
        <ele>786</ele>
        <time>2017-08-08T10:43:56Z</time>
      </trkpt>
      <trkpt lat="44.82562" lon="5.71537">
        <ele>786</ele>
        <time>2017-08-08T10:44:16Z</time>
      </trkpt>
      <trkpt lat="44.82516" lon="5.71537">
        <ele>786</ele>
        <time>2017-08-08T10:44:28Z</time>
      </trkpt>
      <trkpt lat="44.82435" lon="5.71543">
        <ele>785</ele>
        <time>2017-08-08T10:44:38Z</time>
      </trkpt>
      <trkpt lat="44.82403" lon="5.71544">
        <ele>785</ele>
        <time>2017-08-08T10:44:55Z</time>
      </trkpt>
      <trkpt lat="44.82375" lon="5.71542">
        <ele>785</ele>
        <time>2017-08-08T10:45:02Z</time>
      </trkpt>
      <trkpt lat="44.82363" lon="5.71537">
        <ele>785</ele>
        <time>2017-08-08T10:45:07Z</time>
      </trkpt>
      <trkpt lat="44.82352" lon="5.7153">
        <ele>784</ele>
        <time>2017-08-08T10:45:25Z</time>
      </trkpt>
      <trkpt lat="44.82343" lon="5.71517">
        <ele>783</ele>
        <time>2017-08-08T10:45:38Z</time>
      </trkpt>
      <trkpt lat="44.82326" lon="5.71484">
        <ele>786</ele>
        <time>2017-08-08T10:45:48Z</time>
      </trkpt>
      <trkpt lat="44.82289" lon="5.71389">
        <ele>789</ele>
        <time>2017-08-08T10:46:06Z</time>
      </trkpt>
      <trkpt lat="44.82283" lon="5.71358">
        <ele>789</ele>
        <time>2017-08-08T10:46:25Z</time>
      </trkpt>
      <trkpt lat="44.82283" lon="5.71339">
        <ele>789</ele>
        <time>2017-08-08T10:46:33Z</time>
      </trkpt>
      <trkpt lat="44.82287" lon="5.71279">
        <ele>780</ele>
        <time>2017-08-08T10:46:41Z</time>
      </trkpt>
      <trkpt lat="44.82285" lon="5.71255">
        <ele>780</ele>
        <time>2017-08-08T10:46:58Z</time>
      </trkpt>
      <trkpt lat="44.8228" lon="5.71231">
        <ele>774</ele>
        <time>2017-08-08T10:47:03Z</time>
      </trkpt>
      <trkpt lat="44.82272" lon="5.712">
        <ele>773</ele>
        <time>2017-08-08T10:47:20Z</time>
      </trkpt>
      <trkpt lat="44.82269" lon="5.71175">
        <ele>772</ele>
        <time>2017-08-08T10:47:22Z</time>
      </trkpt>
      <trkpt lat="44.8227" lon="5.71151">
        <ele>766</ele>
        <time>2017-08-08T10:47:34Z</time>
      </trkpt>
      <trkpt lat="44.82275" lon="5.7112">
        <ele>762</ele>
        <time>2017-08-08T10:47:37Z</time>
      </trkpt>
      <trkpt lat="44.82277" lon="5.71088">
        <ele>760</ele>
        <time>2017-08-08T10:47:57Z</time>
      </trkpt>
      <trkpt lat="44.82271" lon="5.71056">
        <ele>758</ele>
        <time>2017-08-08T10:48:13Z</time>
      </trkpt>
      <trkpt lat="44.82256" lon="5.70993">
        <ele>754</ele>
        <time>2017-08-08T10:48:28Z</time>
      </trkpt>
      <trkpt lat="44.82249" lon="5.70963">
        <ele>756</ele>
        <time>2017-08-08T10:48:33Z</time>
      </trkpt>
      <trkpt lat="44.82242" lon="5.70945">
        <ele>755</ele>
        <time>2017-08-08T10:48:44Z</time>
      </trkpt>
      <trkpt lat="44.82213" lon="5.70901">
        <ele>752</ele>
        <time>2017-08-08T10:48:53Z</time>
      </trkpt>
      <trkpt lat="44.822" lon="5.70879">
        <ele>752</ele>
        <time>2017-08-08T10:49:08Z</time>
      </trkpt>
      <trkpt lat="44.82191" lon="5.70856">
        <ele>752</ele>
        <time>2017-08-08T10:49:18Z</time>
      </trkpt>
      <trkpt lat="44.82151" lon="5.70718">
        <ele>755</ele>
        <time>2017-08-08T10:49:24Z</time>
      </trkpt>
      <trkpt lat="44.82132" lon="5.70654">
        <ele>747</ele>
        <time>2017-08-08T10:49:39Z</time>
      </trkpt>
      <trkpt lat="44.8212" lon="5.7062">
        <ele>747</ele>
        <time>2017-08-08T10:49:46Z</time>
      </trkpt>
      <trkpt lat="44.82095" lon="5.70575">
        <ele>740</ele>
        <time>2017-08-08T10:50:06Z</time>
      </trkpt>
      <trkpt lat="44.8206" lon="5.70519">
        <ele>738</ele>
        <time>2017-08-08T10:50:19Z</time>
      </trkpt>
      <trkpt lat="44.82032" lon="5.70473">
        <ele>729</ele>
        <time>2017-08-08T10:50:24Z</time>
      </trkpt>
      <trkpt lat="44.82018" lon="5.70454">
        <ele>729</ele>
        <time>2017-08-08T10:50:40Z</time>
      </trkpt>
      <trkpt lat="44.81995" lon="5.70419">
        <ele>724</ele>
        <time>2017-08-08T10:50:51Z</time>
      </trkpt>
      <trkpt lat="44.81987" lon="5.70409">
        <ele>722</ele>
        <time>2017-08-08T10:51:08Z</time>
      </trkpt>
      <trkpt lat="44.81976" lon="5.70378">
        <ele>721</ele>
        <time>2017-08-08T10:51:16Z</time>
      </trkpt>
      <trkpt lat="44.81961" lon="5.70315">
        <ele>721</ele>
        <time>2017-08-08T10:51:19Z</time>
      </trkpt>
      <trkpt lat="44.81952" lon="5.70279">
        <ele>721</ele>
        <time>2017-08-08T10:51:36Z</time>
      </trkpt>
      <trkpt lat="44.81949" lon="5.70258">
        <ele>720</ele>
        <time>2017-08-08T10:51:46Z</time>
      </trkpt>
      <trkpt lat="44.81951" lon="5.70245">
        <ele>720</ele>
        <time>2017-08-08T10:51:49Z</time>
      </trkpt>
      <trkpt lat="44.81959" lon="5.70228">
        <ele>720</ele>
        <time>2017-08-08T10:51:52Z</time>
      </trkpt>
      <trkpt lat="44.81971" lon="5.70207">
        <ele>721</ele>
        <time>2017-08-08T10:51:55Z</time>
      </trkpt>
      <trkpt lat="44.81983" lon="5.70175">
        <ele>722</ele>
        <time>2017-08-08T10:51:57Z</time>
      </trkpt>
      <trkpt lat="44.8199" lon="5.70137">
        <ele>719</ele>
        <time>2017-08-08T10:52:04Z</time>
      </trkpt>
      <trkpt lat="44.81993" lon="5.70102">
        <ele>718</ele>
        <time>2017-08-08T10:52:06Z</time>
      </trkpt>
      <trkpt lat="44.82" lon="5.70077">
        <ele>722</ele>
        <time>2017-08-08T10:52:18Z</time>
      </trkpt>
      <trkpt lat="44.82006" lon="5.70061">
        <ele>724</ele>
        <time>2017-08-08T10:52:32Z</time>
      </trkpt>
      <trkpt lat="44.82013" lon="5.7003">
        <ele>724</ele>
        <time>2017-08-08T10:52:50Z</time>
      </trkpt>
      <trkpt lat="44.82012" lon="5.69999">
        <ele>718</ele>
        <time>2017-08-08T10:53:05Z</time>
      </trkpt>
      <trkpt lat="44.82" lon="5.69958">
        <ele>722</ele>
        <time>2017-08-08T10:53:25Z</time>
      </trkpt>
      <trkpt lat="44.81984" lon="5.69922">
        <ele>714</ele>
        <time>2017-08-08T10:53:27Z</time>
      </trkpt>
      <trkpt lat="44.81964" lon="5.6989">
        <ele>718</ele>
        <time>2017-08-08T10:53:35Z</time>
      </trkpt>
      <trkpt lat="44.81936" lon="5.69854">
        <ele>717</ele>
        <time>2017-08-08T10:53:52Z</time>
      </trkpt>
      <trkpt lat="44.81904" lon="5.69827">
        <ele>715</ele>
        <time>2017-08-08T10:54:01Z</time>
      </trkpt>
      <trkpt lat="44.81862" lon="5.698">
        <ele>713</ele>
        <time>2017-08-08T10:54:18Z</time>
      </trkpt>
      <trkpt lat="44.81835" lon="5.69782">
        <ele>712</ele>
        <time>2017-08-08T10:54:35Z</time>
      </trkpt>
      <trkpt lat="44.81823" lon="5.69766">
        <ele>703</ele>
        <time>2017-08-08T10:54:55Z</time>
      </trkpt>
      <trkpt lat="44.81812" lon="5.69732">
        <ele>706</ele>
        <time>2017-08-08T10:55:03Z</time>
      </trkpt>
      <trkpt lat="44.818" lon="5.69702">
        <ele>705</ele>
        <time>2017-08-08T10:55:10Z</time>
      </trkpt>
      <trkpt lat="44.81776" lon="5.69664">
        <ele>704</ele>
        <time>2017-08-08T10:55:23Z</time>
      </trkpt>
      <trkpt lat="44.81762" lon="5.6963">
        <ele>703</ele>
        <time>2017-08-08T10:55:36Z</time>
      </trkpt>
      <trkpt lat="44.81763" lon="5.69611">
        <ele>703</ele>
        <time>2017-08-08T10:55:51Z</time>
      </trkpt>
      <trkpt lat="44.81768" lon="5.69602">
        <ele>703</ele>
        <time>2017-08-08T10:56:00Z</time>
      </trkpt>
      <trkpt lat="44.81791" lon="5.69578">
        <ele>702</ele>
        <time>2017-08-08T10:56:15Z</time>
      </trkpt>
      <trkpt lat="44.81804" lon="5.69568">
        <ele>703</ele>
        <time>2017-08-08T10:56:19Z</time>
      </trkpt>
      <trkpt lat="44.81816" lon="5.69564">
        <ele>704</ele>
        <time>2017-08-08T10:56:37Z</time>
      </trkpt>
      <trkpt lat="44.81845" lon="5.6955">
        <ele>710</ele>
        <time>2017-08-08T10:56:57Z</time>
      </trkpt>
      <trkpt lat="44.81857" lon="5.69542">
        <ele>710</ele>
        <time>2017-08-08T10:57:05Z</time>
      </trkpt>
      <trkpt lat="44.81867" lon="5.69529">
        <ele>710</ele>
        <time>2017-08-08T10:57:07Z</time>
      </trkpt>
      <trkpt lat="44.81881" lon="5.69497">
        <ele>708</ele>
        <time>2017-08-08T10:57:12Z</time>
      </trkpt>
      <trkpt lat="44.81888" lon="5.69446">
        <ele>710</ele>
        <time>2017-08-08T10:57:23Z</time>
      </trkpt>
      <trkpt lat="44.81888" lon="5.69414">
        <ele>714</ele>
        <time>2017-08-08T10:57:41Z</time>
      </trkpt>
      <trkpt lat="44.81881" lon="5.69383">
        <ele>713</ele>
        <time>2017-08-08T10:57:48Z</time>
      </trkpt>
      <trkpt lat="44.81871" lon="5.69341">
        <ele>713</ele>
        <time>2017-08-08T10:58:00Z</time>
      </trkpt>
      <trkpt lat="44.81865" lon="5.69326">
        <ele>716</ele>
        <time>2017-08-08T10:58:13Z</time>
      </trkpt>
      <trkpt lat="44.81859" lon="5.69318">
        <ele>715</ele>
        <time>2017-08-08T10:58:30Z</time>
      </trkpt>
      <trkpt lat="44.81845" lon="5.69308">
        <ele>714</ele>
        <time>2017-08-08T10:58:38Z</time>
      </trkpt>
      <trkpt lat="44.81812" lon="5.69295">
        <ele>699</ele>
        <time>2017-08-08T10:58:47Z</time>
      </trkpt>
      <trkpt lat="44.81785" lon="5.69298">
        <ele>696</ele>
        <time>2017-08-08T10:58:59Z</time>
      </trkpt>
      <trkpt lat="44.81776" lon="5.69297">
        <ele>695</ele>
        <time>2017-08-08T10:59:12Z</time>
      </trkpt>
      <trkpt lat="44.81764" lon="5.69288">
        <ele>695</ele>
        <time>2017-08-08T10:59:29Z</time>
      </trkpt>
      <trkpt lat="44.81749" lon="5.69274">
        <ele>685</ele>
        <time>2017-08-08T10:59:46Z</time>
      </trkpt>
      <trkpt lat="44.8174" lon="5.69261">
        <ele>687</ele>
        <time>2017-08-08T10:59:55Z</time>
      </trkpt>
      <trkpt lat="44.81739" lon="5.69247">
        <ele>686</ele>
        <time>2017-08-08T11:00:00Z</time>
      </trkpt>
      <trkpt lat="44.81741" lon="5.6924">
        <ele>686</ele>
        <time>2017-08-08T11:00:12Z</time>
      </trkpt>
      <trkpt lat="44.81746" lon="5.69236">
        <ele>686</ele>
        <time>2017-08-08T11:00:19Z</time>
      </trkpt>
      <trkpt lat="44.81758" lon="5.6923">
        <ele>693</ele>
        <time>2017-08-08T11:00:39Z</time>
      </trkpt>
      <trkpt lat="44.81776" lon="5.69225">
        <ele>694</ele>
        <time>2017-08-08T11:00:52Z</time>
      </trkpt>
      <trkpt lat="44.81811" lon="5.6921">
        <ele>697</ele>
        <time>2017-08-08T11:00:58Z</time>
      </trkpt>
      <trkpt lat="44.81826" lon="5.69199">
        <ele>697</ele>
        <time>2017-08-08T11:01:15Z</time>
      </trkpt>
      <trkpt lat="44.8184" lon="5.69184">
        <ele>708</ele>
        <time>2017-08-08T11:01:34Z</time>
      </trkpt>
      <trkpt lat="44.8186" lon="5.69144">
        <ele>703</ele>
        <time>2017-08-08T11:01:47Z</time>
      </trkpt>
      <trkpt lat="44.81874" lon="5.69101">
        <ele>702</ele>
        <time>2017-08-08T11:01:55Z</time>
      </trkpt>
      <trkpt lat="44.81877" lon="5.69064">
        <ele>696</ele>
        <time>2017-08-08T11:01:59Z</time>
      </trkpt>
      <trkpt lat="44.81873" lon="5.68992">
        <ele>690</ele>
        <time>2017-08-08T11:02:06Z</time>
      </trkpt>
      <trkpt lat="44.81873" lon="5.68962">
        <ele>689</ele>
        <time>2017-08-08T11:02:11Z</time>
      </trkpt>
      <trkpt lat="44.81884" lon="5.68943">
        <ele>688</ele>
        <time>2017-08-08T11:02:20Z</time>
      </trkpt>
      <trkpt lat="44.81899" lon="5.68931">
        <ele>687</ele>
        <time>2017-08-08T11:02:24Z</time>
      </trkpt>
      <trkpt lat="44.81914" lon="5.68925">
        <ele>686</ele>
        <time>2017-08-08T11:02:43Z</time>
      </trkpt>
      <trkpt lat="44.81932" lon="5.6892">
        <ele>690</ele>
        <time>2017-08-08T11:03:00Z</time>
      </trkpt>
      <trkpt lat="44.81962" lon="5.6891">
        <ele>686</ele>
        <time>2017-08-08T11:03:16Z</time>
      </trkpt>
      <trkpt lat="44.81976" lon="5.68896">
        <ele>686</ele>
        <time>2017-08-08T11:03:24Z</time>
      </trkpt>
      <trkpt lat="44.81995" lon="5.68861">
        <ele>684</ele>
        <time>2017-08-08T11:03:41Z</time>
      </trkpt>
      <trkpt lat="44.82003" lon="5.68848">
        <ele>686</ele>
        <time>2017-08-08T11:03:43Z</time>
      </trkpt>
      <trkpt lat="44.82015" lon="5.68842">
        <ele>687</ele>
        <time>2017-08-08T11:03:47Z</time>
      </trkpt>
      <trkpt lat="44.82026" lon="5.68835">
        <ele>688</ele>
        <time>2017-08-08T11:03:49Z</time>
      </trkpt>
      <trkpt lat="44.8204" lon="5.68816">
        <ele>685</ele>
        <time>2017-08-08T11:04:08Z</time>
      </trkpt>
      <trkpt lat="44.82051" lon="5.68782">
        <ele>685</ele>
        <time>2017-08-08T11:04:19Z</time>
      </trkpt>
      <trkpt lat="44.82062" lon="5.68759">
        <ele>686</ele>
        <time>2017-08-08T11:04:36Z</time>
      </trkpt>
      <trkpt lat="44.82089" lon="5.68719">
        <ele>691</ele>
        <time>2017-08-08T11:04:38Z</time>
      </trkpt>
      <trkpt lat="44.82124" lon="5.68666">
        <ele>688</ele>
        <time>2017-08-08T11:04:53Z</time>
      </trkpt>
      <trkpt lat="44.8213" lon="5.68658">
        <ele>688</ele>
        <time>2017-08-08T11:05:01Z</time>
      </trkpt>
      <trkpt lat="44.82138" lon="5.68653">
        <ele>688</ele>
        <time>2017-08-08T11:05:11Z</time>
      </trkpt>
      <trkpt lat="44.82173" lon="5.68648">
        <ele>693</ele>
        <time>2017-08-08T11:05:23Z</time>
      </trkpt>
      <trkpt lat="44.82202" lon="5.68644">
        <ele>693</ele>
        <time>2017-08-08T11:05:41Z</time>
      </trkpt>
      <trkpt lat="44.82208" lon="5.68641">
        <ele>693</ele>
        <time>2017-08-08T11:05:46Z</time>
      </trkpt>
      <trkpt lat="44.82221" lon="5.6863">
        <ele>693</ele>
        <time>2017-08-08T11:05:49Z</time>
      </trkpt>
      <trkpt lat="44.82236" lon="5.68604">
        <ele>690</ele>
        <time>2017-08-08T11:05:51Z</time>
      </trkpt>
      <trkpt lat="44.82244" lon="5.68596">
        <ele>689</ele>
        <time>2017-08-08T11:06:00Z</time>
      </trkpt>
      <trkpt lat="44.8225" lon="5.68594">
        <ele>688</ele>
        <time>2017-08-08T11:06:19Z</time>
      </trkpt>
      <trkpt lat="44.82263" lon="5.68601">
        <ele>691</ele>
        <time>2017-08-08T11:06:31Z</time>
      </trkpt>
      <trkpt lat="44.82287" lon="5.68621">
        <ele>694</ele>
        <time>2017-08-08T11:06:50Z</time>
      </trkpt>
      <trkpt lat="44.82308" lon="5.68626">
        <ele>694</ele>
        <time>2017-08-08T11:06:56Z</time>
      </trkpt>
      <trkpt lat="44.82334" lon="5.68625">
        <ele>693</ele>
        <time>2017-08-08T11:07:07Z</time>
      </trkpt>
      <trkpt lat="44.82343" lon="5.68628">
        <ele>694</ele>
        <time>2017-08-08T11:07:22Z</time>
      </trkpt>
      <trkpt lat="44.82365" lon="5.6864">
        <ele>694</ele>
        <time>2017-08-08T11:07:31Z</time>
      </trkpt>
      <trkpt lat="44.8238" lon="5.68647">
        <ele>695</ele>
        <time>2017-08-08T11:07:50Z</time>
      </trkpt>
      <trkpt lat="44.82393" lon="5.68648">
        <ele>695</ele>
        <time>2017-08-08T11:08:10Z</time>
      </trkpt>
      <trkpt lat="44.82406" lon="5.68644">
        <ele>695</ele>
        <time>2017-08-08T11:08:21Z</time>
      </trkpt>
      <trkpt lat="44.82433" lon="5.68629">
        <ele>695</ele>
        <time>2017-08-08T11:08:33Z</time>
      </trkpt>
      <trkpt lat="44.82492" lon="5.68579">
        <ele>693</ele>
        <time>2017-08-08T11:08:38Z</time>
      </trkpt>
      <trkpt lat="44.825" lon="5.68565">
        <ele>695</ele>
        <time>2017-08-08T11:08:49Z</time>
      </trkpt>
      <trkpt lat="44.82504" lon="5.68553">
        <ele>695</ele>
        <time>2017-08-08T11:08:59Z</time>
      </trkpt>
      <trkpt lat="44.82508" lon="5.68521">
        <ele>694</ele>
        <time>2017-08-08T11:09:03Z</time>
      </trkpt>
      <trkpt lat="44.82507" lon="5.68497">
        <ele>692</ele>
        <time>2017-08-08T11:09:05Z</time>
      </trkpt>
      <trkpt lat="44.82507" lon="5.68477">
        <ele>693</ele>
        <time>2017-08-08T11:09:09Z</time>
      </trkpt>
      <trkpt lat="44.8251" lon="5.68461">
        <ele>694</ele>
        <time>2017-08-08T11:09:25Z</time>
      </trkpt>
      <trkpt lat="44.82516" lon="5.68445">
        <ele>694</ele>
        <time>2017-08-08T11:09:33Z</time>
      </trkpt>
      <trkpt lat="44.82525" lon="5.68433">
        <ele>694</ele>
        <time>2017-08-08T11:09:36Z</time>
      </trkpt>
      <trkpt lat="44.82534" lon="5.6842">
        <ele>695</ele>
        <time>2017-08-08T11:09:50Z</time>
      </trkpt>
      <trkpt lat="44.82541" lon="5.68405">
        <ele>698</ele>
        <time>2017-08-08T11:10:01Z</time>
      </trkpt>
      <trkpt lat="44.82546" lon="5.68381">
        <ele>699</ele>
        <time>2017-08-08T11:10:16Z</time>
      </trkpt>
      <trkpt lat="44.82548" lon="5.68357">
        <ele>700</ele>
        <time>2017-08-08T11:10:36Z</time>
      </trkpt>
      <trkpt lat="44.82546" lon="5.68334">
        <ele>700</ele>
        <time>2017-08-08T11:10:47Z</time>
      </trkpt>
      <trkpt lat="44.8254" lon="5.6831">
        <ele>702</ele>
        <time>2017-08-08T11:10:56Z</time>
      </trkpt>
      <trkpt lat="44.8253" lon="5.68288">
        <ele>702</ele>
        <time>2017-08-08T11:11:05Z</time>
      </trkpt>
      <trkpt lat="44.82513" lon="5.68262">
        <ele>700</ele>
        <time>2017-08-08T11:11:09Z</time>
      </trkpt>
      <trkpt lat="44.82483" lon="5.68213">
        <ele>696</ele>
        <time>2017-08-08T11:11:11Z</time>
      </trkpt>
      <trkpt lat="44.82475" lon="5.68194">
        <ele>696</ele>
        <time>2017-08-08T11:11:13Z</time>
      </trkpt>
      <trkpt lat="44.82472" lon="5.68175">
        <ele>697</ele>
        <time>2017-08-08T11:11:27Z</time>
      </trkpt>
      <trkpt lat="44.82474" lon="5.68151">
        <ele>697</ele>
        <time>2017-08-08T11:11:29Z</time>
      </trkpt>
      <trkpt lat="44.8248" lon="5.68131">
        <ele>696</ele>
        <time>2017-08-08T11:11:34Z</time>
      </trkpt>
      <trkpt lat="44.8249" lon="5.68109">
        <ele>696</ele>
        <time>2017-08-08T11:11:47Z</time>
      </trkpt>
      <trkpt lat="44.82514" lon="5.68075">
        <ele>699</ele>
        <time>2017-08-08T11:11:58Z</time>
      </trkpt>
      <trkpt lat="44.82536" lon="5.68057">
        <ele>700</ele>
        <time>2017-08-08T11:12:15Z</time>
      </trkpt>
      <trkpt lat="44.82539" lon="5.68033">
        <ele>700</ele>
        <time>2017-08-08T11:12:20Z</time>
      </trkpt>
      <trkpt lat="44.82538" lon="5.68003">
        <ele>698</ele>
        <time>2017-08-08T11:12:26Z</time>
      </trkpt>
      <trkpt lat="44.82546" lon="5.67973">
        <ele>694</ele>
        <time>2017-08-08T11:12:40Z</time>
      </trkpt>
      <trkpt lat="44.82563" lon="5.67943">
        <ele>694</ele>
        <time>2017-08-08T11:12:51Z</time>
      </trkpt>
      <trkpt lat="44.82566" lon="5.67927">
        <ele>695</ele>
        <time>2017-08-08T11:12:53Z</time>
      </trkpt>
      <trkpt lat="44.82567" lon="5.67914">
        <ele>693</ele>
        <time>2017-08-08T11:12:55Z</time>
      </trkpt>
      <trkpt lat="44.82563" lon="5.67891">
        <ele>691</ele>
        <time>2017-08-08T11:13:10Z</time>
      </trkpt>
      <trkpt lat="44.82562" lon="5.67854">
        <ele>691</ele>
        <time>2017-08-08T11:13:21Z</time>
      </trkpt>
      <trkpt lat="44.82566" lon="5.67806">
        <ele>689</ele>
        <time>2017-08-08T11:13:27Z</time>
      </trkpt>
      <trkpt lat="44.82569" lon="5.67782">
        <ele>688</ele>
        <time>2017-08-08T11:13:29Z</time>
      </trkpt>
      <trkpt lat="44.82579" lon="5.67747">
        <ele>687</ele>
        <time>2017-08-08T11:13:38Z</time>
      </trkpt>
      <trkpt lat="44.82602" lon="5.67665">
        <ele>678</ele>
        <time>2017-08-08T11:13:56Z</time>
      </trkpt>
      <trkpt lat="44.82616" lon="5.67611">
        <ele>675</ele>
        <time>2017-08-08T11:14:04Z</time>
      </trkpt>
      <trkpt lat="44.82619" lon="5.67594">
        <ele>675</ele>
        <time>2017-08-08T11:14:16Z</time>
      </trkpt>
      <trkpt lat="44.82618" lon="5.67582">
        <ele>669</ele>
        <time>2017-08-08T11:14:23Z</time>
      </trkpt>
      <trkpt lat="44.82613" lon="5.67573">
        <ele>669</ele>
        <time>2017-08-08T11:14:40Z</time>
      </trkpt>
      <trkpt lat="44.82607" lon="5.67568">
        <ele>669</ele>
        <time>2017-08-08T11:14:54Z</time>
      </trkpt>
      <trkpt lat="44.82586" lon="5.67567">
        <ele>669</ele>
        <time>2017-08-08T11:15:05Z</time>
      </trkpt>
      <trkpt lat="44.82573" lon="5.6757">
        <ele>667</ele>
        <time>2017-08-08T11:15:15Z</time>
      </trkpt>
      <trkpt lat="44.82564" lon="5.67577">
        <ele>667</ele>
        <time>2017-08-08T11:15:26Z</time>
      </trkpt>
      <trkpt lat="44.82556" lon="5.67596">
        <ele>671</ele>
        <time>2017-08-08T11:15:45Z</time>
      </trkpt>
      <trkpt lat="44.82554" lon="5.67607">
        <ele>671</ele>
        <time>2017-08-08T11:15:47Z</time>
      </trkpt>
      <trkpt lat="44.82549" lon="5.67611">
        <ele>671</ele>
        <time>2017-08-08T11:15:52Z</time>
      </trkpt>
      <trkpt lat="44.82544" lon="5.67612">
        <ele>671</ele>
        <time>2017-08-08T11:16:05Z</time>
      </trkpt>
      <trkpt lat="44.82539" lon="5.6761">
        <ele>671</ele>
        <time>2017-08-08T11:16:10Z</time>
      </trkpt>
      <trkpt lat="44.82527" lon="5.67586">
        <ele>669</ele>
        <time>2017-08-08T11:16:28Z</time>
      </trkpt>
      <trkpt lat="44.82515" lon="5.67564">
        <ele>664</ele>
        <time>2017-08-08T11:16:41Z</time>
      </trkpt>
      <trkpt lat="44.82504" lon="5.67532">
        <ele>662</ele>
        <time>2017-08-08T11:16:43Z</time>
      </trkpt>
      <trkpt lat="44.82496" lon="5.67473">
        <ele>653</ele>
        <time>2017-08-08T11:16:47Z</time>
      </trkpt>
      <trkpt lat="44.82491" lon="5.67454">
        <ele>651</ele>
        <time>2017-08-08T11:17:05Z</time>
      </trkpt>
      <trkpt lat="44.82484" lon="5.67448">
        <ele>651</ele>
        <time>2017-08-08T11:17:24Z</time>
      </trkpt>
      <trkpt lat="44.82477" lon="5.67449">
        <ele>650</ele>
        <time>2017-08-08T11:17:41Z</time>
      </trkpt>
      <trkpt lat="44.82427" lon="5.67487">
        <ele>651</ele>
        <time>2017-08-08T11:17:44Z</time>
      </trkpt>
      <trkpt lat="44.8242" lon="5.67488">
        <ele>651</ele>
        <time>2017-08-08T11:17:54Z</time>
      </trkpt>
      <trkpt lat="44.82417" lon="5.67482">
        <ele>650</ele>
        <time>2017-08-08T11:17:59Z</time>
      </trkpt>
      <trkpt lat="44.82417" lon="5.6747">
        <ele>650</ele>
        <time>2017-08-08T11:18:07Z</time>
      </trkpt>
      <trkpt lat="44.82423" lon="5.6745">
        <ele>648</ele>
        <time>2017-08-08T11:18:24Z</time>
      </trkpt>
      <trkpt lat="44.82429" lon="5.67385">
        <ele>641</ele>
        <time>2017-08-08T11:18:40Z</time>
      </trkpt>
      <trkpt lat="44.82433" lon="5.67357">
        <ele>640</ele>
        <time>2017-08-08T11:18:55Z</time>
      </trkpt>
      <trkpt lat="44.82437" lon="5.6726">
        <ele>632</ele>
        <time>2017-08-08T11:19:03Z</time>
      </trkpt>
      <trkpt lat="44.8244" lon="5.67179">
        <ele>624</ele>
        <time>2017-08-08T11:19:11Z</time>
      </trkpt>
      <trkpt lat="44.82452" lon="5.67092">
        <ele>616</ele>
        <time>2017-08-08T11:19:22Z</time>
      </trkpt>
      <trkpt lat="44.82456" lon="5.6706">
        <ele>608</ele>
        <time>2017-08-08T11:19:24Z</time>
      </trkpt>
      <trkpt lat="44.82455" lon="5.67052">
        <ele>608</ele>
        <time>2017-08-08T11:19:34Z</time>
      </trkpt>
      <trkpt lat="44.82452" lon="5.67049">
        <ele>607</ele>
        <time>2017-08-08T11:19:37Z</time>
      </trkpt>
      <trkpt lat="44.82446" lon="5.67047">
        <ele>607</ele>
        <time>2017-08-08T11:19:39Z</time>
      </trkpt>
      <trkpt lat="44.82437" lon="5.67052">
        <ele>607</ele>
        <time>2017-08-08T11:19:59Z</time>
      </trkpt>
      <trkpt lat="44.82425" lon="5.67067">
        <ele>608</ele>
        <time>2017-08-08T11:20:05Z</time>
      </trkpt>
      <trkpt lat="44.82401" lon="5.67106">
        <ele>607</ele>
        <time>2017-08-08T11:20:11Z</time>
      </trkpt>
      <trkpt lat="44.82377" lon="5.67129">
        <ele>605</ele>
        <time>2017-08-08T11:20:17Z</time>
      </trkpt>
      <trkpt lat="44.82362" lon="5.67151">
        <ele>605</ele>
        <time>2017-08-08T11:20:25Z</time>
      </trkpt>
      <trkpt lat="44.82347" lon="5.67178">
        <ele>609</ele>
        <time>2017-08-08T11:20:29Z</time>
      </trkpt>
      <trkpt lat="44.82331" lon="5.67196">
        <ele>599</ele>
        <time>2017-08-08T11:20:32Z</time>
      </trkpt>
      <trkpt lat="44.82314" lon="5.67223">
        <ele>600</ele>
        <time>2017-08-08T11:20:49Z</time>
      </trkpt>
      <trkpt lat="44.82298" lon="5.67252">
        <ele>604</ele>
        <time>2017-08-08T11:21:07Z</time>
      </trkpt>
      <trkpt lat="44.82288" lon="5.67274">
        <ele>602</ele>
        <time>2017-08-08T11:21:25Z</time>
      </trkpt>
      <trkpt lat="44.82282" lon="5.67277">
        <ele>601</ele>
        <time>2017-08-08T11:21:36Z</time>
      </trkpt>
      <trkpt lat="44.82275" lon="5.67275">
        <ele>600</ele>
        <time>2017-08-08T11:21:53Z</time>
      </trkpt>
      <trkpt lat="44.82272" lon="5.67268">
        <ele>599</ele>
        <time>2017-08-08T11:22:13Z</time>
      </trkpt>
      <trkpt lat="44.82271" lon="5.6726">
        <ele>598</ele>
        <time>2017-08-08T11:22:31Z</time>
      </trkpt>
      <trkpt lat="44.82273" lon="5.67244">
        <ele>594</ele>
        <time>2017-08-08T11:22:39Z</time>
      </trkpt>
      <trkpt lat="44.82282" lon="5.67219">
        <ele>595</ele>
        <time>2017-08-08T11:22:42Z</time>
      </trkpt>
      <trkpt lat="44.82296" lon="5.67187">
        <ele>596</ele>
        <time>2017-08-08T11:22:54Z</time>
      </trkpt>
      <trkpt lat="44.82298" lon="5.67174">
        <ele>595</ele>
        <time>2017-08-08T11:23:06Z</time>
      </trkpt>
      <trkpt lat="44.82265" lon="5.67214">
        <ele>593</ele>
        <time>2017-08-08T11:23:15Z</time>
      </trkpt>
      <trkpt lat="44.82253" lon="5.67235">
        <ele>592</ele>
        <time>2017-08-08T11:23:20Z</time>
      </trkpt>
      <trkpt lat="44.82249" lon="5.67249">
        <ele>589</ele>
        <time>2017-08-08T11:23:24Z</time>
      </trkpt>
      <trkpt lat="44.82248" lon="5.67272">
        <ele>590</ele>
        <time>2017-08-08T11:23:30Z</time>
      </trkpt>
      <trkpt lat="44.82252" lon="5.67295">
        <ele>599</ele>
        <time>2017-08-08T11:23:32Z</time>
      </trkpt>
      <trkpt lat="44.82252" lon="5.67314">
        <ele>598</ele>
        <time>2017-08-08T11:23:43Z</time>
      </trkpt>
      <trkpt lat="44.82247" lon="5.6733">
        <ele>593</ele>
        <time>2017-08-08T11:23:54Z</time>
      </trkpt>
      <trkpt lat="44.82238" lon="5.67342">
        <ele>595</ele>
        <time>2017-08-08T11:24:07Z</time>
      </trkpt>
      <trkpt lat="44.82193" lon="5.67373">
        <ele>594</ele>
        <time>2017-08-08T11:24:23Z</time>
      </trkpt>
      <trkpt lat="44.82178" lon="5.67384">
        <ele>594</ele>
        <time>2017-08-08T11:24:35Z</time>
      </trkpt>
      <trkpt lat="44.82162" lon="5.67327">
        <ele>589</ele>
        <time>2017-08-08T11:24:47Z</time>
      </trkpt>
      <trkpt lat="44.82158" lon="5.6731">
        <ele>592</ele>
        <time>2017-08-08T11:24:58Z</time>
      </trkpt>
      <trkpt lat="44.82162" lon="5.67301">
        <ele>592</ele>
        <time>2017-08-08T11:25:09Z</time>
      </trkpt>
      <trkpt lat="44.82169" lon="5.67291">
        <ele>590</ele>
        <time>2017-08-08T11:25:28Z</time>
      </trkpt>
      <trkpt lat="44.82176" lon="5.67276">
        <ele>590</ele>
        <time>2017-08-08T11:25:48Z</time>
      </trkpt>
      <trkpt lat="44.82182" lon="5.67247">
        <ele>589</ele>
        <time>2017-08-08T11:26:03Z</time>
      </trkpt>
      <trkpt lat="44.82183" lon="5.67227">
        <ele>588</ele>
        <time>2017-08-08T11:26:14Z</time>
      </trkpt>
      <trkpt lat="44.82181" lon="5.67211">
        <ele>588</ele>
        <time>2017-08-08T11:26:29Z</time>
      </trkpt>
      <trkpt lat="44.82176" lon="5.67198">
        <ele>587</ele>
        <time>2017-08-08T11:26:34Z</time>
      </trkpt>
      <trkpt lat="44.82164" lon="5.67188">
        <ele>591</ele>
        <time>2017-08-08T11:26:50Z</time>
      </trkpt>
      <trkpt lat="44.82156" lon="5.67184">
        <ele>591</ele>
        <time>2017-08-08T11:26:58Z</time>
      </trkpt>
      <trkpt lat="44.82118" lon="5.6717">
        <ele>594</ele>
        <time>2017-08-08T11:27:13Z</time>
      </trkpt>
      <trkpt lat="44.82103" lon="5.67161">
        <ele>594</ele>
        <time>2017-08-08T11:27:30Z</time>
      </trkpt>
      <trkpt lat="44.82099" lon="5.67154">
        <ele>594</ele>
        <time>2017-08-08T11:27:39Z</time>
      </trkpt>
      <trkpt lat="44.82091" lon="5.67136">
        <ele>593</ele>
        <time>2017-08-08T11:27:54Z</time>
      </trkpt>
      <trkpt lat="44.82089" lon="5.67119">
        <ele>593</ele>
        <time>2017-08-08T11:27:56Z</time>
      </trkpt>
      <trkpt lat="44.8209" lon="5.67104">
        <ele>593</ele>
        <time>2017-08-08T11:28:13Z</time>
      </trkpt>
      <trkpt lat="44.82095" lon="5.67088">
        <ele>594</ele>
        <time>2017-08-08T11:28:23Z</time>
      </trkpt>
      <trkpt lat="44.821" lon="5.67073">
        <ele>599</ele>
        <time>2017-08-08T11:28:28Z</time>
      </trkpt>
      <trkpt lat="44.82105" lon="5.67069">
        <ele>599</ele>
        <time>2017-08-08T11:28:40Z</time>
      </trkpt>
      <trkpt lat="44.82111" lon="5.67068">
        <ele>600</ele>
        <time>2017-08-08T11:28:55Z</time>
      </trkpt>
      <trkpt lat="44.82127" lon="5.67068">
        <ele>599</ele>
        <time>2017-08-08T11:29:08Z</time>
      </trkpt>
      <trkpt lat="44.82137" lon="5.67066">
        <ele>599</ele>
        <time>2017-08-08T11:29:26Z</time>
      </trkpt>
      <trkpt lat="44.82146" lon="5.67058">
        <ele>599</ele>
        <time>2017-08-08T11:29:31Z</time>
      </trkpt>
      <trkpt lat="44.82151" lon="5.67043">
        <ele>601</ele>
        <time>2017-08-08T11:29:49Z</time>
      </trkpt>
      <trkpt lat="44.82157" lon="5.6703">
        <ele>602</ele>
        <time>2017-08-08T11:30:03Z</time>
      </trkpt>
      <trkpt lat="44.82164" lon="5.67022">
        <ele>604</ele>
        <time>2017-08-08T11:30:21Z</time>
      </trkpt>
      <trkpt lat="44.82186" lon="5.67004">
        <ele>599</ele>
        <time>2017-08-08T11:30:26Z</time>
      </trkpt>
      <trkpt lat="44.82191" lon="5.66989">
        <ele>606</ele>
        <time>2017-08-08T11:30:40Z</time>
      </trkpt>
      <trkpt lat="44.82188" lon="5.66974">
        <ele>607</ele>
        <time>2017-08-08T11:30:58Z</time>
      </trkpt>
      <trkpt lat="44.82176" lon="5.66946">
        <ele>610</ele>
        <time>2017-08-08T11:31:02Z</time>
      </trkpt>
      <trkpt lat="44.82176" lon="5.66935">
        <ele>613</ele>
        <time>2017-08-08T11:31:06Z</time>
      </trkpt>
      <trkpt lat="44.8218" lon="5.66922">
        <ele>615</ele>
        <time>2017-08-08T11:31:24Z</time>
      </trkpt>
      <trkpt lat="44.82194" lon="5.66886">
        <ele>622</ele>
        <time>2017-08-08T11:31:30Z</time>
      </trkpt>
      <trkpt lat="44.82206" lon="5.66857">
        <ele>623</ele>
        <time>2017-08-08T11:31:34Z</time>
      </trkpt>
      <trkpt lat="44.82224" lon="5.6683">
        <ele>631</ele>
        <time>2017-08-08T11:31:45Z</time>
      </trkpt>
      <trkpt lat="44.82256" lon="5.66808">
        <ele>620</ele>
        <time>2017-08-08T11:31:53Z</time>
      </trkpt>
      <trkpt lat="44.82274" lon="5.66801">
        <ele>620</ele>
        <time>2017-08-08T11:32:13Z</time>
      </trkpt>
      <trkpt lat="44.82308" lon="5.66787">
        <ele>617</ele>
        <time>2017-08-08T11:32:22Z</time>
      </trkpt>
      <trkpt lat="44.8233" lon="5.66784">
        <ele>615</ele>
        <time>2017-08-08T11:32:27Z</time>
      </trkpt>
      <trkpt lat="44.82342" lon="5.66784">
        <ele>604</ele>
        <time>2017-08-08T11:32:47Z</time>
      </trkpt>
      <trkpt lat="44.82351" lon="5.66783">
        <ele>604</ele>
        <time>2017-08-08T11:32:50Z</time>
      </trkpt>
      <trkpt lat="44.82352" lon="5.66776">
        <ele>604</ele>
        <time>2017-08-08T11:32:55Z</time>
      </trkpt>
      <trkpt lat="44.82349" lon="5.66773">
        <ele>605</ele>
        <time>2017-08-08T11:33:06Z</time>
      </trkpt>
      <trkpt lat="44.82317" lon="5.66772">
        <ele>616</ele>
        <time>2017-08-08T11:33:11Z</time>
      </trkpt>
      <trkpt lat="44.82286" lon="5.6675">
        <ele>622</ele>
        <time>2017-08-08T11:33:30Z</time>
      </trkpt>
      <trkpt lat="44.82273" lon="5.66743">
        <ele>627</ele>
        <time>2017-08-08T11:33:39Z</time>
      </trkpt>
      <trkpt lat="44.82254" lon="5.66742">
        <ele>632</ele>
        <time>2017-08-08T11:33:47Z</time>
      </trkpt>
      <trkpt lat="44.82229" lon="5.6675">
        <ele>638</ele>
        <time>2017-08-08T11:33:54Z</time>
      </trkpt>
      <trkpt lat="44.82225" lon="5.66746">
        <ele>644</ele>
        <time>2017-08-08T11:34:01Z</time>
      </trkpt>
      <trkpt lat="44.82227" lon="5.66738">
        <ele>644</ele>
        <time>2017-08-08T11:34:12Z</time>
      </trkpt>
      <trkpt lat="44.82237" lon="5.66729">
        <ele>643</ele>
        <time>2017-08-08T11:34:15Z</time>
      </trkpt>
      <trkpt lat="44.82244" lon="5.66715">
        <ele>643</ele>
        <time>2017-08-08T11:34:34Z</time>
      </trkpt>
      <trkpt lat="44.82247" lon="5.66693">
        <ele>642</ele>
        <time>2017-08-08T11:34:54Z</time>
      </trkpt>
      <trkpt lat="44.82241" lon="5.66652">
        <ele>638</ele>
        <time>2017-08-08T11:35:13Z</time>
      </trkpt>
      <trkpt lat="44.82236" lon="5.66636">
        <ele>639</ele>
        <time>2017-08-08T11:35:31Z</time>
      </trkpt>
      <trkpt lat="44.8223" lon="5.66623">
        <ele>639</ele>
        <time>2017-08-08T11:35:34Z</time>
      </trkpt>
      <trkpt lat="44.82223" lon="5.66613">
        <ele>639</ele>
        <time>2017-08-08T11:35:47Z</time>
      </trkpt>
      <trkpt lat="44.82205" lon="5.66606">
        <ele>641</ele>
        <time>2017-08-08T11:36:01Z</time>
      </trkpt>
      <trkpt lat="44.82184" lon="5.66608">
        <ele>644</ele>
        <time>2017-08-08T11:36:19Z</time>
      </trkpt>
      <trkpt lat="44.82165" lon="5.6661">
        <ele>655</ele>
        <time>2017-08-08T11:36:32Z</time>
      </trkpt>
      <trkpt lat="44.82149" lon="5.66607">
        <ele>656</ele>
        <time>2017-08-08T11:36:36Z</time>
      </trkpt>
      <trkpt lat="44.8214" lon="5.66605">
        <ele>656</ele>
        <time>2017-08-08T11:36:49Z</time>
      </trkpt>
      <trkpt lat="44.82129" lon="5.66598">
        <ele>657</ele>
        <time>2017-08-08T11:36:51Z</time>
      </trkpt>
      <trkpt lat="44.82115" lon="5.66581">
        <ele>653</ele>
        <time>2017-08-08T11:37:02Z</time>
      </trkpt>
      <trkpt lat="44.82103" lon="5.66565">
        <ele>654</ele>
        <time>2017-08-08T11:37:19Z</time>
      </trkpt>
      <trkpt lat="44.82093" lon="5.66546">
        <ele>654</ele>
        <time>2017-08-08T11:37:37Z</time>
      </trkpt>
      <trkpt lat="44.82086" lon="5.6653">
        <ele>654</ele>
        <time>2017-08-08T11:37:46Z</time>
      </trkpt>
      <trkpt lat="44.8208" lon="5.66523">
        <ele>664</ele>
        <time>2017-08-08T11:38:00Z</time>
      </trkpt>
      <trkpt lat="44.82069" lon="5.66511">
        <ele>664</ele>
        <time>2017-08-08T11:38:12Z</time>
      </trkpt>
      <trkpt lat="44.82064" lon="5.66501">
        <ele>664</ele>
        <time>2017-08-08T11:38:16Z</time>
      </trkpt>
      <trkpt lat="44.82063" lon="5.66468">
        <ele>667</ele>
        <time>2017-08-08T11:38:23Z</time>
      </trkpt>
      <trkpt lat="44.82067" lon="5.6644">
        <ele>666</ele>
        <time>2017-08-08T11:38:37Z</time>
      </trkpt>
      <trkpt lat="44.82067" lon="5.66409">
        <ele>664</ele>
        <time>2017-08-08T11:38:53Z</time>
      </trkpt>
      <trkpt lat="44.82062" lon="5.66387">
        <ele>666</ele>
        <time>2017-08-08T11:39:01Z</time>
      </trkpt>
      <trkpt lat="44.82053" lon="5.66364">
        <ele>667</ele>
        <time>2017-08-08T11:39:12Z</time>
      </trkpt>
      <trkpt lat="44.82033" lon="5.66318">
        <ele>669</ele>
        <time>2017-08-08T11:39:28Z</time>
      </trkpt>
      <trkpt lat="44.82012" lon="5.6627">
        <ele>671</ele>
        <time>2017-08-08T11:39:48Z</time>
      </trkpt>
      <trkpt lat="44.81995" lon="5.66232">
        <ele>675</ele>
        <time>2017-08-08T11:40:04Z</time>
      </trkpt>
      <trkpt lat="44.81988" lon="5.66225">
        <ele>674</ele>
        <time>2017-08-08T11:40:19Z</time>
      </trkpt>
      <trkpt lat="44.81958" lon="5.66202">
        <ele>672</ele>
        <time>2017-08-08T11:40:30Z</time>
      </trkpt>
      <trkpt lat="44.81943" lon="5.66199">
        <ele>672</ele>
        <time>2017-08-08T11:40:45Z</time>
      </trkpt>
      <trkpt lat="44.81936" lon="5.66201">
        <ele>673</ele>
        <time>2017-08-08T11:40:58Z</time>
      </trkpt>
      <trkpt lat="44.81921" lon="5.66214">
        <ele>675</ele>
        <time>2017-08-08T11:41:18Z</time>
      </trkpt>
      <trkpt lat="44.81889" lon="5.66242">
        <ele>680</ele>
        <time>2017-08-08T11:41:35Z</time>
      </trkpt>
      <trkpt lat="44.8188" lon="5.66246">
        <ele>680</ele>
        <time>2017-08-08T11:41:41Z</time>
      </trkpt>
      <trkpt lat="44.81856" lon="5.66247">
        <ele>680</ele>
        <time>2017-08-08T11:41:48Z</time>
      </trkpt>
      <trkpt lat="44.81813" lon="5.66248">
        <ele>683</ele>
        <time>2017-08-08T11:42:03Z</time>
      </trkpt>
      <trkpt lat="44.81765" lon="5.66241">
        <ele>684</ele>
        <time>2017-08-08T11:42:16Z</time>
      </trkpt>
      <trkpt lat="44.81707" lon="5.66237">
        <ele>691</ele>
        <time>2017-08-08T11:42:34Z</time>
      </trkpt>
      <trkpt lat="44.81695" lon="5.66232">
        <ele>692</ele>
        <time>2017-08-08T11:42:38Z</time>
      </trkpt>
      <trkpt lat="44.81688" lon="5.66225">
        <ele>693</ele>
        <time>2017-08-08T11:42:54Z</time>
      </trkpt>
      <trkpt lat="44.81679" lon="5.66214">
        <ele>693</ele>
        <time>2017-08-08T11:43:14Z</time>
      </trkpt>
      <trkpt lat="44.81673" lon="5.66201">
        <ele>693</ele>
        <time>2017-08-08T11:43:21Z</time>
      </trkpt>
      <trkpt lat="44.81663" lon="5.6617">
        <ele>698</ele>
        <time>2017-08-08T11:43:31Z</time>
      </trkpt>
      <trkpt lat="44.81658" lon="5.66128">
        <ele>702</ele>
        <time>2017-08-08T11:43:33Z</time>
      </trkpt>
      <trkpt lat="44.81657" lon="5.66091">
        <ele>700</ele>
        <time>2017-08-08T11:43:39Z</time>
      </trkpt>
      <trkpt lat="44.81655" lon="5.66081">
        <ele>700</ele>
        <time>2017-08-08T11:43:45Z</time>
      </trkpt>
      <trkpt lat="44.81642" lon="5.66055">
        <ele>702</ele>
        <time>2017-08-08T11:44:04Z</time>
      </trkpt>
      <trkpt lat="44.81617" lon="5.66025">
        <ele>703</ele>
        <time>2017-08-08T11:44:22Z</time>
      </trkpt>
      <trkpt lat="44.81598" lon="5.66013">
        <ele>704</ele>
        <time>2017-08-08T11:44:26Z</time>
      </trkpt>
      <trkpt lat="44.81584" lon="5.66014">
        <ele>705</ele>
        <time>2017-08-08T11:44:42Z</time>
      </trkpt>
      <trkpt lat="44.81547" lon="5.66026">
        <ele>710</ele>
        <time>2017-08-08T11:44:46Z</time>
      </trkpt>
      <trkpt lat="44.81492" lon="5.66047">
        <ele>714</ele>
        <time>2017-08-08T11:44:50Z</time>
      </trkpt>
      <trkpt lat="44.81443" lon="5.66063">
        <ele>715</ele>
        <time>2017-08-08T11:45:04Z</time>
      </trkpt>
      <trkpt lat="44.81422" lon="5.66061">
        <ele>716</ele>
        <time>2017-08-08T11:45:11Z</time>
      </trkpt>
      <trkpt lat="44.81387" lon="5.66046">
        <ele>717</ele>
        <time>2017-08-08T11:45:15Z</time>
      </trkpt>
      <trkpt lat="44.81354" lon="5.66031">
        <ele>717</ele>
        <time>2017-08-08T11:45:25Z</time>
      </trkpt>
      <trkpt lat="44.81334" lon="5.6603">
        <ele>717</ele>
        <time>2017-08-08T11:45:40Z</time>
      </trkpt>
      <trkpt lat="44.81291" lon="5.66043">
        <ele>720</ele>
        <time>2017-08-08T11:45:45Z</time>
      </trkpt>
      <trkpt lat="44.81243" lon="5.66063">
        <ele>721</ele>
        <time>2017-08-08T11:45:54Z</time>
      </trkpt>
      <trkpt lat="44.81207" lon="5.66076">
        <ele>721</ele>
        <time>2017-08-08T11:45:57Z</time>
      </trkpt>
      <trkpt lat="44.81184" lon="5.66077">
        <ele>722</ele>
        <time>2017-08-08T11:46:00Z</time>
      </trkpt>
      <trkpt lat="44.81154" lon="5.66072">
        <ele>724</ele>
        <time>2017-08-08T11:46:18Z</time>
      </trkpt>
      <trkpt lat="44.81114" lon="5.66062">
        <ele>725</ele>
        <time>2017-08-08T11:46:31Z</time>
      </trkpt>
      <trkpt lat="44.81066" lon="5.6605">
        <ele>730</ele>
        <time>2017-08-08T11:46:50Z</time>
      </trkpt>
      <trkpt lat="44.8105" lon="5.66042">
        <ele>730</ele>
        <time>2017-08-08T11:47:02Z</time>
      </trkpt>
      <trkpt lat="44.80992" lon="5.65998">
        <ele>729</ele>
        <time>2017-08-08T11:47:16Z</time>
      </trkpt>
      <trkpt lat="44.80979" lon="5.6599">
        <ele>729</ele>
        <time>2017-08-08T11:47:36Z</time>
      </trkpt>
      <trkpt lat="44.8096" lon="5.65983">
        <ele>729</ele>
        <time>2017-08-08T11:47:39Z</time>
      </trkpt>
      <trkpt lat="44.80913" lon="5.65964">
        <ele>732</ele>
        <time>2017-08-08T11:47:52Z</time>
      </trkpt>
      <trkpt lat="44.80863" lon="5.65948">
        <ele>733</ele>
        <time>2017-08-08T11:48:03Z</time>
      </trkpt>
      <trkpt lat="44.80823" lon="5.65938">
        <ele>735</ele>
        <time>2017-08-08T11:48:17Z</time>
      </trkpt>
      <trkpt lat="44.80793" lon="5.65929">
        <ele>736</ele>
        <time>2017-08-08T11:48:22Z</time>
      </trkpt>
      <trkpt lat="44.80772" lon="5.6592">
        <ele>737</ele>
        <time>2017-08-08T11:48:31Z</time>
      </trkpt>
      <trkpt lat="44.80752" lon="5.65905">
        <ele>736</ele>
        <time>2017-08-08T11:48:45Z</time>
      </trkpt>
      <trkpt lat="44.80734" lon="5.65886">
        <ele>737</ele>
        <time>2017-08-08T11:48:49Z</time>
      </trkpt>
      <trkpt lat="44.80708" lon="5.6585">
        <ele>737</ele>
        <time>2017-08-08T11:49:07Z</time>
      </trkpt>
      <trkpt lat="44.80661" lon="5.65783">
        <ele>739</ele>
        <time>2017-08-08T11:49:26Z</time>
      </trkpt>
      <trkpt lat="44.80635" lon="5.65756">
        <ele>739</ele>
        <time>2017-08-08T11:49:41Z</time>
      </trkpt>
      <trkpt lat="44.8061" lon="5.65736">
        <ele>739</ele>
        <time>2017-08-08T11:49:58Z</time>
      </trkpt>
      <trkpt lat="44.80549" lon="5.65695">
        <ele>744</ele>
        <time>2017-08-08T11:50:11Z</time>
      </trkpt>
      <trkpt lat="44.80518" lon="5.65673">
        <ele>745</ele>
        <time>2017-08-08T11:50:16Z</time>
      </trkpt>
      <trkpt lat="44.80494" lon="5.6565">
        <ele>746</ele>
        <time>2017-08-08T11:50:28Z</time>
      </trkpt>
      <trkpt lat="44.80461" lon="5.65601">
        <ele>745</ele>
        <time>2017-08-08T11:50:48Z</time>
      </trkpt>
      <trkpt lat="44.80435" lon="5.65562">
        <ele>748</ele>
        <time>2017-08-08T11:51:00Z</time>
      </trkpt>
      <trkpt lat="44.8042" lon="5.65528">
        <ele>749</ele>
        <time>2017-08-08T11:51:08Z</time>
      </trkpt>
      <trkpt lat="44.80411" lon="5.65502">
        <ele>751</ele>
        <time>2017-08-08T11:51:25Z</time>
      </trkpt>
      <trkpt lat="44.80394" lon="5.65438">
        <ele>754</ele>
        <time>2017-08-08T11:51:45Z</time>
      </trkpt>
      <trkpt lat="44.80381" lon="5.65397">
        <ele>758</ele>
        <time>2017-08-08T11:51:51Z</time>
      </trkpt>
      <trkpt lat="44.80367" lon="5.65367">
        <ele>760</ele>
        <time>2017-08-08T11:52:02Z</time>
      </trkpt>
      <trkpt lat="44.80354" lon="5.6535">
        <ele>761</ele>
        <time>2017-08-08T11:52:07Z</time>
      </trkpt>
      <trkpt lat="44.80323" lon="5.65327">
        <ele>766</ele>
        <time>2017-08-08T11:52:15Z</time>
      </trkpt>
      <trkpt lat="44.80269" lon="5.65295">
        <ele>769</ele>
        <time>2017-08-08T11:52:28Z</time>
      </trkpt>
      <trkpt lat="44.80212" lon="5.65259">
        <ele>769</ele>
        <time>2017-08-08T11:52:39Z</time>
      </trkpt>
      <trkpt lat="44.80201" lon="5.65241">
        <ele>774</ele>
        <time>2017-08-08T11:52:57Z</time>
      </trkpt>
      <trkpt lat="44.80195" lon="5.65221">
        <ele>774</ele>
        <time>2017-08-08T11:53:00Z</time>
      </trkpt>
      <trkpt lat="44.80193" lon="5.65197">
        <ele>775</ele>
        <time>2017-08-08T11:53:04Z</time>
      </trkpt>
      <trkpt lat="44.80195" lon="5.65163">
        <ele>778</ele>
        <time>2017-08-08T11:53:14Z</time>
      </trkpt>
      <trkpt lat="44.80208" lon="5.65066">
        <ele>782</ele>
        <time>2017-08-08T11:53:21Z</time>
      </trkpt>
      <trkpt lat="44.80213" lon="5.65024">
        <ele>783</ele>
        <time>2017-08-08T11:53:39Z</time>
      </trkpt>
      <trkpt lat="44.80213" lon="5.64984">
        <ele>786</ele>
        <time>2017-08-08T11:53:45Z</time>
      </trkpt>
      <trkpt lat="44.8021" lon="5.64936">
        <ele>788</ele>
        <time>2017-08-08T11:53:47Z</time>
      </trkpt>
      <trkpt lat="44.80202" lon="5.64881">
        <ele>790</ele>
        <time>2017-08-08T11:54:04Z</time>
      </trkpt>
      <trkpt lat="44.80182" lon="5.64787">
        <ele>788</ele>
        <time>2017-08-08T11:54:09Z</time>
      </trkpt>
      <trkpt lat="44.80171" lon="5.64769">
        <ele>788</ele>
        <time>2017-08-08T11:54:27Z</time>
      </trkpt>
      <trkpt lat="44.80146" lon="5.64736">
        <ele>789</ele>
        <time>2017-08-08T11:54:32Z</time>
      </trkpt>
      <trkpt lat="44.80101" lon="5.64678">
        <ele>787</ele>
        <time>2017-08-08T11:54:51Z</time>
      </trkpt>
      <trkpt lat="44.80062" lon="5.64643">
        <ele>783</ele>
        <time>2017-08-08T11:54:58Z</time>
      </trkpt>
      <trkpt lat="44.80045" lon="5.64627">
        <ele>783</ele>
        <time>2017-08-08T11:55:00Z</time>
      </trkpt>
      <trkpt lat="44.80017" lon="5.64585">
        <ele>783</ele>
        <time>2017-08-08T11:55:14Z</time>
      </trkpt>
      <trkpt lat="44.79977" lon="5.64602">
        <ele>782</ele>
        <time>2017-08-08T11:55:28Z</time>
      </trkpt>
      <trkpt lat="44.79939" lon="5.64602">
        <ele>781</ele>
        <time>2017-08-08T11:55:41Z</time>
      </trkpt>
      <trkpt lat="44.7989" lon="5.64594">
        <ele>777</ele>
        <time>2017-08-08T11:55:59Z</time>
      </trkpt>
      <trkpt lat="44.79867" lon="5.64587">
        <ele>775</ele>
        <time>2017-08-08T11:56:15Z</time>
      </trkpt>
      <trkpt lat="44.79852" lon="5.64577">
        <ele>781</ele>
        <time>2017-08-08T11:56:21Z</time>
      </trkpt>
      <trkpt lat="44.79834" lon="5.64559">
        <ele>782</ele>
        <time>2017-08-08T11:56:37Z</time>
      </trkpt>
      <trkpt lat="44.79821" lon="5.64536">
        <ele>775</ele>
        <time>2017-08-08T11:56:43Z</time>
      </trkpt>
      <trkpt lat="44.79809" lon="5.64501">
        <ele>777</ele>
        <time>2017-08-08T11:56:56Z</time>
      </trkpt>
      <trkpt lat="44.79798" lon="5.64417">
        <ele>779</ele>
        <time>2017-08-08T11:57:15Z</time>
      </trkpt>
      <trkpt lat="44.79786" lon="5.64382">
        <ele>778</ele>
        <time>2017-08-08T11:57:22Z</time>
      </trkpt>
      <trkpt lat="44.79775" lon="5.64365">
        <ele>777</ele>
        <time>2017-08-08T11:57:31Z</time>
      </trkpt>
      <trkpt lat="44.79761" lon="5.64351">
        <ele>776</ele>
        <time>2017-08-08T11:57:45Z</time>
      </trkpt>
      <trkpt lat="44.79743" lon="5.64342">
        <ele>770</ele>
        <time>2017-08-08T11:57:50Z</time>
      </trkpt>
      <trkpt lat="44.79725" lon="5.64337">
        <ele>768</ele>
        <time>2017-08-08T11:57:58Z</time>
      </trkpt>
      <trkpt lat="44.79712" lon="5.64334">
        <ele>767</ele>
        <time>2017-08-08T11:58:02Z</time>
      </trkpt>
      <trkpt lat="44.79692" lon="5.64321">
        <ele>771</ele>
        <time>2017-08-08T11:58:13Z</time>
      </trkpt>
      <trkpt lat="44.79672" lon="5.64302">
        <ele>772</ele>
        <time>2017-08-08T11:58:30Z</time>
      </trkpt>
      <trkpt lat="44.79664" lon="5.64299">
        <ele>768</ele>
        <time>2017-08-08T11:58:41Z</time>
      </trkpt>
      <trkpt lat="44.79654" lon="5.64299">
        <ele>768</ele>
        <time>2017-08-08T11:58:44Z</time>
      </trkpt>
      <trkpt lat="44.79639" lon="5.64303">
        <ele>768</ele>
        <time>2017-08-08T11:59:01Z</time>
      </trkpt>
      <trkpt lat="44.79613" lon="5.6431">
        <ele>766</ele>
        <time>2017-08-08T11:59:07Z</time>
      </trkpt>
      <trkpt lat="44.79598" lon="5.64309">
        <ele>765</ele>
        <time>2017-08-08T11:59:23Z</time>
      </trkpt>
      <trkpt lat="44.79581" lon="5.64296">
        <ele>763</ele>
        <time>2017-08-08T11:59:40Z</time>
      </trkpt>
      <trkpt lat="44.79564" lon="5.64278">
        <ele>765</ele>
        <time>2017-08-08T11:59:50Z</time>
      </trkpt>
      <trkpt lat="44.79547" lon="5.6427">
        <ele>765</ele>
        <time>2017-08-08T11:59:59Z</time>
      </trkpt>
      <trkpt lat="44.79508" lon="5.64265">
        <ele>764</ele>
        <time>2017-08-08T12:00:17Z</time>
      </trkpt>
      <trkpt lat="44.7948" lon="5.6426">
        <ele>762</ele>
        <time>2017-08-08T12:00:34Z</time>
      </trkpt>
      <trkpt lat="44.79454" lon="5.64249">
        <ele>766</ele>
        <time>2017-08-08T12:00:47Z</time>
      </trkpt>
      <trkpt lat="44.79426" lon="5.6423">
        <ele>765</ele>
        <time>2017-08-08T12:01:00Z</time>
      </trkpt>
      <trkpt lat="44.79407" lon="5.64218">
        <ele>764</ele>
        <time>2017-08-08T12:01:03Z</time>
      </trkpt>
      <trkpt lat="44.7938" lon="5.6422">
        <ele>764</ele>
        <time>2017-08-08T12:01:21Z</time>
      </trkpt>
      <trkpt lat="44.79358" lon="5.64225">
        <ele>764</ele>
        <time>2017-08-08T12:01:28Z</time>
      </trkpt>
      <trkpt lat="44.79351" lon="5.64232">
        <ele>763</ele>
        <time>2017-08-08T12:01:35Z</time>
      </trkpt>
      <trkpt lat="44.79349" lon="5.64239">
        <ele>763</ele>
        <time>2017-08-08T12:01:53Z</time>
      </trkpt>
      <trkpt lat="44.79347" lon="5.64276">
        <ele>764</ele>
        <time>2017-08-08T12:02:05Z</time>
      </trkpt>
      <trkpt lat="44.79349" lon="5.64286">
        <ele>765</ele>
        <time>2017-08-08T12:02:15Z</time>
      </trkpt>
      <trkpt lat="44.79367" lon="5.64304">
        <ele>765</ele>
        <time>2017-08-08T12:02:32Z</time>
      </trkpt>
      <trkpt lat="44.79425" lon="5.64364">
        <ele>763</ele>
        <time>2017-08-08T12:02:46Z</time>
      </trkpt>
      <trkpt lat="44.7947" lon="5.64412">
        <ele>763</ele>
        <time>2017-08-08T12:02:49Z</time>
      </trkpt>
      <trkpt lat="44.79486" lon="5.64443">
        <ele>767</ele>
        <time>2017-08-08T12:02:59Z</time>
      </trkpt>
      <trkpt lat="44.79497" lon="5.64482">
        <ele>769</ele>
        <time>2017-08-08T12:03:05Z</time>
      </trkpt>
      <trkpt lat="44.79504" lon="5.64525">
        <ele>764</ele>
        <time>2017-08-08T12:03:07Z</time>
      </trkpt>
      <trkpt lat="44.79509" lon="5.64565">
        <ele>766</ele>
        <time>2017-08-08T12:03:09Z</time>
      </trkpt>
      <trkpt lat="44.79508" lon="5.64605">
        <ele>768</ele>
        <time>2017-08-08T12:03:25Z</time>
      </trkpt>
      <trkpt lat="44.79497" lon="5.64689">
        <ele>774</ele>
        <time>2017-08-08T12:03:36Z</time>
      </trkpt>
      <trkpt lat="44.79485" lon="5.64773">
        <ele>772</ele>
        <time>2017-08-08T12:03:52Z</time>
      </trkpt>
      <trkpt lat="44.79461" lon="5.64921">
        <ele>771</ele>
        <time>2017-08-08T12:03:54Z</time>
      </trkpt>
      <trkpt lat="44.79449" lon="5.64997">
        <ele>772</ele>
        <time>2017-08-08T12:04:05Z</time>
      </trkpt>
      <trkpt lat="44.79443" lon="5.65042">
        <ele>772</ele>
        <time>2017-08-08T12:04:09Z</time>
      </trkpt>
      <trkpt lat="44.79443" lon="5.65097">
        <ele>773</ele>
        <time>2017-08-08T12:04:21Z</time>
      </trkpt>
      <trkpt lat="44.79451" lon="5.65189">
        <ele>772</ele>
        <time>2017-08-08T12:04:39Z</time>
      </trkpt>
      <trkpt lat="44.79459" lon="5.65303">
        <ele>773</ele>
        <time>2017-08-08T12:04:58Z</time>
      </trkpt>
      <trkpt lat="44.79457" lon="5.65345">
        <ele>774</ele>
        <time>2017-08-08T12:05:01Z</time>
      </trkpt>
      <trkpt lat="44.7945" lon="5.6542">
        <ele>775</ele>
        <time>2017-08-08T12:05:08Z</time>
      </trkpt>
      <trkpt lat="44.79441" lon="5.655">
        <ele>776</ele>
        <time>2017-08-08T12:05:18Z</time>
      </trkpt>
      <trkpt lat="44.79437" lon="5.65567">
        <ele>776</ele>
        <time>2017-08-08T12:05:32Z</time>
      </trkpt>
      <trkpt lat="44.79438" lon="5.65587">
        <ele>778</ele>
        <time>2017-08-08T12:05:49Z</time>
      </trkpt>
      <trkpt lat="44.79444" lon="5.65615">
        <ele>779</ele>
        <time>2017-08-08T12:05:52Z</time>
      </trkpt>
      <trkpt lat="44.7947" lon="5.65703">
        <ele>784</ele>
        <time>2017-08-08T12:05:56Z</time>
      </trkpt>
      <trkpt lat="44.79478" lon="5.65737">
        <ele>785</ele>
        <time>2017-08-08T12:06:14Z</time>
      </trkpt>
      <trkpt lat="44.79479" lon="5.65752">
        <ele>787</ele>
        <time>2017-08-08T12:06:27Z</time>
      </trkpt>
      <trkpt lat="44.79473" lon="5.65803">
        <ele>788</ele>
        <time>2017-08-08T12:06:40Z</time>
      </trkpt>
      <trkpt lat="44.79461" lon="5.65836">
        <ele>788</ele>
        <time>2017-08-08T12:06:57Z</time>
      </trkpt>
      <trkpt lat="44.79449" lon="5.65859">
        <ele>788</ele>
        <time>2017-08-08T12:07:14Z</time>
      </trkpt>
      <trkpt lat="44.79432" lon="5.65884">
        <ele>788</ele>
        <time>2017-08-08T12:07:19Z</time>
      </trkpt>
      <trkpt lat="44.79423" lon="5.65895">
        <ele>788</ele>
        <time>2017-08-08T12:07:29Z</time>
      </trkpt>
      <trkpt lat="44.79431" lon="5.65908">
        <ele>788</ele>
        <time>2017-08-08T12:07:47Z</time>
      </trkpt>
      <trkpt lat="44.79446" lon="5.65932">
        <ele>785</ele>
        <time>2017-08-08T12:08:04Z</time>
      </trkpt>
      <trkpt lat="44.79447" lon="5.65938">
        <ele>785</ele>
        <time>2017-08-08T12:08:11Z</time>
      </trkpt>
      <trkpt lat="44.79434" lon="5.65947">
        <ele>785</ele>
        <time>2017-08-08T12:08:21Z</time>
      </trkpt>
      <trkpt lat="44.79402" lon="5.65965">
        <ele>779</ele>
        <time>2017-08-08T12:08:39Z</time>
      </trkpt>
      <trkpt lat="44.79389" lon="5.65967">
        <ele>778</ele>
        <time>2017-08-08T12:08:52Z</time>
      </trkpt>
      <trkpt lat="44.79362" lon="5.65955">
        <ele>777</ele>
        <time>2017-08-08T12:09:03Z</time>
      </trkpt>
      <trkpt lat="44.79345" lon="5.65944">
        <ele>777</ele>
        <time>2017-08-08T12:09:21Z</time>
      </trkpt>
      <trkpt lat="44.79315" lon="5.65921">
        <ele>769</ele>
        <time>2017-08-08T12:09:35Z</time>
      </trkpt>
      <trkpt lat="44.79289" lon="5.65888">
        <ele>771</ele>
        <time>2017-08-08T12:09:42Z</time>
      </trkpt>
      <trkpt lat="44.79243" lon="5.65809">
        <ele>765</ele>
        <time>2017-08-08T12:09:56Z</time>
      </trkpt>
      <trkpt lat="44.79178" lon="5.65687">
        <ele>767</ele>
        <time>2017-08-08T12:10:10Z</time>
      </trkpt>
      <trkpt lat="44.79169" lon="5.65668">
        <ele>764</ele>
        <time>2017-08-08T12:10:20Z</time>
      </trkpt>
      <trkpt lat="44.79164" lon="5.6565">
        <ele>761</ele>
        <time>2017-08-08T12:10:40Z</time>
      </trkpt>
      <trkpt lat="44.79159" lon="5.65618">
        <ele>762</ele>
        <time>2017-08-08T12:10:45Z</time>
      </trkpt>
      <trkpt lat="44.79145" lon="5.65544">
        <ele>766</ele>
        <time>2017-08-08T12:11:05Z</time>
      </trkpt>
      <trkpt lat="44.79131" lon="5.6548">
        <ele>770</ele>
        <time>2017-08-08T12:11:20Z</time>
      </trkpt>
      <trkpt lat="44.79125" lon="5.65463">
        <ele>770</ele>
        <time>2017-08-08T12:11:38Z</time>
      </trkpt>
      <trkpt lat="44.79119" lon="5.65456">
        <ele>769</ele>
        <time>2017-08-08T12:11:40Z</time>
      </trkpt>
      <trkpt lat="44.79112" lon="5.65455">
        <ele>769</ele>
        <time>2017-08-08T12:11:46Z</time>
      </trkpt>
      <trkpt lat="44.79104" lon="5.65458">
        <ele>768</ele>
        <time>2017-08-08T12:11:57Z</time>
      </trkpt>
      <trkpt lat="44.79095" lon="5.65467">
        <ele>767</ele>
        <time>2017-08-08T12:12:00Z</time>
      </trkpt>
      <trkpt lat="44.7909" lon="5.65483">
        <ele>764</ele>
        <time>2017-08-08T12:12:06Z</time>
      </trkpt>
      <trkpt lat="44.7909" lon="5.65505">
        <ele>760</ele>
        <time>2017-08-08T12:12:15Z</time>
      </trkpt>
      <trkpt lat="44.79095" lon="5.65529">
        <ele>762</ele>
        <time>2017-08-08T12:12:33Z</time>
      </trkpt>
      <trkpt lat="44.79096" lon="5.65554">
        <ele>761</ele>
        <time>2017-08-08T12:12:45Z</time>
      </trkpt>
      <trkpt lat="44.79089" lon="5.65577">
        <ele>756</ele>
        <time>2017-08-08T12:13:03Z</time>
      </trkpt>
      <trkpt lat="44.79073" lon="5.65593">
        <ele>753</ele>
        <time>2017-08-08T12:13:18Z</time>
      </trkpt>
      <trkpt lat="44.79057" lon="5.65594">
        <ele>753</ele>
        <time>2017-08-08T12:13:23Z</time>
      </trkpt>
      <trkpt lat="44.79048" lon="5.6559">
        <ele>753</ele>
        <time>2017-08-08T12:13:31Z</time>
      </trkpt>
      <trkpt lat="44.7904" lon="5.65581">
        <ele>754</ele>
        <time>2017-08-08T12:13:44Z</time>
      </trkpt>
      <trkpt lat="44.79023" lon="5.65564">
        <ele>754</ele>
        <time>2017-08-08T12:13:57Z</time>
      </trkpt>
      <trkpt lat="44.79014" lon="5.65563">
        <ele>754</ele>
        <time>2017-08-08T12:14:12Z</time>
      </trkpt>
      <trkpt lat="44.79004" lon="5.65573">
        <ele>753</ele>
        <time>2017-08-08T12:14:29Z</time>
      </trkpt>
      <trkpt lat="44.78999" lon="5.65579">
        <ele>753</ele>
        <time>2017-08-08T12:14:49Z</time>
      </trkpt>
      <trkpt lat="44.78999" lon="5.65584">
        <ele>752</ele>
        <time>2017-08-08T12:14:51Z</time>
      </trkpt>
      <trkpt lat="44.78999" lon="5.65593">
        <ele>754</ele>
        <time>2017-08-08T12:15:05Z</time>
      </trkpt>
      <trkpt lat="44.79002" lon="5.65608">
        <ele>753</ele>
        <time>2017-08-08T12:15:20Z</time>
      </trkpt>
      <trkpt lat="44.79044" lon="5.65695">
        <ele>752</ele>
        <time>2017-08-08T12:15:23Z</time>
      </trkpt>
      <trkpt lat="44.79066" lon="5.65738">
        <ele>750</ele>
        <time>2017-08-08T12:15:36Z</time>
      </trkpt>
      <trkpt lat="44.79072" lon="5.65757">
        <ele>749</ele>
        <time>2017-08-08T12:15:45Z</time>
      </trkpt>
      <trkpt lat="44.79072" lon="5.65766">
        <ele>749</ele>
        <time>2017-08-08T12:15:50Z</time>
      </trkpt>
      <trkpt lat="44.79066" lon="5.65783">
        <ele>750</ele>
        <time>2017-08-08T12:16:03Z</time>
      </trkpt>
      <trkpt lat="44.79053" lon="5.65796">
        <ele>750</ele>
        <time>2017-08-08T12:16:22Z</time>
      </trkpt>
      <trkpt lat="44.79041" lon="5.65797">
        <ele>750</ele>
        <time>2017-08-08T12:16:27Z</time>
      </trkpt>
      <trkpt lat="44.79016" lon="5.65789">
        <ele>750</ele>
        <time>2017-08-08T12:16:36Z</time>
      </trkpt>
      <trkpt lat="44.78948" lon="5.65767">
        <ele>753</ele>
        <time>2017-08-08T12:16:50Z</time>
      </trkpt>
      <trkpt lat="44.78931" lon="5.65768">
        <ele>754</ele>
        <time>2017-08-08T12:16:53Z</time>
      </trkpt>
      <trkpt lat="44.78922" lon="5.65777">
        <ele>754</ele>
        <time>2017-08-08T12:16:57Z</time>
      </trkpt>
      <trkpt lat="44.78917" lon="5.65788">
        <ele>753</ele>
        <time>2017-08-08T12:17:00Z</time>
      </trkpt>
      <trkpt lat="44.78916" lon="5.65809">
        <ele>755</ele>
        <time>2017-08-08T12:17:19Z</time>
      </trkpt>
      <trkpt lat="44.78927" lon="5.65825">
        <ele>753</ele>
        <time>2017-08-08T12:17:39Z</time>
      </trkpt>
      <trkpt lat="44.7894" lon="5.6584">
        <ele>751</ele>
        <time>2017-08-08T12:17:49Z</time>
      </trkpt>
      <trkpt lat="44.78949" lon="5.65857">
        <ele>750</ele>
        <time>2017-08-08T12:17:55Z</time>
      </trkpt>
      <trkpt lat="44.78962" lon="5.65895">
        <ele>749</ele>
        <time>2017-08-08T12:17:59Z</time>
      </trkpt>
      <trkpt lat="44.7898" lon="5.65963">
        <ele>748</ele>
        <time>2017-08-08T12:18:08Z</time>
      </trkpt>
      <trkpt lat="44.79018" lon="5.66187">
        <ele>741</ele>
        <time>2017-08-08T12:18:11Z</time>
      </trkpt>
      <trkpt lat="44.79025" lon="5.6622">
        <ele>740</ele>
        <time>2017-08-08T12:18:31Z</time>
      </trkpt>
      <trkpt lat="44.79037" lon="5.66251">
        <ele>742</ele>
        <time>2017-08-08T12:18:50Z</time>
      </trkpt>
      <trkpt lat="44.79055" lon="5.66284">
        <ele>743</ele>
        <time>2017-08-08T12:19:09Z</time>
      </trkpt>
      <trkpt lat="44.79079" lon="5.66322">
        <ele>744</ele>
        <time>2017-08-08T12:19:17Z</time>
      </trkpt>
      <trkpt lat="44.79114" lon="5.66392">
        <ele>744</ele>
        <time>2017-08-08T12:19:27Z</time>
      </trkpt>
      <trkpt lat="44.79144" lon="5.66472">
        <ele>744</ele>
        <time>2017-08-08T12:19:30Z</time>
      </trkpt>
      <trkpt lat="44.79151" lon="5.66487">
        <ele>743</ele>
        <time>2017-08-08T12:19:46Z</time>
      </trkpt>
      <trkpt lat="44.79166" lon="5.66525">
        <ele>743</ele>
        <time>2017-08-08T12:19:54Z</time>
      </trkpt>
      <trkpt lat="44.7918" lon="5.66559">
        <ele>736</ele>
        <time>2017-08-08T12:20:12Z</time>
      </trkpt>
      <trkpt lat="44.79192" lon="5.66579">
        <ele>736</ele>
        <time>2017-08-08T12:20:19Z</time>
      </trkpt>
      <trkpt lat="44.79207" lon="5.66613">
        <ele>735</ele>
        <time>2017-08-08T12:20:33Z</time>
      </trkpt>
      <trkpt lat="44.79214" lon="5.66635">
        <ele>735</ele>
        <time>2017-08-08T12:20:37Z</time>
      </trkpt>
      <trkpt lat="44.79215" lon="5.66669">
        <ele>733</ele>
        <time>2017-08-08T12:20:54Z</time>
      </trkpt>
      <trkpt lat="44.79216" lon="5.66714">
        <ele>733</ele>
        <time>2017-08-08T12:21:09Z</time>
      </trkpt>
      <trkpt lat="44.79217" lon="5.6677">
        <ele>731</ele>
        <time>2017-08-08T12:21:27Z</time>
      </trkpt>
      <trkpt lat="44.79215" lon="5.66802">
        <ele>731</ele>
        <time>2017-08-08T12:21:32Z</time>
      </trkpt>
      <trkpt lat="44.79219" lon="5.66831">
        <ele>730</ele>
        <time>2017-08-08T12:21:36Z</time>
      </trkpt>
      <trkpt lat="44.79234" lon="5.6689">
        <ele>729</ele>
        <time>2017-08-08T12:21:56Z</time>
      </trkpt>
      <trkpt lat="44.79235" lon="5.66911">
        <ele>729</ele>
        <time>2017-08-08T12:22:13Z</time>
      </trkpt>
      <trkpt lat="44.7923" lon="5.66977">
        <ele>728</ele>
        <time>2017-08-08T12:22:27Z</time>
      </trkpt>
      <trkpt lat="44.79225" lon="5.6705">
        <ele>727</ele>
        <time>2017-08-08T12:22:33Z</time>
      </trkpt>
      <trkpt lat="44.79217" lon="5.67085">
        <ele>728</ele>
        <time>2017-08-08T12:22:52Z</time>
      </trkpt>
      <trkpt lat="44.79204" lon="5.67124">
        <ele>728</ele>
        <time>2017-08-08T12:22:57Z</time>
      </trkpt>
      <trkpt lat="44.79198" lon="5.6715">
        <ele>728</ele>
        <time>2017-08-08T12:23:01Z</time>
      </trkpt>
      <trkpt lat="44.79199" lon="5.67178">
        <ele>728</ele>
        <time>2017-08-08T12:23:12Z</time>
      </trkpt>
      <trkpt lat="44.79209" lon="5.67222">
        <ele>728</ele>
        <time>2017-08-08T12:23:23Z</time>
      </trkpt>
      <trkpt lat="44.79219" lon="5.67258">
        <ele>728</ele>
        <time>2017-08-08T12:23:30Z</time>
      </trkpt>
      <trkpt lat="44.79221" lon="5.67282">
        <ele>728</ele>
        <time>2017-08-08T12:23:40Z</time>
      </trkpt>
      <trkpt lat="44.79218" lon="5.67315">
        <ele>728</ele>
        <time>2017-08-08T12:23:58Z</time>
      </trkpt>
      <trkpt lat="44.79214" lon="5.67335">
        <ele>726</ele>
        <time>2017-08-08T12:24:16Z</time>
      </trkpt>
      <trkpt lat="44.79198" lon="5.67366">
        <ele>727</ele>
        <time>2017-08-08T12:24:26Z</time>
      </trkpt>
      <trkpt lat="44.79126" lon="5.67476">
        <ele>728</ele>
        <time>2017-08-08T12:24:31Z</time>
      </trkpt>
      <trkpt lat="44.79068" lon="5.67563">
        <ele>731</ele>
        <time>2017-08-08T12:24:40Z</time>
      </trkpt>
      <trkpt lat="44.79047" lon="5.67593">
        <ele>728</ele>
        <time>2017-08-08T12:24:53Z</time>
      </trkpt>
      <trkpt lat="44.79024" lon="5.67618">
        <ele>728</ele>
        <time>2017-08-08T12:24:57Z</time>
      </trkpt>
      <trkpt lat="44.78994" lon="5.67636">
        <ele>731</ele>
        <time>2017-08-08T12:25:16Z</time>
      </trkpt>
      <trkpt lat="44.78963" lon="5.67643">
        <ele>731</ele>
        <time>2017-08-08T12:25:30Z</time>
      </trkpt>
      <trkpt lat="44.78923" lon="5.67639">
        <ele>732</ele>
        <time>2017-08-08T12:25:48Z</time>
      </trkpt>
      <trkpt lat="44.78881" lon="5.67627">
        <ele>729</ele>
        <time>2017-08-08T12:26:03Z</time>
      </trkpt>
      <trkpt lat="44.7886" lon="5.67615">
        <ele>728</ele>
        <time>2017-08-08T12:26:21Z</time>
      </trkpt>
      <trkpt lat="44.78853" lon="5.67609">
        <ele>728</ele>
        <time>2017-08-08T12:26:38Z</time>
      </trkpt>
      <trkpt lat="44.78839" lon="5.67589">
        <ele>727</ele>
        <time>2017-08-08T12:26:40Z</time>
      </trkpt>
      <trkpt lat="44.78833" lon="5.67558">
        <ele>726</ele>
        <time>2017-08-08T12:26:55Z</time>
      </trkpt>
      <trkpt lat="44.78829" lon="5.67529">
        <ele>728</ele>
        <time>2017-08-08T12:27:11Z</time>
      </trkpt>
      <trkpt lat="44.7882" lon="5.67505">
        <ele>731</ele>
        <time>2017-08-08T12:27:20Z</time>
      </trkpt>
      <trkpt lat="44.78764" lon="5.67431">
        <ele>729</ele>
        <time>2017-08-08T12:27:22Z</time>
      </trkpt>
      <trkpt lat="44.78743" lon="5.67406">
        <ele>728</ele>
        <time>2017-08-08T12:27:37Z</time>
      </trkpt>
      <trkpt lat="44.78735" lon="5.67399">
        <ele>728</ele>
        <time>2017-08-08T12:27:50Z</time>
      </trkpt>
      <trkpt lat="44.78722" lon="5.67394">
        <ele>729</ele>
        <time>2017-08-08T12:27:52Z</time>
      </trkpt>
      <trkpt lat="44.78704" lon="5.67397">
        <ele>729</ele>
        <time>2017-08-08T12:28:05Z</time>
      </trkpt>
      <trkpt lat="44.78692" lon="5.67415">
        <ele>729</ele>
        <time>2017-08-08T12:28:10Z</time>
      </trkpt>
      <trkpt lat="44.78688" lon="5.6744">
        <ele>726</ele>
        <time>2017-08-08T12:28:30Z</time>
      </trkpt>
      <trkpt lat="44.78695" lon="5.67471">
        <ele>725</ele>
        <time>2017-08-08T12:28:38Z</time>
      </trkpt>
      <trkpt lat="44.7871" lon="5.6751">
        <ele>721</ele>
        <time>2017-08-08T12:28:46Z</time>
      </trkpt>
      <trkpt lat="44.78718" lon="5.67545">
        <ele>720</ele>
        <time>2017-08-08T12:29:02Z</time>
      </trkpt>
      <trkpt lat="44.78723" lon="5.67597">
        <ele>716</ele>
        <time>2017-08-08T12:29:19Z</time>
      </trkpt>
      <trkpt lat="44.78724" lon="5.67621">
        <ele>716</ele>
        <time>2017-08-08T12:29:29Z</time>
      </trkpt>
      <trkpt lat="44.78722" lon="5.67634">
        <ele>715</ele>
        <time>2017-08-08T12:29:39Z</time>
      </trkpt>
      <trkpt lat="44.78714" lon="5.67661">
        <ele>715</ele>
        <time>2017-08-08T12:29:43Z</time>
      </trkpt>
      <trkpt lat="44.78711" lon="5.67675">
        <ele>713</ele>
        <time>2017-08-08T12:29:50Z</time>
      </trkpt>
      <trkpt lat="44.78713" lon="5.67696">
        <ele>713</ele>
        <time>2017-08-08T12:30:01Z</time>
      </trkpt>
      <trkpt lat="44.78726" lon="5.67721">
        <ele>712</ele>
        <time>2017-08-08T12:30:10Z</time>
      </trkpt>
      <trkpt lat="44.78737" lon="5.67737">
        <ele>711</ele>
        <time>2017-08-08T12:30:27Z</time>
      </trkpt>
      <trkpt lat="44.7874" lon="5.67752">
        <ele>709</ele>
        <time>2017-08-08T12:30:43Z</time>
      </trkpt>
      <trkpt lat="44.7874" lon="5.67767">
        <ele>709</ele>
        <time>2017-08-08T12:30:50Z</time>
      </trkpt>
      <trkpt lat="44.78735" lon="5.67781">
        <ele>709</ele>
        <time>2017-08-08T12:30:58Z</time>
      </trkpt>
      <trkpt lat="44.78721" lon="5.67812">
        <ele>709</ele>
        <time>2017-08-08T12:31:15Z</time>
      </trkpt>
      <trkpt lat="44.78705" lon="5.67846">
        <ele>707</ele>
        <time>2017-08-08T12:31:23Z</time>
      </trkpt>
      <trkpt lat="44.787" lon="5.6788">
        <ele>707</ele>
        <time>2017-08-08T12:31:36Z</time>
      </trkpt>
      <trkpt lat="44.78697" lon="5.6792">
        <ele>702</ele>
        <time>2017-08-08T12:31:53Z</time>
      </trkpt>
      <trkpt lat="44.78688" lon="5.6794">
        <ele>702</ele>
        <time>2017-08-08T12:32:06Z</time>
      </trkpt>
      <trkpt lat="44.78679" lon="5.67952">
        <ele>701</ele>
        <time>2017-08-08T12:32:15Z</time>
      </trkpt>
      <trkpt lat="44.78658" lon="5.67969">
        <ele>707</ele>
        <time>2017-08-08T12:32:26Z</time>
      </trkpt>
      <trkpt lat="44.78615" lon="5.68">
        <ele>708</ele>
        <time>2017-08-08T12:32:46Z</time>
      </trkpt>
      <trkpt lat="44.78579" lon="5.68022">
        <ele>702</ele>
        <time>2017-08-08T12:32:49Z</time>
      </trkpt>
      <trkpt lat="44.78544" lon="5.68043">
        <ele>700</ele>
        <time>2017-08-08T12:32:54Z</time>
      </trkpt>
      <trkpt lat="44.78531" lon="5.68042">
        <ele>701</ele>
        <time>2017-08-08T12:33:00Z</time>
      </trkpt>
      <trkpt lat="44.78513" lon="5.68032">
        <ele>703</ele>
        <time>2017-08-08T12:33:19Z</time>
      </trkpt>
      <trkpt lat="44.78497" lon="5.68022">
        <ele>708</ele>
        <time>2017-08-08T12:33:27Z</time>
      </trkpt>
      <trkpt lat="44.78476" lon="5.68022">
        <ele>707</ele>
        <time>2017-08-08T12:33:39Z</time>
      </trkpt>
      <trkpt lat="44.78464" lon="5.68026">
        <ele>706</ele>
        <time>2017-08-08T12:33:41Z</time>
      </trkpt>
      <trkpt lat="44.78454" lon="5.68003">
        <ele>707</ele>
        <time>2017-08-08T12:33:49Z</time>
      </trkpt>
      <trkpt lat="44.78446" lon="5.67998">
        <ele>715</ele>
        <time>2017-08-08T12:33:53Z</time>
      </trkpt>
      <trkpt lat="44.78438" lon="5.67998">
        <ele>714</ele>
        <time>2017-08-08T12:33:57Z</time>
      </trkpt>
      <trkpt lat="44.78417" lon="5.68008">
        <ele>709</ele>
        <time>2017-08-08T12:34:02Z</time>
      </trkpt>
      <trkpt lat="44.78409" lon="5.6801">
        <ele>709</ele>
        <time>2017-08-08T12:34:16Z</time>
      </trkpt>
      <trkpt lat="44.78375" lon="5.6801">
        <ele>707</ele>
        <time>2017-08-08T12:34:20Z</time>
      </trkpt>
      <trkpt lat="44.78358" lon="5.68009">
        <ele>707</ele>
        <time>2017-08-08T12:34:29Z</time>
      </trkpt>
      <trkpt lat="44.78347" lon="5.68005">
        <ele>707</ele>
        <time>2017-08-08T12:34:42Z</time>
      </trkpt>
      <trkpt lat="44.78325" lon="5.6799">
        <ele>711</ele>
        <time>2017-08-08T12:34:47Z</time>
      </trkpt>
      <trkpt lat="44.783" lon="5.67968">
        <ele>713</ele>
        <time>2017-08-08T12:35:06Z</time>
      </trkpt>
      <trkpt lat="44.78267" lon="5.67936">
        <ele>715</ele>
        <time>2017-08-08T12:35:22Z</time>
      </trkpt>
      <trkpt lat="44.78229" lon="5.67894">
        <ele>718</ele>
        <time>2017-08-08T12:35:33Z</time>
      </trkpt>
      <trkpt lat="44.7815" lon="5.67811">
        <ele>721</ele>
        <time>2017-08-08T12:35:52Z</time>
      </trkpt>
      <trkpt lat="44.78109" lon="5.67768">
        <ele>722</ele>
        <time>2017-08-08T12:36:03Z</time>
      </trkpt>
      <trkpt lat="44.78097" lon="5.67747">
        <ele>725</ele>
        <time>2017-08-08T12:36:14Z</time>
      </trkpt>
      <trkpt lat="44.78092" lon="5.67726">
        <ele>727</ele>
        <time>2017-08-08T12:36:25Z</time>
      </trkpt>
      <trkpt lat="44.78086" lon="5.67689">
        <ele>729</ele>
        <time>2017-08-08T12:36:33Z</time>
      </trkpt>
      <trkpt lat="44.78069" lon="5.67582">
        <ele>733</ele>
        <time>2017-08-08T12:36:50Z</time>
      </trkpt>
      <trkpt lat="44.78051" lon="5.6745">
        <ele>735</ele>
        <time>2017-08-08T12:36:58Z</time>
      </trkpt>
      <trkpt lat="44.78043" lon="5.674">
        <ele>740</ele>
        <time>2017-08-08T12:37:06Z</time>
      </trkpt>
      <trkpt lat="44.7803" lon="5.67356">
        <ele>741</ele>
        <time>2017-08-08T12:37:26Z</time>
      </trkpt>
      <trkpt lat="44.78002" lon="5.67283">
        <ele>752</ele>
        <time>2017-08-08T12:37:43Z</time>
      </trkpt>
      <trkpt lat="44.77985" lon="5.67258">
        <ele>747</ele>
        <time>2017-08-08T12:37:52Z</time>
      </trkpt>
      <trkpt lat="44.7796" lon="5.67232">
        <ele>756</ele>
        <time>2017-08-08T12:37:55Z</time>
      </trkpt>
      <trkpt lat="44.77934" lon="5.672">
        <ele>759</ele>
        <time>2017-08-08T12:37:59Z</time>
      </trkpt>
      <trkpt lat="44.779" lon="5.67165">
        <ele>765</ele>
        <time>2017-08-08T12:38:02Z</time>
      </trkpt>
      <trkpt lat="44.77879" lon="5.67146">
        <ele>763</ele>
        <time>2017-08-08T12:38:07Z</time>
      </trkpt>
      <trkpt lat="44.77874" lon="5.67138">
        <ele>764</ele>
        <time>2017-08-08T12:38:16Z</time>
      </trkpt>
      <trkpt lat="44.77862" lon="5.67089">
        <ele>767</ele>
        <time>2017-08-08T12:38:26Z</time>
      </trkpt>
      <trkpt lat="44.77858" lon="5.67078">
        <ele>775</ele>
        <time>2017-08-08T12:38:28Z</time>
      </trkpt>
      <trkpt lat="44.77853" lon="5.6707">
        <ele>775</ele>
        <time>2017-08-08T12:38:43Z</time>
      </trkpt>
      <trkpt lat="44.77834" lon="5.6706">
        <ele>774</ele>
        <time>2017-08-08T12:39:01Z</time>
      </trkpt>
      <trkpt lat="44.77824" lon="5.67057">
        <ele>764</ele>
        <time>2017-08-08T12:39:19Z</time>
      </trkpt>
      <trkpt lat="44.77815" lon="5.67051">
        <ele>764</ele>
        <time>2017-08-08T12:39:22Z</time>
      </trkpt>
      <trkpt lat="44.77804" lon="5.67036">
        <ele>764</ele>
        <time>2017-08-08T12:39:42Z</time>
      </trkpt>
      <trkpt lat="44.7779" lon="5.67014">
        <ele>765</ele>
        <time>2017-08-08T12:39:58Z</time>
      </trkpt>
      <trkpt lat="44.77774" lon="5.67">
        <ele>771</ele>
        <time>2017-08-08T12:40:06Z</time>
      </trkpt>
      <trkpt lat="44.77759" lon="5.66991">
        <ele>768</ele>
        <time>2017-08-08T12:40:21Z</time>
      </trkpt>
      <trkpt lat="44.77748" lon="5.66987">
        <ele>764</ele>
        <time>2017-08-08T12:40:35Z</time>
      </trkpt>
      <trkpt lat="44.77734" lon="5.66986">
        <ele>764</ele>
        <time>2017-08-08T12:40:39Z</time>
      </trkpt>
      <trkpt lat="44.77712" lon="5.66984">
        <ele>764</ele>
        <time>2017-08-08T12:40:54Z</time>
      </trkpt>
      <trkpt lat="44.77696" lon="5.66973">
        <ele>764</ele>
        <time>2017-08-08T12:41:00Z</time>
      </trkpt>
      <trkpt lat="44.77684" lon="5.6695">
        <ele>765</ele>
        <time>2017-08-08T12:41:07Z</time>
      </trkpt>
      <trkpt lat="44.77668" lon="5.66915">
        <ele>766</ele>
        <time>2017-08-08T12:41:15Z</time>
      </trkpt>
      <trkpt lat="44.77655" lon="5.66902">
        <ele>765</ele>
        <time>2017-08-08T12:41:24Z</time>
      </trkpt>
      <trkpt lat="44.77644" lon="5.66898">
        <ele>765</ele>
        <time>2017-08-08T12:41:26Z</time>
      </trkpt>
      <trkpt lat="44.77625" lon="5.66895">
        <ele>764</ele>
        <time>2017-08-08T12:41:33Z</time>
      </trkpt>
      <trkpt lat="44.77613" lon="5.66887">
        <ele>764</ele>
        <time>2017-08-08T12:41:38Z</time>
      </trkpt>
      <trkpt lat="44.77591" lon="5.66859">
        <ele>766</ele>
        <time>2017-08-08T12:41:45Z</time>
      </trkpt>
      <trkpt lat="44.7757" lon="5.6683">
        <ele>767</ele>
        <time>2017-08-08T12:41:55Z</time>
      </trkpt>
      <trkpt lat="44.77554" lon="5.66798">
        <ele>768</ele>
        <time>2017-08-08T12:42:03Z</time>
      </trkpt>
      <trkpt lat="44.77538" lon="5.66757">
        <ele>769</ele>
        <time>2017-08-08T12:42:15Z</time>
      </trkpt>
      <trkpt lat="44.77525" lon="5.66748">
        <ele>773</ele>
        <time>2017-08-08T12:42:23Z</time>
      </trkpt>
      <trkpt lat="44.77517" lon="5.66748">
        <ele>772</ele>
        <time>2017-08-08T12:42:43Z</time>
      </trkpt>
      <trkpt lat="44.77511" lon="5.66751">
        <ele>769</ele>
        <time>2017-08-08T12:42:49Z</time>
      </trkpt>
      <trkpt lat="44.775" lon="5.66764">
        <ele>768</ele>
        <time>2017-08-08T12:42:52Z</time>
      </trkpt>
      <trkpt lat="44.77486" lon="5.66786">
        <ele>766</ele>
        <time>2017-08-08T12:43:10Z</time>
      </trkpt>
      <trkpt lat="44.77473" lon="5.66792">
        <ele>766</ele>
        <time>2017-08-08T12:43:20Z</time>
      </trkpt>
      <trkpt lat="44.77458" lon="5.6679">
        <ele>766</ele>
        <time>2017-08-08T12:43:22Z</time>
      </trkpt>
      <trkpt lat="44.77422" lon="5.66775">
        <ele>767</ele>
        <time>2017-08-08T12:43:27Z</time>
      </trkpt>
      <trkpt lat="44.77383" lon="5.66764">
        <ele>769</ele>
        <time>2017-08-08T12:43:37Z</time>
      </trkpt>
      <trkpt lat="44.77333" lon="5.66753">
        <ele>772</ele>
        <time>2017-08-08T12:43:48Z</time>
      </trkpt>
      <trkpt lat="44.77316" lon="5.66752">
        <ele>773</ele>
        <time>2017-08-08T12:44:01Z</time>
      </trkpt>
      <trkpt lat="44.77308" lon="5.66755">
        <ele>774</ele>
        <time>2017-08-08T12:44:17Z</time>
      </trkpt>
      <trkpt lat="44.773" lon="5.6677">
        <ele>774</ele>
        <time>2017-08-08T12:44:24Z</time>
      </trkpt>
      <trkpt lat="44.77296" lon="5.66781">
        <ele>774</ele>
        <time>2017-08-08T12:44:38Z</time>
      </trkpt>
      <trkpt lat="44.77295" lon="5.66792">
        <ele>774</ele>
        <time>2017-08-08T12:44:41Z</time>
      </trkpt>
      <trkpt lat="44.77299" lon="5.66806">
        <ele>774</ele>
        <time>2017-08-08T12:44:50Z</time>
      </trkpt>
      <trkpt lat="44.77313" lon="5.66834">
        <ele>773</ele>
        <time>2017-08-08T12:45:09Z</time>
      </trkpt>
      <trkpt lat="44.77334" lon="5.66871">
        <ele>770</ele>
        <time>2017-08-08T12:45:14Z</time>
      </trkpt>
      <trkpt lat="44.77338" lon="5.66882">
        <ele>770</ele>
        <time>2017-08-08T12:45:27Z</time>
      </trkpt>
      <trkpt lat="44.77339" lon="5.66905">
        <ele>772</ele>
        <time>2017-08-08T12:45:39Z</time>
      </trkpt>
      <trkpt lat="44.77332" lon="5.66921">
        <ele>776</ele>
        <time>2017-08-08T12:45:43Z</time>
      </trkpt>
      <trkpt lat="44.77327" lon="5.66925">
        <ele>776</ele>
        <time>2017-08-08T12:45:58Z</time>
      </trkpt>
      <trkpt lat="44.7732" lon="5.66927">
        <ele>777</ele>
        <time>2017-08-08T12:46:05Z</time>
      </trkpt>
      <trkpt lat="44.77303" lon="5.66925">
        <ele>778</ele>
        <time>2017-08-08T12:46:21Z</time>
      </trkpt>
      <trkpt lat="44.77281" lon="5.66917">
        <ele>779</ele>
        <time>2017-08-08T12:46:39Z</time>
      </trkpt>
      <trkpt lat="44.77174" lon="5.66883">
        <ele>782</ele>
        <time>2017-08-08T12:46:52Z</time>
      </trkpt>
      <trkpt lat="44.77118" lon="5.66866">
        <ele>786</ele>
        <time>2017-08-08T12:47:08Z</time>
      </trkpt>
      <trkpt lat="44.77093" lon="5.6686">
        <ele>787</ele>
        <time>2017-08-08T12:47:20Z</time>
      </trkpt>
      <trkpt lat="44.77019" lon="5.66847">
        <ele>791</ele>
        <time>2017-08-08T12:47:34Z</time>
      </trkpt>
      <trkpt lat="44.7698" lon="5.66838">
        <ele>793</ele>
        <time>2017-08-08T12:47:38Z</time>
      </trkpt>
      <trkpt lat="44.76971" lon="5.66834">
        <ele>794</ele>
        <time>2017-08-08T12:47:57Z</time>
      </trkpt>
      <trkpt lat="44.76953" lon="5.66817">
        <ele>795</ele>
        <time>2017-08-08T12:48:01Z</time>
      </trkpt>
      <trkpt lat="44.76936" lon="5.66798">
        <ele>796</ele>
        <time>2017-08-08T12:48:09Z</time>
      </trkpt>
      <trkpt lat="44.76887" lon="5.66744">
        <ele>802</ele>
        <time>2017-08-08T12:48:16Z</time>
      </trkpt>
      <trkpt lat="44.76814" lon="5.66668">
        <ele>807</ele>
        <time>2017-08-08T12:48:35Z</time>
      </trkpt>
      <trkpt lat="44.7677" lon="5.66626">
        <ele>808</ele>
        <time>2017-08-08T12:48:51Z</time>
      </trkpt>
      <trkpt lat="44.76726" lon="5.66581">
        <ele>814</ele>
        <time>2017-08-08T12:49:00Z</time>
      </trkpt>
      <trkpt lat="44.76701" lon="5.66549">
        <ele>816</ele>
        <time>2017-08-08T12:49:18Z</time>
      </trkpt>
      <trkpt lat="44.76685" lon="5.66522">
        <ele>817</ele>
        <time>2017-08-08T12:49:24Z</time>
      </trkpt>
      <trkpt lat="44.76646" lon="5.66486">
        <ele>823</ele>
        <time>2017-08-08T12:49:28Z</time>
      </trkpt>
      <trkpt lat="44.76602" lon="5.6645">
        <ele>826</ele>
        <time>2017-08-08T12:49:39Z</time>
      </trkpt>
      <trkpt lat="44.76561" lon="5.6642">
        <ele>832</ele>
        <time>2017-08-08T12:49:54Z</time>
      </trkpt>
      <trkpt lat="44.76542" lon="5.66411">
        <ele>835</ele>
        <time>2017-08-08T12:50:00Z</time>
      </trkpt>
      <trkpt lat="44.76525" lon="5.66415">
        <ele>836</ele>
        <time>2017-08-08T12:50:13Z</time>
      </trkpt>
      <trkpt lat="44.76494" lon="5.66428">
        <ele>837</ele>
        <time>2017-08-08T12:50:24Z</time>
      </trkpt>
      <trkpt lat="44.76469" lon="5.66441">
        <ele>838</ele>
        <time>2017-08-08T12:50:28Z</time>
      </trkpt>
      <trkpt lat="44.76456" lon="5.6644">
        <ele>839</ele>
        <time>2017-08-08T12:50:33Z</time>
      </trkpt>
      <trkpt lat="44.76434" lon="5.66427">
        <ele>840</ele>
        <time>2017-08-08T12:50:42Z</time>
      </trkpt>
      <trkpt lat="44.76418" lon="5.6644">
        <ele>840</ele>
        <time>2017-08-08T12:50:49Z</time>
      </trkpt>
      <trkpt lat="44.76403" lon="5.66456">
        <ele>842</ele>
        <time>2017-08-08T12:51:02Z</time>
      </trkpt>
      <trkpt lat="44.76388" lon="5.66481">
        <ele>842</ele>
        <time>2017-08-08T12:51:22Z</time>
      </trkpt>
      <trkpt lat="44.76375" lon="5.66502">
        <ele>839</ele>
        <time>2017-08-08T12:51:39Z</time>
      </trkpt>
      <trkpt lat="44.76362" lon="5.6653">
        <ele>839</ele>
        <time>2017-08-08T12:51:46Z</time>
      </trkpt>
      <trkpt lat="44.76345" lon="5.66566">
        <ele>839</ele>
        <time>2017-08-08T12:52:04Z</time>
      </trkpt>
      <trkpt lat="44.76331" lon="5.66589">
        <ele>839</ele>
        <time>2017-08-08T12:52:15Z</time>
      </trkpt>
      <trkpt lat="44.76317" lon="5.666">
        <ele>840</ele>
        <time>2017-08-08T12:52:29Z</time>
      </trkpt>
      <trkpt lat="44.76289" lon="5.66619">
        <ele>840</ele>
        <time>2017-08-08T12:52:37Z</time>
      </trkpt>
      <trkpt lat="44.76274" lon="5.66632">
        <ele>840</ele>
        <time>2017-08-08T12:52:40Z</time>
      </trkpt>
      <trkpt lat="44.76259" lon="5.66652">
        <ele>841</ele>
        <time>2017-08-08T12:52:54Z</time>
      </trkpt>
      <trkpt lat="44.76216" lon="5.66715">
        <ele>849</ele>
        <time>2017-08-08T12:53:13Z</time>
      </trkpt>
      <trkpt lat="44.76203" lon="5.6674">
        <ele>850</ele>
        <time>2017-08-08T12:53:16Z</time>
      </trkpt>
      <trkpt lat="44.76192" lon="5.66783">
        <ele>852</ele>
        <time>2017-08-08T12:53:29Z</time>
      </trkpt>
      <trkpt lat="44.76191" lon="5.66801">
        <ele>853</ele>
        <time>2017-08-08T12:53:32Z</time>
      </trkpt>
      <trkpt lat="44.76196" lon="5.66819">
        <ele>853</ele>
        <time>2017-08-08T12:53:35Z</time>
      </trkpt>
      <trkpt lat="44.76209" lon="5.66855">
        <ele>853</ele>
        <time>2017-08-08T12:53:50Z</time>
      </trkpt>
      <trkpt lat="44.76213" lon="5.66883">
        <ele>853</ele>
        <time>2017-08-08T12:54:08Z</time>
      </trkpt>
      <trkpt lat="44.76211" lon="5.66912">
        <ele>853</ele>
        <time>2017-08-08T12:54:14Z</time>
      </trkpt>
      <trkpt lat="44.76216" lon="5.66931">
        <ele>855</ele>
        <time>2017-08-08T12:54:20Z</time>
      </trkpt>
      <trkpt lat="44.76233" lon="5.66957">
        <ele>854</ele>
        <time>2017-08-08T12:54:31Z</time>
      </trkpt>
      <trkpt lat="44.76244" lon="5.66997">
        <ele>854</ele>
        <time>2017-08-08T12:54:45Z</time>
      </trkpt>
      <trkpt lat="44.76247" lon="5.67029">
        <ele>857</ele>
        <time>2017-08-08T12:55:02Z</time>
      </trkpt>
      <trkpt lat="44.76245" lon="5.6704">
        <ele>858</ele>
        <time>2017-08-08T12:55:21Z</time>
      </trkpt>
      <trkpt lat="44.76239" lon="5.67049">
        <ele>858</ele>
        <time>2017-08-08T12:55:32Z</time>
      </trkpt>
      <trkpt lat="44.76233" lon="5.67052">
        <ele>858</ele>
        <time>2017-08-08T12:55:47Z</time>
      </trkpt>
      <trkpt lat="44.76224" lon="5.67052">
        <ele>858</ele>
        <time>2017-08-08T12:55:57Z</time>
      </trkpt>
      <trkpt lat="44.76199" lon="5.67051">
        <ele>859</ele>
        <time>2017-08-08T12:56:16Z</time>
      </trkpt>
      <trkpt lat="44.7617" lon="5.67051">
        <ele>859</ele>
        <time>2017-08-08T12:56:36Z</time>
      </trkpt>
      <trkpt lat="44.7615" lon="5.67045">
        <ele>857</ele>
        <time>2017-08-08T12:56:51Z</time>
      </trkpt>
      <trkpt lat="44.76129" lon="5.67034">
        <ele>857</ele>
        <time>2017-08-08T12:57:00Z</time>
      </trkpt>
      <trkpt lat="44.76114" lon="5.67019">
        <ele>856</ele>
        <time>2017-08-08T12:57:08Z</time>
      </trkpt>
      <trkpt lat="44.76094" lon="5.6699">
        <ele>860</ele>
        <time>2017-08-08T12:57:12Z</time>
      </trkpt>
      <trkpt lat="44.76073" lon="5.66974">
        <ele>860</ele>
        <time>2017-08-08T12:57:18Z</time>
      </trkpt>
      <trkpt lat="44.76043" lon="5.66964">
        <ele>860</ele>
        <time>2017-08-08T12:57:29Z</time>
      </trkpt>
      <trkpt lat="44.7601" lon="5.66964">
        <ele>858</ele>
        <time>2017-08-08T12:57:42Z</time>
      </trkpt>
      <trkpt lat="44.75989" lon="5.66971">
        <ele>857</ele>
        <time>2017-08-08T12:57:52Z</time>
      </trkpt>
      <trkpt lat="44.75978" lon="5.6698">
        <ele>857</ele>
        <time>2017-08-08T12:58:10Z</time>
      </trkpt>
      <trkpt lat="44.75974" lon="5.66987">
        <ele>857</ele>
        <time>2017-08-08T12:58:15Z</time>
      </trkpt>
      <trkpt lat="44.75966" lon="5.67012">
        <ele>855</ele>
        <time>2017-08-08T12:58:27Z</time>
      </trkpt>
      <trkpt lat="44.75957" lon="5.67066">
        <ele>855</ele>
        <time>2017-08-08T12:58:37Z</time>
      </trkpt>
      <trkpt lat="44.75947" lon="5.67142">
        <ele>854</ele>
        <time>2017-08-08T12:58:55Z</time>
      </trkpt>
      <trkpt lat="44.75945" lon="5.67288">
        <ele>848</ele>
        <time>2017-08-08T12:59:13Z</time>
      </trkpt>
      <trkpt lat="44.75937" lon="5.67345">
        <ele>847</ele>
        <time>2017-08-08T12:59:18Z</time>
      </trkpt>
      <trkpt lat="44.75934" lon="5.6738">
        <ele>845</ele>
        <time>2017-08-08T12:59:21Z</time>
      </trkpt>
      <trkpt lat="44.75934" lon="5.6741">
        <ele>846</ele>
        <time>2017-08-08T12:59:34Z</time>
      </trkpt>
      <trkpt lat="44.75942" lon="5.67473">
        <ele>840</ele>
        <time>2017-08-08T12:59:43Z</time>
      </trkpt>
      <trkpt lat="44.75954" lon="5.67528">
        <ele>836</ele>
        <time>2017-08-08T12:59:52Z</time>
      </trkpt>
      <trkpt lat="44.75954" lon="5.67557">
        <ele>836</ele>
        <time>2017-08-08T12:59:58Z</time>
      </trkpt>
      <trkpt lat="44.75947" lon="5.67576">
        <ele>837</ele>
        <time>2017-08-08T13:00:08Z</time>
      </trkpt>
      <trkpt lat="44.75921" lon="5.67594">
        <ele>838</ele>
        <time>2017-08-08T13:00:28Z</time>
      </trkpt>
      <trkpt lat="44.75901" lon="5.67605">
        <ele>841</ele>
        <time>2017-08-08T13:00:44Z</time>
      </trkpt>
      <trkpt lat="44.75885" lon="5.67612">
        <ele>841</ele>
        <time>2017-08-08T13:01:03Z</time>
      </trkpt>
      <trkpt lat="44.75858" lon="5.67617">
        <ele>841</ele>
        <time>2017-08-08T13:01:09Z</time>
      </trkpt>
      <trkpt lat="44.75824" lon="5.67622">
        <ele>844</ele>
        <time>2017-08-08T13:01:18Z</time>
      </trkpt>
      <trkpt lat="44.75815" lon="5.67624">
        <ele>844</ele>
        <time>2017-08-08T13:01:27Z</time>
      </trkpt>
      <trkpt lat="44.75805" lon="5.67628">
        <ele>845</ele>
        <time>2017-08-08T13:01:41Z</time>
      </trkpt>
      <trkpt lat="44.75801" lon="5.67631">
        <ele>845</ele>
        <time>2017-08-08T13:01:55Z</time>
      </trkpt>
      <trkpt lat="44.75799" lon="5.67653">
        <ele>844</ele>
        <time>2017-08-08T13:01:59Z</time>
      </trkpt>
      <trkpt lat="44.75794" lon="5.67676">
        <ele>841</ele>
        <time>2017-08-08T13:02:09Z</time>
      </trkpt>
      <trkpt lat="44.75791" lon="5.67693">
        <ele>841</ele>
        <time>2017-08-08T13:02:22Z</time>
      </trkpt>
      <trkpt lat="44.75788" lon="5.67713">
        <ele>840</ele>
        <time>2017-08-08T13:02:30Z</time>
      </trkpt>
      <trkpt lat="44.75785" lon="5.67767">
        <ele>836</ele>
        <time>2017-08-08T13:02:47Z</time>
      </trkpt>
      <trkpt lat="44.75785" lon="5.67811">
        <ele>835</ele>
        <time>2017-08-08T13:02:57Z</time>
      </trkpt>
      <trkpt lat="44.75783" lon="5.67831">
        <ele>835</ele>
        <time>2017-08-08T13:03:07Z</time>
      </trkpt>
      <trkpt lat="44.75779" lon="5.67845">
        <ele>832</ele>
        <time>2017-08-08T13:03:13Z</time>
      </trkpt>
      <trkpt lat="44.75761" lon="5.67884">
        <ele>831</ele>
        <time>2017-08-08T13:03:19Z</time>
      </trkpt>
      <trkpt lat="44.75744" lon="5.67921">
        <ele>831</ele>
        <time>2017-08-08T13:03:21Z</time>
      </trkpt>
      <trkpt lat="44.75709" lon="5.67996">
        <ele>829</ele>
        <time>2017-08-08T13:03:32Z</time>
      </trkpt>
      <trkpt lat="44.75687" lon="5.68029">
        <ele>823</ele>
        <time>2017-08-08T13:03:48Z</time>
      </trkpt>
      <trkpt lat="44.75679" lon="5.68034">
        <ele>823</ele>
        <time>2017-08-08T13:03:55Z</time>
      </trkpt>
      <trkpt lat="44.75653" lon="5.68041">
        <ele>819</ele>
        <time>2017-08-08T13:04:14Z</time>
      </trkpt>
      <trkpt lat="44.75618" lon="5.68033">
        <ele>819</ele>
        <time>2017-08-08T13:04:25Z</time>
      </trkpt>
      <trkpt lat="44.75581" lon="5.68022">
        <ele>817</ele>
        <time>2017-08-08T13:04:36Z</time>
      </trkpt>
      <trkpt lat="44.7556" lon="5.68021">
        <ele>816</ele>
        <time>2017-08-08T13:04:50Z</time>
      </trkpt>
      <trkpt lat="44.75544" lon="5.68025">
        <ele>815</ele>
        <time>2017-08-08T13:04:59Z</time>
      </trkpt>
      <trkpt lat="44.75514" lon="5.68033">
        <ele>815</ele>
        <time>2017-08-08T13:05:07Z</time>
      </trkpt>
      <trkpt lat="44.75506" lon="5.68032">
        <ele>815</ele>
        <time>2017-08-08T13:05:16Z</time>
      </trkpt>
      <trkpt lat="44.75492" lon="5.68026">
        <ele>815</ele>
        <time>2017-08-08T13:05:19Z</time>
      </trkpt>
      <trkpt lat="44.7546" lon="5.68003">
        <ele>815</ele>
        <time>2017-08-08T13:05:29Z</time>
      </trkpt>
      <trkpt lat="44.75443" lon="5.67993">
        <ele>822</ele>
        <time>2017-08-08T13:05:34Z</time>
      </trkpt>
      <trkpt lat="44.75427" lon="5.67991">
        <ele>820</ele>
        <time>2017-08-08T13:05:48Z</time>
      </trkpt>
      <trkpt lat="44.75417" lon="5.67994">
        <ele>817</ele>
        <time>2017-08-08T13:05:52Z</time>
      </trkpt>
      <trkpt lat="44.7541" lon="5.68001">
        <ele>815</ele>
        <time>2017-08-08T13:06:03Z</time>
      </trkpt>
      <trkpt lat="44.75404" lon="5.6801">
        <ele>815</ele>
        <time>2017-08-08T13:06:06Z</time>
      </trkpt>
      <trkpt lat="44.75399" lon="5.6802">
        <ele>815</ele>
        <time>2017-08-08T13:06:23Z</time>
      </trkpt>
      <trkpt lat="44.75398" lon="5.68035">
        <ele>815</ele>
        <time>2017-08-08T13:06:30Z</time>
      </trkpt>
      <trkpt lat="44.754" lon="5.68051">
        <ele>815</ele>
        <time>2017-08-08T13:06:41Z</time>
      </trkpt>
      <trkpt lat="44.75408" lon="5.6807">
        <ele>814</ele>
        <time>2017-08-08T13:07:01Z</time>
      </trkpt>
      <trkpt lat="44.75428" lon="5.68093">
        <ele>814</ele>
        <time>2017-08-08T13:07:19Z</time>
      </trkpt>
      <trkpt lat="44.75462" lon="5.68129">
        <ele>817</ele>
        <time>2017-08-08T13:07:39Z</time>
      </trkpt>
      <trkpt lat="44.75493" lon="5.68157">
        <ele>817</ele>
        <time>2017-08-08T13:07:42Z</time>
      </trkpt>
      <trkpt lat="44.75528" lon="5.68178">
        <ele>820</ele>
        <time>2017-08-08T13:08:00Z</time>
      </trkpt>
      <trkpt lat="44.75569" lon="5.68201">
        <ele>819</ele>
        <time>2017-08-08T13:08:02Z</time>
      </trkpt>
      <trkpt lat="44.75617" lon="5.68228">
        <ele>813</ele>
        <time>2017-08-08T13:08:13Z</time>
      </trkpt>
      <trkpt lat="44.75657" lon="5.68253">
        <ele>815</ele>
        <time>2017-08-08T13:08:33Z</time>
      </trkpt>
      <trkpt lat="44.75669" lon="5.68266">
        <ele>809</ele>
        <time>2017-08-08T13:08:43Z</time>
      </trkpt>
      <trkpt lat="44.75677" lon="5.68276">
        <ele>810</ele>
        <time>2017-08-08T13:08:52Z</time>
      </trkpt>
      <trkpt lat="44.75685" lon="5.68296">
        <ele>812</ele>
        <time>2017-08-08T13:09:11Z</time>
      </trkpt>
      <trkpt lat="44.75697" lon="5.68326">
        <ele>814</ele>
        <time>2017-08-08T13:09:16Z</time>
      </trkpt>
      <trkpt lat="44.75716" lon="5.68356">
        <ele>823</ele>
        <time>2017-08-08T13:09:31Z</time>
      </trkpt>
      <trkpt lat="44.75727" lon="5.6837">
        <ele>823</ele>
        <time>2017-08-08T13:09:43Z</time>
      </trkpt>
      <trkpt lat="44.75738" lon="5.68376">
        <ele>823</ele>
        <time>2017-08-08T13:09:57Z</time>
      </trkpt>
      <trkpt lat="44.75766" lon="5.68391">
        <ele>812</ele>
        <time>2017-08-08T13:10:03Z</time>
      </trkpt>
      <trkpt lat="44.75794" lon="5.68402">
        <ele>809</ele>
        <time>2017-08-08T13:10:19Z</time>
      </trkpt>
      <trkpt lat="44.7582" lon="5.6842">
        <ele>815</ele>
        <time>2017-08-08T13:10:26Z</time>
      </trkpt>
      <trkpt lat="44.75834" lon="5.68434">
        <ele>805</ele>
        <time>2017-08-08T13:10:41Z</time>
      </trkpt>
      <trkpt lat="44.7586" lon="5.68472">
        <ele>806</ele>
        <time>2017-08-08T13:10:51Z</time>
      </trkpt>
      <trkpt lat="44.75882" lon="5.68525">
        <ele>811</ele>
        <time>2017-08-08T13:11:11Z</time>
      </trkpt>
      <trkpt lat="44.75909" lon="5.68591">
        <ele>811</ele>
        <time>2017-08-08T13:11:31Z</time>
      </trkpt>
      <trkpt lat="44.75917" lon="5.68636">
        <ele>802</ele>
        <time>2017-08-08T13:11:51Z</time>
      </trkpt>
      <trkpt lat="44.75918" lon="5.68695">
        <ele>806</ele>
        <time>2017-08-08T13:12:09Z</time>
      </trkpt>
      <trkpt lat="44.75916" lon="5.68728">
        <ele>819</ele>
        <time>2017-08-08T13:12:22Z</time>
      </trkpt>
      <trkpt lat="44.75916" lon="5.68753">
        <ele>815</ele>
        <time>2017-08-08T13:12:41Z</time>
      </trkpt>
      <trkpt lat="44.75926" lon="5.68806">
        <ele>810</ele>
        <time>2017-08-08T13:12:51Z</time>
      </trkpt>
      <trkpt lat="44.75942" lon="5.68865">
        <ele>809</ele>
        <time>2017-08-08T13:13:07Z</time>
      </trkpt>
      <trkpt lat="44.75946" lon="5.68888">
        <ele>809</ele>
        <time>2017-08-08T13:13:14Z</time>
      </trkpt>
      <trkpt lat="44.75956" lon="5.6895">
        <ele>809</ele>
        <time>2017-08-08T13:13:25Z</time>
      </trkpt>
      <trkpt lat="44.75972" lon="5.69">
        <ele>809</ele>
        <time>2017-08-08T13:13:43Z</time>
      </trkpt>
      <trkpt lat="44.76007" lon="5.691">
        <ele>806</ele>
        <time>2017-08-08T13:13:58Z</time>
      </trkpt>
      <trkpt lat="44.76019" lon="5.69123">
        <ele>807</ele>
        <time>2017-08-08T13:14:15Z</time>
      </trkpt>
      <trkpt lat="44.76033" lon="5.69142">
        <ele>807</ele>
        <time>2017-08-08T13:14:28Z</time>
      </trkpt>
      <trkpt lat="44.76046" lon="5.69156">
        <ele>806</ele>
        <time>2017-08-08T13:14:48Z</time>
      </trkpt>
      <trkpt lat="44.76063" lon="5.69174">
        <ele>809</ele>
        <time>2017-08-08T13:14:50Z</time>
      </trkpt>
      <trkpt lat="44.7608" lon="5.69199">
        <ele>810</ele>
        <time>2017-08-08T13:15:07Z</time>
      </trkpt>
      <trkpt lat="44.76094" lon="5.69224">
        <ele>805</ele>
        <time>2017-08-08T13:15:11Z</time>
      </trkpt>
      <trkpt lat="44.76102" lon="5.69243">
        <ele>806</ele>
        <time>2017-08-08T13:15:24Z</time>
      </trkpt>
      <trkpt lat="44.76127" lon="5.69325">
        <ele>809</ele>
        <time>2017-08-08T13:15:34Z</time>
      </trkpt>
      <trkpt lat="44.76149" lon="5.6939">
        <ele>812</ele>
        <time>2017-08-08T13:15:46Z</time>
      </trkpt>
      <trkpt lat="44.76161" lon="5.69415">
        <ele>810</ele>
        <time>2017-08-08T13:15:53Z</time>
      </trkpt>
      <trkpt lat="44.76175" lon="5.69436">
        <ele>808</ele>
        <time>2017-08-08T13:16:02Z</time>
      </trkpt>
      <trkpt lat="44.76195" lon="5.69459">
        <ele>807</ele>
        <time>2017-08-08T13:16:21Z</time>
      </trkpt>
      <trkpt lat="44.76246" lon="5.69513">
        <ele>810</ele>
        <time>2017-08-08T13:16:28Z</time>
      </trkpt>
      <trkpt lat="44.76292" lon="5.6956">
        <ele>807</ele>
        <time>2017-08-08T13:16:34Z</time>
      </trkpt>
      <trkpt lat="44.76315" lon="5.6958">
        <ele>806</ele>
        <time>2017-08-08T13:16:52Z</time>
      </trkpt>
      <trkpt lat="44.76327" lon="5.69589">
        <ele>808</ele>
        <time>2017-08-08T13:16:59Z</time>
      </trkpt>
      <trkpt lat="44.76356" lon="5.69615">
        <ele>805</ele>
        <time>2017-08-08T13:17:04Z</time>
      </trkpt>
      <trkpt lat="44.76373" lon="5.6964">
        <ele>806</ele>
        <time>2017-08-08T13:17:23Z</time>
      </trkpt>
      <trkpt lat="44.76413" lon="5.69712">
        <ele>810</ele>
        <time>2017-08-08T13:17:30Z</time>
      </trkpt>
      <trkpt lat="44.76446" lon="5.69749">
        <ele>804</ele>
        <time>2017-08-08T13:17:40Z</time>
      </trkpt>
      <trkpt lat="44.76463" lon="5.69764">
        <ele>806</ele>
        <time>2017-08-08T13:17:56Z</time>
      </trkpt>
      <trkpt lat="44.76489" lon="5.69778">
        <ele>804</ele>
        <time>2017-08-08T13:17:59Z</time>
      </trkpt>
      <trkpt lat="44.76517" lon="5.69787">
        <ele>801</ele>
        <time>2017-08-08T13:18:07Z</time>
      </trkpt>
      <trkpt lat="44.76545" lon="5.6979">
        <ele>800</ele>
        <time>2017-08-08T13:18:18Z</time>
      </trkpt>
      <trkpt lat="44.76572" lon="5.69786">
        <ele>799</ele>
        <time>2017-08-08T13:18:34Z</time>
      </trkpt>
      <trkpt lat="44.76602" lon="5.69779">
        <ele>796</ele>
        <time>2017-08-08T13:18:47Z</time>
      </trkpt>
      <trkpt lat="44.76633" lon="5.69776">
        <ele>796</ele>
        <time>2017-08-08T13:19:01Z</time>
      </trkpt>
      <trkpt lat="44.76688" lon="5.69778">
        <ele>795</ele>
        <time>2017-08-08T13:19:10Z</time>
      </trkpt>
      <trkpt lat="44.76796" lon="5.6978">
        <ele>794</ele>
        <time>2017-08-08T13:19:25Z</time>
      </trkpt>
      <trkpt lat="44.76806" lon="5.69782">
        <ele>794</ele>
        <time>2017-08-08T13:19:31Z</time>
      </trkpt>
      <trkpt lat="44.76818" lon="5.69788">
        <ele>794</ele>
        <time>2017-08-08T13:19:50Z</time>
      </trkpt>
      <trkpt lat="44.76925" lon="5.69843">
        <ele>792</ele>
        <time>2017-08-08T13:20:05Z</time>
      </trkpt>
      <trkpt lat="44.76953" lon="5.69863">
        <ele>791</ele>
        <time>2017-08-08T13:20:11Z</time>
      </trkpt>
      <trkpt lat="44.76962" lon="5.69871">
        <ele>790</ele>
        <time>2017-08-08T13:20:28Z</time>
      </trkpt>
      <trkpt lat="44.76969" lon="5.6988">
        <ele>790</ele>
        <time>2017-08-08T13:20:35Z</time>
      </trkpt>
      <trkpt lat="44.76975" lon="5.69891">
        <ele>790</ele>
        <time>2017-08-08T13:20:47Z</time>
      </trkpt>
      <trkpt lat="44.76982" lon="5.69919">
        <ele>790</ele>
        <time>2017-08-08T13:20:49Z</time>
      </trkpt>
      <trkpt lat="44.76987" lon="5.69969">
        <ele>790</ele>
        <time>2017-08-08T13:20:56Z</time>
      </trkpt>
      <trkpt lat="44.76991" lon="5.70072">
        <ele>789</ele>
        <time>2017-08-08T13:20:58Z</time>
      </trkpt>
      <trkpt lat="44.77018" lon="5.70248">
        <ele>789</ele>
        <time>2017-08-08T13:21:17Z</time>
      </trkpt>
      <trkpt lat="44.77024" lon="5.7029">
        <ele>789</ele>
        <time>2017-08-08T13:21:22Z</time>
      </trkpt>
      <trkpt lat="44.77028" lon="5.70331">
        <ele>789</ele>
        <time>2017-08-08T13:21:42Z</time>
      </trkpt>
      <trkpt lat="44.77027" lon="5.7037">
        <ele>788</ele>
        <time>2017-08-08T13:21:59Z</time>
      </trkpt>
      <trkpt lat="44.77021" lon="5.70421">
        <ele>787</ele>
        <time>2017-08-08T13:22:09Z</time>
      </trkpt>
      <trkpt lat="44.77017" lon="5.70452">
        <ele>785</ele>
        <time>2017-08-08T13:22:13Z</time>
      </trkpt>
      <trkpt lat="44.77017" lon="5.70468">
        <ele>785</ele>
        <time>2017-08-08T13:22:27Z</time>
      </trkpt>
      <trkpt lat="44.77012" lon="5.70477">
        <ele>785</ele>
        <time>2017-08-08T13:22:47Z</time>
      </trkpt>
      <trkpt lat="44.77004" lon="5.70498">
        <ele>786</ele>
        <time>2017-08-08T13:22:52Z</time>
      </trkpt>
      <trkpt lat="44.76968" lon="5.70611">
        <ele>789</ele>
        <time>2017-08-08T13:22:56Z</time>
      </trkpt>
      <trkpt lat="44.76929" lon="5.70728">
        <ele>787</ele>
        <time>2017-08-08T13:22:58Z</time>
      </trkpt>
      <trkpt lat="44.76911" lon="5.70787">
        <ele>792</ele>
        <time>2017-08-08T13:23:02Z</time>
      </trkpt>
      <trkpt lat="44.769" lon="5.70834">
        <ele>789</ele>
        <time>2017-08-08T13:23:19Z</time>
      </trkpt>
      <trkpt lat="44.76874" lon="5.7103">
        <ele>787</ele>
        <time>2017-08-08T13:23:27Z</time>
      </trkpt>
      <trkpt lat="44.76866" lon="5.71084">
        <ele>788</ele>
        <time>2017-08-08T13:23:35Z</time>
      </trkpt>
      <trkpt lat="44.76853" lon="5.71128">
        <ele>788</ele>
        <time>2017-08-08T13:23:47Z</time>
      </trkpt>
      <trkpt lat="44.76824" lon="5.71193">
        <ele>794</ele>
        <time>2017-08-08T13:23:53Z</time>
      </trkpt>
      <trkpt lat="44.76778" lon="5.71289">
        <ele>791</ele>
        <time>2017-08-08T13:23:56Z</time>
      </trkpt>
      <trkpt lat="44.76744" lon="5.71361">
        <ele>799</ele>
        <time>2017-08-08T13:24:16Z</time>
      </trkpt>
      <trkpt lat="44.76724" lon="5.71406">
        <ele>798</ele>
        <time>2017-08-08T13:24:24Z</time>
      </trkpt>
      <trkpt lat="44.76707" lon="5.7147">
        <ele>796</ele>
        <time>2017-08-08T13:24:41Z</time>
      </trkpt>
      <trkpt lat="44.76679" lon="5.71588">
        <ele>794</ele>
        <time>2017-08-08T13:24:55Z</time>
      </trkpt>
      <trkpt lat="44.76649" lon="5.71669">
        <ele>794</ele>
        <time>2017-08-08T13:25:03Z</time>
      </trkpt>
      <trkpt lat="44.76637" lon="5.71695">
        <ele>796</ele>
        <time>2017-08-08T13:25:16Z</time>
      </trkpt>
      <trkpt lat="44.76627" lon="5.71712">
        <ele>797</ele>
        <time>2017-08-08T13:25:22Z</time>
      </trkpt>
      <trkpt lat="44.76606" lon="5.71742">
        <ele>799</ele>
        <time>2017-08-08T13:25:25Z</time>
      </trkpt>
      <trkpt lat="44.76598" lon="5.71758">
        <ele>795</ele>
        <time>2017-08-08T13:25:28Z</time>
      </trkpt>
      <trkpt lat="44.76587" lon="5.71787">
        <ele>790</ele>
        <time>2017-08-08T13:25:35Z</time>
      </trkpt>
      <trkpt lat="44.76543" lon="5.71911">
        <ele>802</ele>
        <time>2017-08-08T13:25:41Z</time>
      </trkpt>
      <trkpt lat="44.765" lon="5.72038">
        <ele>786</ele>
        <time>2017-08-08T13:25:56Z</time>
      </trkpt>
      <trkpt lat="44.76466" lon="5.72112">
        <ele>792</ele>
        <time>2017-08-08T13:26:10Z</time>
      </trkpt>
      <trkpt lat="44.76448" lon="5.72162">
        <ele>792</ele>
        <time>2017-08-08T13:26:20Z</time>
      </trkpt>
      <trkpt lat="44.76432" lon="5.72201">
        <ele>786</ele>
        <time>2017-08-08T13:26:22Z</time>
      </trkpt>
      <trkpt lat="44.7641" lon="5.7224">
        <ele>795</ele>
        <time>2017-08-08T13:26:25Z</time>
      </trkpt>
      <trkpt lat="44.7638" lon="5.72271">
        <ele>795</ele>
        <time>2017-08-08T13:26:41Z</time>
      </trkpt>
      <trkpt lat="44.76364" lon="5.72287">
        <ele>797</ele>
        <time>2017-08-08T13:26:43Z</time>
      </trkpt>
      <trkpt lat="44.76352" lon="5.72303">
        <ele>796</ele>
        <time>2017-08-08T13:26:50Z</time>
      </trkpt>
      <trkpt lat="44.7634" lon="5.7232">
        <ele>796</ele>
        <time>2017-08-08T13:27:10Z</time>
      </trkpt>
      <trkpt lat="44.7633" lon="5.7234">
        <ele>797</ele>
        <time>2017-08-08T13:27:22Z</time>
      </trkpt>
      <trkpt lat="44.76301" lon="5.72409">
        <ele>795</ele>
        <time>2017-08-08T13:27:42Z</time>
      </trkpt>
      <trkpt lat="44.76281" lon="5.72457">
        <ele>785</ele>
        <time>2017-08-08T13:28:01Z</time>
      </trkpt>
      <trkpt lat="44.76281" lon="5.72468">
        <ele>784</ele>
        <time>2017-08-08T13:28:12Z</time>
      </trkpt>
      <trkpt lat="44.76266" lon="5.72489">
        <ele>784</ele>
        <time>2017-08-08T13:28:20Z</time>
      </trkpt>
      <trkpt lat="44.76236" lon="5.72528">
        <ele>787</ele>
        <time>2017-08-08T13:28:26Z</time>
      </trkpt>
      <trkpt lat="44.76211" lon="5.72558">
        <ele>787</ele>
        <time>2017-08-08T13:28:45Z</time>
      </trkpt>
      <trkpt lat="44.76045" lon="5.72775">
        <ele>793</ele>
        <time>2017-08-08T13:29:02Z</time>
      </trkpt>
      <trkpt lat="44.75973" lon="5.72869">
        <ele>805</ele>
        <time>2017-08-08T13:29:18Z</time>
      </trkpt>
      <trkpt lat="44.75933" lon="5.72925">
        <ele>798</ele>
        <time>2017-08-08T13:29:38Z</time>
      </trkpt>
      <trkpt lat="44.75882" lon="5.73014">
        <ele>798</ele>
        <time>2017-08-08T13:29:49Z</time>
      </trkpt>
      <trkpt lat="44.75735" lon="5.73283">
        <ele>811</ele>
        <time>2017-08-08T13:30:09Z</time>
      </trkpt>
      <trkpt lat="44.75579" lon="5.73566">
        <ele>809</ele>
        <time>2017-08-08T13:30:18Z</time>
      </trkpt>
      <trkpt lat="44.75571" lon="5.7358">
        <ele>808</ele>
        <time>2017-08-08T13:30:23Z</time>
      </trkpt>
      <trkpt lat="44.75555" lon="5.73597">
        <ele>807</ele>
        <time>2017-08-08T13:30:30Z</time>
      </trkpt>
      <trkpt lat="44.75516" lon="5.73619">
        <ele>809</ele>
        <time>2017-08-08T13:30:37Z</time>
      </trkpt>
      <trkpt lat="44.75484" lon="5.73647">
        <ele>814</ele>
        <time>2017-08-08T13:30:57Z</time>
      </trkpt>
      <trkpt lat="44.75465" lon="5.73663">
        <ele>816</ele>
        <time>2017-08-08T13:31:06Z</time>
      </trkpt>
      <trkpt lat="44.75448" lon="5.73674">
        <ele>811</ele>
        <time>2017-08-08T13:31:11Z</time>
      </trkpt>
      <trkpt lat="44.75398" lon="5.73706">
        <ele>816</ele>
        <time>2017-08-08T13:31:28Z</time>
      </trkpt>
      <trkpt lat="44.75377" lon="5.7372">
        <ele>816</ele>
        <time>2017-08-08T13:31:30Z</time>
      </trkpt>
      <trkpt lat="44.75351" lon="5.7374">
        <ele>816</ele>
        <time>2017-08-08T13:31:48Z</time>
      </trkpt>
      <trkpt lat="44.75298" lon="5.7378">
        <ele>814</ele>
        <time>2017-08-08T13:31:59Z</time>
      </trkpt>
      <trkpt lat="44.75226" lon="5.73835">
        <ele>816</ele>
        <time>2017-08-08T13:32:03Z</time>
      </trkpt>
      <trkpt lat="44.75194" lon="5.7386">
        <ele>818</ele>
        <time>2017-08-08T13:32:22Z</time>
      </trkpt>
      <trkpt lat="44.75158" lon="5.73895">
        <ele>827</ele>
        <time>2017-08-08T13:32:41Z</time>
      </trkpt>
      <trkpt lat="44.75141" lon="5.73912">
        <ele>828</ele>
        <time>2017-08-08T13:32:55Z</time>
      </trkpt>
      <trkpt lat="44.75124" lon="5.73934">
        <ele>824</ele>
        <time>2017-08-08T13:33:14Z</time>
      </trkpt>
      <trkpt lat="44.75084" lon="5.73991">
        <ele>825</ele>
        <time>2017-08-08T13:33:22Z</time>
      </trkpt>
      <trkpt lat="44.75045" lon="5.74054">
        <ele>829</ele>
        <time>2017-08-08T13:33:35Z</time>
      </trkpt>
      <trkpt lat="44.7498" lon="5.74142">
        <ele>831</ele>
        <time>2017-08-08T13:33:53Z</time>
      </trkpt>
      <trkpt lat="44.74891" lon="5.7426">
        <ele>834</ele>
        <time>2017-08-08T13:34:05Z</time>
      </trkpt>
      <trkpt lat="44.74865" lon="5.74288">
        <ele>835</ele>
        <time>2017-08-08T13:34:20Z</time>
      </trkpt>
      <trkpt lat="44.74833" lon="5.74307">
        <ele>839</ele>
        <time>2017-08-08T13:34:22Z</time>
      </trkpt>
      <trkpt lat="44.74711" lon="5.74377">
        <ele>840</ele>
        <time>2017-08-08T13:34:25Z</time>
      </trkpt>
      <trkpt lat="44.74697" lon="5.74382">
        <ele>840</ele>
        <time>2017-08-08T13:34:27Z</time>
      </trkpt>
      <trkpt lat="44.74682" lon="5.74385">
        <ele>840</ele>
        <time>2017-08-08T13:34:34Z</time>
      </trkpt>
      <trkpt lat="44.74668" lon="5.74387">
        <ele>840</ele>
        <time>2017-08-08T13:34:46Z</time>
      </trkpt>
      <trkpt lat="44.74654" lon="5.74394">
        <ele>844</ele>
        <time>2017-08-08T13:34:57Z</time>
      </trkpt>
      <trkpt lat="44.74606" lon="5.74424">
        <ele>845</ele>
        <time>2017-08-08T13:35:03Z</time>
      </trkpt>
      <trkpt lat="44.74567" lon="5.74449">
        <ele>848</ele>
        <time>2017-08-08T13:35:22Z</time>
      </trkpt>
      <trkpt lat="44.74556" lon="5.7446">
        <ele>848</ele>
        <time>2017-08-08T13:35:38Z</time>
      </trkpt>
      <trkpt lat="44.74537" lon="5.74487">
        <ele>849</ele>
        <time>2017-08-08T13:35:42Z</time>
      </trkpt>
      <trkpt lat="44.74529" lon="5.74496">
        <ele>849</ele>
        <time>2017-08-08T13:35:47Z</time>
      </trkpt>
      <trkpt lat="44.74518" lon="5.74502">
        <ele>850</ele>
        <time>2017-08-08T13:36:07Z</time>
      </trkpt>
      <trkpt lat="44.74485" lon="5.74513">
        <ele>852</ele>
        <time>2017-08-08T13:36:27Z</time>
      </trkpt>
      <trkpt lat="44.7448" lon="5.74516">
        <ele>852</ele>
        <time>2017-08-08T13:36:38Z</time>
      </trkpt>
      <trkpt lat="44.74474" lon="5.74523">
        <ele>852</ele>
        <time>2017-08-08T13:36:51Z</time>
      </trkpt>
      <trkpt lat="44.74472" lon="5.74536">
        <ele>853</ele>
        <time>2017-08-08T13:36:55Z</time>
      </trkpt>
      <trkpt lat="44.74473" lon="5.74562">
        <ele>852</ele>
        <time>2017-08-08T13:37:13Z</time>
      </trkpt>
      <trkpt lat="44.74471" lon="5.74601">
        <ele>853</ele>
        <time>2017-08-08T13:37:33Z</time>
      </trkpt>
      <trkpt lat="44.74452" lon="5.74687">
        <ele>858</ele>
        <time>2017-08-08T13:37:47Z</time>
      </trkpt>
      <trkpt lat="44.74447" lon="5.74702">
        <ele>858</ele>
        <time>2017-08-08T13:38:01Z</time>
      </trkpt>
      <trkpt lat="44.74438" lon="5.7472">
        <ele>859</ele>
        <time>2017-08-08T13:38:10Z</time>
      </trkpt>
      <trkpt lat="44.74419" lon="5.74751">
        <ele>861</ele>
        <time>2017-08-08T13:38:12Z</time>
      </trkpt>
      <trkpt lat="44.74388" lon="5.74785">
        <ele>862</ele>
        <time>2017-08-08T13:38:24Z</time>
      </trkpt>
      <trkpt lat="44.74367" lon="5.74811">
        <ele>862</ele>
        <time>2017-08-08T13:38:31Z</time>
      </trkpt>
      <trkpt lat="44.74359" lon="5.74826">
        <ele>863</ele>
        <time>2017-08-08T13:38:48Z</time>
      </trkpt>
      <trkpt lat="44.74354" lon="5.74844">
        <ele>865</ele>
        <time>2017-08-08T13:39:08Z</time>
      </trkpt>
      <trkpt lat="44.74353" lon="5.74863">
        <ele>865</ele>
        <time>2017-08-08T13:39:10Z</time>
      </trkpt>
      <trkpt lat="44.74354" lon="5.74878">
        <ele>866</ele>
        <time>2017-08-08T13:39:28Z</time>
      </trkpt>
      <trkpt lat="44.74363" lon="5.74952">
        <ele>865</ele>
        <time>2017-08-08T13:39:39Z</time>
      </trkpt>
      <trkpt lat="44.74363" lon="5.74965">
        <ele>865</ele>
        <time>2017-08-08T13:39:54Z</time>
      </trkpt>
      <trkpt lat="44.7434" lon="5.75026">
        <ele>865</ele>
        <time>2017-08-08T13:39:56Z</time>
      </trkpt>
      <trkpt lat="44.74331" lon="5.75057">
        <ele>871</ele>
        <time>2017-08-08T13:40:06Z</time>
      </trkpt>
      <trkpt lat="44.74325" lon="5.75108">
        <ele>871</ele>
        <time>2017-08-08T13:40:15Z</time>
      </trkpt>
      <trkpt lat="44.74309" lon="5.75147">
        <ele>870</ele>
        <time>2017-08-08T13:40:22Z</time>
      </trkpt>
      <trkpt lat="44.74298" lon="5.75169">
        <ele>870</ele>
        <time>2017-08-08T13:40:25Z</time>
      </trkpt>
      <trkpt lat="44.74257" lon="5.75236">
        <ele>876</ele>
        <time>2017-08-08T13:40:38Z</time>
      </trkpt>
      <trkpt lat="44.74231" lon="5.75289">
        <ele>884</ele>
        <time>2017-08-08T13:40:54Z</time>
      </trkpt>
      <trkpt lat="44.74211" lon="5.75326">
        <ele>885</ele>
        <time>2017-08-08T13:41:11Z</time>
      </trkpt>
      <trkpt lat="44.74178" lon="5.75389">
        <ele>881</ele>
        <time>2017-08-08T13:41:22Z</time>
      </trkpt>
      <trkpt lat="44.7415" lon="5.7545">
        <ele>893</ele>
        <time>2017-08-08T13:41:36Z</time>
      </trkpt>
      <trkpt lat="44.74134" lon="5.75497">
        <ele>892</ele>
        <time>2017-08-08T13:41:41Z</time>
      </trkpt>
      <trkpt lat="44.74124" lon="5.75518">
        <ele>888</ele>
        <time>2017-08-08T13:41:45Z</time>
      </trkpt>
      <trkpt lat="44.74115" lon="5.75546">
        <ele>887</ele>
        <time>2017-08-08T13:41:57Z</time>
      </trkpt>
      <trkpt lat="44.74103" lon="5.75595">
        <ele>881</ele>
        <time>2017-08-08T13:42:03Z</time>
      </trkpt>
      <trkpt lat="44.74095" lon="5.7561">
        <ele>880</ele>
        <time>2017-08-08T13:42:23Z</time>
      </trkpt>
      <trkpt lat="44.74081" lon="5.75628">
        <ele>892</ele>
        <time>2017-08-08T13:42:25Z</time>
      </trkpt>
      <trkpt lat="44.74059" lon="5.75652">
        <ele>891</ele>
        <time>2017-08-08T13:42:27Z</time>
      </trkpt>
      <trkpt lat="44.74046" lon="5.75669">
        <ele>884</ele>
        <time>2017-08-08T13:42:41Z</time>
      </trkpt>
      <trkpt lat="44.74022" lon="5.75716">
        <ele>885</ele>
        <time>2017-08-08T13:42:45Z</time>
      </trkpt>
      <trkpt lat="44.74013" lon="5.75742">
        <ele>882</ele>
        <time>2017-08-08T13:42:56Z</time>
      </trkpt>
      <trkpt lat="44.74013" lon="5.75756">
        <ele>879</ele>
        <time>2017-08-08T13:43:04Z</time>
      </trkpt>
      <trkpt lat="44.74026" lon="5.75786">
        <ele>877</ele>
        <time>2017-08-08T13:43:08Z</time>
      </trkpt>
      <trkpt lat="44.74068" lon="5.75857">
        <ele>877</ele>
        <time>2017-08-08T13:43:18Z</time>
      </trkpt>
      <trkpt lat="44.7408" lon="5.75879">
        <ele>878</ele>
        <time>2017-08-08T13:43:36Z</time>
      </trkpt>
      <trkpt lat="44.74089" lon="5.75905">
        <ele>879</ele>
        <time>2017-08-08T13:43:47Z</time>
      </trkpt>
      <trkpt lat="44.74097" lon="5.75935">
        <ele>881</ele>
        <time>2017-08-08T13:44:06Z</time>
      </trkpt>
      <trkpt lat="44.74111" lon="5.7598">
        <ele>882</ele>
        <time>2017-08-08T13:44:21Z</time>
      </trkpt>
      <trkpt lat="44.74115" lon="5.76017">
        <ele>885</ele>
        <time>2017-08-08T13:44:30Z</time>
      </trkpt>
      <trkpt lat="44.74113" lon="5.76128">
        <ele>891</ele>
        <time>2017-08-08T13:44:42Z</time>
      </trkpt>
      <trkpt lat="44.74114" lon="5.76179">
        <ele>894</ele>
        <time>2017-08-08T13:44:55Z</time>
      </trkpt>
      <trkpt lat="44.74118" lon="5.76211">
        <ele>895</ele>
        <time>2017-08-08T13:45:09Z</time>
      </trkpt>
      <trkpt lat="44.74129" lon="5.76246">
        <ele>895</ele>
        <time>2017-08-08T13:45:28Z</time>
      </trkpt>
      <trkpt lat="44.74142" lon="5.76272">
        <ele>898</ele>
        <time>2017-08-08T13:45:42Z</time>
      </trkpt>
      <trkpt lat="44.74163" lon="5.76303">
        <ele>898</ele>
        <time>2017-08-08T13:45:56Z</time>
      </trkpt>
      <trkpt lat="44.74171" lon="5.76318">
        <ele>898</ele>
        <time>2017-08-08T13:46:07Z</time>
      </trkpt>
      <trkpt lat="44.74175" lon="5.76336">
        <ele>900</ele>
        <time>2017-08-08T13:46:23Z</time>
      </trkpt>
      <trkpt lat="44.74181" lon="5.76381">
        <ele>901</ele>
        <time>2017-08-08T13:46:37Z</time>
      </trkpt>
      <trkpt lat="44.74181" lon="5.76436">
        <ele>905</ele>
        <time>2017-08-08T13:46:54Z</time>
      </trkpt>
      <trkpt lat="44.74168" lon="5.76502">
        <ele>908</ele>
        <time>2017-08-08T13:47:14Z</time>
      </trkpt>
      <trkpt lat="44.74163" lon="5.76533">
        <ele>909</ele>
        <time>2017-08-08T13:47:30Z</time>
      </trkpt>
      <trkpt lat="44.74163" lon="5.76542">
        <ele>909</ele>
        <time>2017-08-08T13:47:36Z</time>
      </trkpt>
      <trkpt lat="44.74163" lon="5.76548">
        <ele>910</ele>
        <time>2017-08-08T13:47:47Z</time>
      </trkpt>
      <trkpt lat="44.74166" lon="5.76552">
        <ele>910</ele>
        <time>2017-08-08T13:47:58Z</time>
      </trkpt>
      <trkpt lat="44.74195" lon="5.76565">
        <ele>908</ele>
        <time>2017-08-08T13:48:12Z</time>
      </trkpt>
      <trkpt lat="44.7422" lon="5.76576">
        <ele>907</ele>
        <time>2017-08-08T13:48:21Z</time>
      </trkpt>
      <trkpt lat="44.74258" lon="5.76593">
        <ele>907</ele>
        <time>2017-08-08T13:48:27Z</time>
      </trkpt>
      <trkpt lat="44.74291" lon="5.76625">
        <ele>908</ele>
        <time>2017-08-08T13:48:33Z</time>
      </trkpt>
      <trkpt lat="44.74341" lon="5.76677">
        <ele>912</ele>
        <time>2017-08-08T13:48:43Z</time>
      </trkpt>
      <trkpt lat="44.74422" lon="5.76764">
        <ele>915</ele>
        <time>2017-08-08T13:48:46Z</time>
      </trkpt>
      <trkpt lat="44.74454" lon="5.76796">
        <ele>917</ele>
        <time>2017-08-08T13:48:59Z</time>
      </trkpt>
      <trkpt lat="44.7448" lon="5.76816">
        <ele>918</ele>
        <time>2017-08-08T13:49:04Z</time>
      </trkpt>
      <trkpt lat="44.74486" lon="5.76821">
        <ele>919</ele>
        <time>2017-08-08T13:49:11Z</time>
      </trkpt>
      <trkpt lat="44.74499" lon="5.76821">
        <ele>919</ele>
        <time>2017-08-08T13:49:25Z</time>
      </trkpt>
      <trkpt lat="44.74537" lon="5.76814">
        <ele>922</ele>
        <time>2017-08-08T13:49:42Z</time>
      </trkpt>
      <trkpt lat="44.74556" lon="5.76809">
        <ele>923</ele>
        <time>2017-08-08T13:49:55Z</time>
      </trkpt>
      <trkpt lat="44.74575" lon="5.76809">
        <ele>924</ele>
        <time>2017-08-08T13:49:58Z</time>
      </trkpt>
      <trkpt lat="44.7459" lon="5.76806">
        <ele>929</ele>
        <time>2017-08-08T13:50:09Z</time>
      </trkpt>
      <trkpt lat="44.74597" lon="5.76801">
        <ele>929</ele>
        <time>2017-08-08T13:50:14Z</time>
      </trkpt>
      <trkpt lat="44.74622" lon="5.76749">
        <ele>924</ele>
        <time>2017-08-08T13:50:33Z</time>
      </trkpt>
      <trkpt lat="44.74629" lon="5.76741">
        <ele>924</ele>
        <time>2017-08-08T13:50:49Z</time>
      </trkpt>
      <trkpt lat="44.74638" lon="5.76737">
        <ele>924</ele>
        <time>2017-08-08T13:50:58Z</time>
      </trkpt>
      <trkpt lat="44.74657" lon="5.76743">
        <ele>927</ele>
        <time>2017-08-08T13:51:11Z</time>
      </trkpt>
      <trkpt lat="44.74759" lon="5.76799">
        <ele>931</ele>
        <time>2017-08-08T13:51:19Z</time>
      </trkpt>
      <trkpt lat="44.74783" lon="5.76809">
        <ele>932</ele>
        <time>2017-08-08T13:51:25Z</time>
      </trkpt>
      <trkpt lat="44.74802" lon="5.76812">
        <ele>931</ele>
        <time>2017-08-08T13:51:39Z</time>
      </trkpt>
      <trkpt lat="44.74855" lon="5.76808">
        <ele>930</ele>
        <time>2017-08-08T13:51:47Z</time>
      </trkpt>
      <trkpt lat="44.7489" lon="5.76805">
        <ele>931</ele>
        <time>2017-08-08T13:52:01Z</time>
      </trkpt>
      <trkpt lat="44.74904" lon="5.768">
        <ele>931</ele>
        <time>2017-08-08T13:52:13Z</time>
      </trkpt>
      <trkpt lat="44.74993" lon="5.76729">
        <ele>932</ele>
        <time>2017-08-08T13:52:26Z</time>
      </trkpt>
      <trkpt lat="44.75033" lon="5.76685">
        <ele>940</ele>
        <time>2017-08-08T13:52:40Z</time>
      </trkpt>
      <trkpt lat="44.75062" lon="5.76662">
        <ele>941</ele>
        <time>2017-08-08T13:52:54Z</time>
      </trkpt>
      <trkpt lat="44.75074" lon="5.76657">
        <ele>942</ele>
        <time>2017-08-08T13:53:13Z</time>
      </trkpt>
      <trkpt lat="44.75114" lon="5.76634">
        <ele>946</ele>
        <time>2017-08-08T13:53:32Z</time>
      </trkpt>
      <trkpt lat="44.75121" lon="5.76628">
        <ele>946</ele>
        <time>2017-08-08T13:53:52Z</time>
      </trkpt>
      <trkpt lat="44.75131" lon="5.76622">
        <ele>947</ele>
        <time>2017-08-08T13:54:03Z</time>
      </trkpt>
      <trkpt lat="44.75151" lon="5.76609">
        <ele>947</ele>
        <time>2017-08-08T13:54:08Z</time>
      </trkpt>
      <trkpt lat="44.7517" lon="5.76596">
        <ele>950</ele>
        <time>2017-08-08T13:54:13Z</time>
      </trkpt>
      <trkpt lat="44.75178" lon="5.76587">
        <ele>950</ele>
        <time>2017-08-08T13:54:30Z</time>
      </trkpt>
      <trkpt lat="44.75186" lon="5.76569">
        <ele>953</ele>
        <time>2017-08-08T13:54:40Z</time>
      </trkpt>
      <trkpt lat="44.75188" lon="5.76542">
        <ele>955</ele>
        <time>2017-08-08T13:54:50Z</time>
      </trkpt>
      <trkpt lat="44.75183" lon="5.76525">
        <ele>956</ele>
        <time>2017-08-08T13:54:53Z</time>
      </trkpt>
      <trkpt lat="44.75148" lon="5.76454">
        <ele>955</ele>
        <time>2017-08-08T13:54:55Z</time>
      </trkpt>
      <trkpt lat="44.75129" lon="5.76428">
        <ele>954</ele>
        <time>2017-08-08T13:54:59Z</time>
      </trkpt>
      <trkpt lat="44.75115" lon="5.7641">
        <ele>960</ele>
        <time>2017-08-08T13:55:01Z</time>
      </trkpt>
      <trkpt lat="44.7511" lon="5.764">
        <ele>960</ele>
        <time>2017-08-08T13:55:17Z</time>
      </trkpt>
      <trkpt lat="44.75111" lon="5.76383">
        <ele>962</ele>
        <time>2017-08-08T13:55:31Z</time>
      </trkpt>
      <trkpt lat="44.75115" lon="5.76378">
        <ele>963</ele>
        <time>2017-08-08T13:55:43Z</time>
      </trkpt>
      <trkpt lat="44.75122" lon="5.76378">
        <ele>963</ele>
        <time>2017-08-08T13:56:00Z</time>
      </trkpt>
      <trkpt lat="44.75138" lon="5.76399">
        <ele>964</ele>
        <time>2017-08-08T13:56:13Z</time>
      </trkpt>
      <trkpt lat="44.75154" lon="5.76422">
        <ele>961</ele>
        <time>2017-08-08T13:56:18Z</time>
      </trkpt>
      <trkpt lat="44.75217" lon="5.76467">
        <ele>970</ele>
        <time>2017-08-08T13:56:20Z</time>
      </trkpt>
      <trkpt lat="44.75239" lon="5.76469">
        <ele>971</ele>
        <time>2017-08-08T13:56:22Z</time>
      </trkpt>
      <trkpt lat="44.75251" lon="5.76471">
        <ele>982</ele>
        <time>2017-08-08T13:56:32Z</time>
      </trkpt>
      <trkpt lat="44.75261" lon="5.7648">
        <ele>980</ele>
        <time>2017-08-08T13:56:47Z</time>
      </trkpt>
      <trkpt lat="44.75267" lon="5.76488">
        <ele>980</ele>
        <time>2017-08-08T13:56:49Z</time>
      </trkpt>
      <trkpt lat="44.75272" lon="5.76494">
        <ele>980</ele>
        <time>2017-08-08T13:57:02Z</time>
      </trkpt>
      <trkpt lat="44.75289" lon="5.7651">
        <ele>973</ele>
        <time>2017-08-08T13:57:11Z</time>
      </trkpt>
      <trkpt lat="44.75301" lon="5.76517">
        <ele>975</ele>
        <time>2017-08-08T13:57:17Z</time>
      </trkpt>
      <trkpt lat="44.75305" lon="5.76518">
        <ele>975</ele>
        <time>2017-08-08T13:57:25Z</time>
      </trkpt>
      <trkpt lat="44.75344" lon="5.76524">
        <ele>988</ele>
        <time>2017-08-08T13:57:34Z</time>
      </trkpt>
      <trkpt lat="44.75368" lon="5.76529">
        <ele>991</ele>
        <time>2017-08-08T13:57:42Z</time>
      </trkpt>
      <trkpt lat="44.75382" lon="5.76535">
        <ele>993</ele>
        <time>2017-08-08T13:57:46Z</time>
      </trkpt>
      <trkpt lat="44.75401" lon="5.76554">
        <ele>993</ele>
        <time>2017-08-08T13:57:51Z</time>
      </trkpt>
      <trkpt lat="44.75434" lon="5.76591">
        <ele>998</ele>
        <time>2017-08-08T13:57:57Z</time>
      </trkpt>
      <trkpt lat="44.7545" lon="5.76624">
        <ele>999</ele>
        <time>2017-08-08T13:58:05Z</time>
      </trkpt>
      <trkpt lat="44.75453" lon="5.76637">
        <ele>998</ele>
        <time>2017-08-08T13:58:16Z</time>
      </trkpt>
      <trkpt lat="44.75462" lon="5.76654">
        <ele>998</ele>
        <time>2017-08-08T13:58:21Z</time>
      </trkpt>
      <trkpt lat="44.75468" lon="5.76657">
        <ele>998</ele>
        <time>2017-08-08T13:58:33Z</time>
      </trkpt>
      <trkpt lat="44.75488" lon="5.76662">
        <ele>1000</ele>
        <time>2017-08-08T13:58:46Z</time>
      </trkpt>
      <trkpt lat="44.75552" lon="5.76678">
        <ele>1007</ele>
        <time>2017-08-08T13:58:59Z</time>
      </trkpt>
      <trkpt lat="44.75581" lon="5.76686">
        <ele>1011</ele>
        <time>2017-08-08T13:59:19Z</time>
      </trkpt>
      <trkpt lat="44.75598" lon="5.76689">
        <ele>1024</ele>
        <time>2017-08-08T13:59:30Z</time>
      </trkpt>
      <trkpt lat="44.75602" lon="5.76693">
        <ele>1024</ele>
        <time>2017-08-08T13:59:48Z</time>
      </trkpt>
      <trkpt lat="44.75606" lon="5.76704">
        <ele>1025</ele>
        <time>2017-08-08T14:00:08Z</time>
      </trkpt>
      <trkpt lat="44.75606" lon="5.76718">
        <ele>1024</ele>
        <time>2017-08-08T14:00:18Z</time>
      </trkpt>
      <trkpt lat="44.756" lon="5.76727">
        <ele>1022</ele>
        <time>2017-08-08T14:00:29Z</time>
      </trkpt>
      <trkpt lat="44.75593" lon="5.76758">
        <ele>1013</ele>
        <time>2017-08-08T14:00:33Z</time>
      </trkpt>
      <trkpt lat="44.75603" lon="5.76782">
        <ele>1017</ele>
        <time>2017-08-08T14:00:42Z</time>
      </trkpt>
      <trkpt lat="44.75634" lon="5.76826">
        <ele>1020</ele>
        <time>2017-08-08T14:00:59Z</time>
      </trkpt>
      <trkpt lat="44.7566" lon="5.76847">
        <ele>1019</ele>
        <time>2017-08-08T14:01:09Z</time>
      </trkpt>
      <trkpt lat="44.75672" lon="5.76845">
        <ele>1030</ele>
        <time>2017-08-08T14:01:22Z</time>
      </trkpt>
      <trkpt lat="44.75685" lon="5.76838">
        <ele>1032</ele>
        <time>2017-08-08T14:01:39Z</time>
      </trkpt>
      <trkpt lat="44.75692" lon="5.76837">
        <ele>1033</ele>
        <time>2017-08-08T14:01:50Z</time>
      </trkpt>
      <trkpt lat="44.75703" lon="5.76839">
        <ele>1036</ele>
        <time>2017-08-08T14:02:04Z</time>
      </trkpt>
      <trkpt lat="44.75712" lon="5.76843">
        <ele>1038</ele>
        <time>2017-08-08T14:02:20Z</time>
      </trkpt>
      <trkpt lat="44.75716" lon="5.76852">
        <ele>1038</ele>
        <time>2017-08-08T14:02:39Z</time>
      </trkpt>
      <trkpt lat="44.75717" lon="5.76868">
        <ele>1036</ele>
        <time>2017-08-08T14:02:50Z</time>
      </trkpt>
      <trkpt lat="44.75716" lon="5.7689">
        <ele>1034</ele>
        <time>2017-08-08T14:03:10Z</time>
      </trkpt>
      <trkpt lat="44.75715" lon="5.76908">
        <ele>1033</ele>
        <time>2017-08-08T14:03:19Z</time>
      </trkpt>
      <trkpt lat="44.75722" lon="5.76923">
        <ele>1027</ele>
        <time>2017-08-08T14:03:36Z</time>
      </trkpt>
      <trkpt lat="44.75731" lon="5.76951">
        <ele>1026</ele>
        <time>2017-08-08T14:03:43Z</time>
      </trkpt>
      <trkpt lat="44.7574" lon="5.76956">
        <ele>1026</ele>
        <time>2017-08-08T14:03:55Z</time>
      </trkpt>
      <trkpt lat="44.75756" lon="5.76954">
        <ele>1040</ele>
        <time>2017-08-08T14:04:13Z</time>
      </trkpt>
      <trkpt lat="44.75769" lon="5.76945">
        <ele>1042</ele>
        <time>2017-08-08T14:04:17Z</time>
      </trkpt>
      <trkpt lat="44.75775" lon="5.76937">
        <ele>1043</ele>
        <time>2017-08-08T14:04:37Z</time>
      </trkpt>
      <trkpt lat="44.75792" lon="5.76922">
        <ele>1046</ele>
        <time>2017-08-08T14:04:54Z</time>
      </trkpt>
      <trkpt lat="44.75799" lon="5.7692">
        <ele>1047</ele>
        <time>2017-08-08T14:05:07Z</time>
      </trkpt>
      <trkpt lat="44.75811" lon="5.76926">
        <ele>1050</ele>
        <time>2017-08-08T14:05:18Z</time>
      </trkpt>
      <trkpt lat="44.75851" lon="5.77002">
        <ele>1055</ele>
        <time>2017-08-08T14:05:21Z</time>
      </trkpt>
      <trkpt lat="44.75869" lon="5.77036">
        <ele>1062</ele>
        <time>2017-08-08T14:05:24Z</time>
      </trkpt>
      <trkpt lat="44.75875" lon="5.77054">
        <ele>1062</ele>
        <time>2017-08-08T14:05:44Z</time>
      </trkpt>
      <trkpt lat="44.75879" lon="5.7709">
        <ele>1061</ele>
        <time>2017-08-08T14:05:59Z</time>
      </trkpt>
      <trkpt lat="44.75873" lon="5.77117">
        <ele>1061</ele>
        <time>2017-08-08T14:06:19Z</time>
      </trkpt>
      <trkpt lat="44.75854" lon="5.77161">
        <ele>1059</ele>
        <time>2017-08-08T14:06:35Z</time>
      </trkpt>
      <trkpt lat="44.75843" lon="5.77187">
        <ele>1067</ele>
        <time>2017-08-08T14:06:37Z</time>
      </trkpt>
      <trkpt lat="44.75838" lon="5.77192">
        <ele>1068</ele>
        <time>2017-08-08T14:06:53Z</time>
      </trkpt>
      <trkpt lat="44.75816" lon="5.77197">
        <ele>1057</ele>
        <time>2017-08-08T14:07:03Z</time>
      </trkpt>
      <trkpt lat="44.75803" lon="5.77199">
        <ele>1056</ele>
        <time>2017-08-08T14:07:23Z</time>
      </trkpt>
      <trkpt lat="44.75799" lon="5.77204">
        <ele>1056</ele>
        <time>2017-08-08T14:07:36Z</time>
      </trkpt>
      <trkpt lat="44.75796" lon="5.77224">
        <ele>1058</ele>
        <time>2017-08-08T14:07:56Z</time>
      </trkpt>
      <trkpt lat="44.75781" lon="5.77344">
        <ele>1081</ele>
        <time>2017-08-08T14:08:04Z</time>
      </trkpt>
      <trkpt lat="44.75773" lon="5.77401">
        <ele>1085</ele>
        <time>2017-08-08T14:08:22Z</time>
      </trkpt>
      <trkpt lat="44.75769" lon="5.77408">
        <ele>1084</ele>
        <time>2017-08-08T14:08:26Z</time>
      </trkpt>
      <trkpt lat="44.7575" lon="5.77424">
        <ele>1085</ele>
        <time>2017-08-08T14:08:37Z</time>
      </trkpt>
      <trkpt lat="44.75738" lon="5.77434">
        <ele>1081</ele>
        <time>2017-08-08T14:08:49Z</time>
      </trkpt>
      <trkpt lat="44.75732" lon="5.77443">
        <ele>1083</ele>
        <time>2017-08-08T14:09:04Z</time>
      </trkpt>
      <trkpt lat="44.75732" lon="5.7746">
        <ele>1085</ele>
        <time>2017-08-08T14:09:23Z</time>
      </trkpt>
      <trkpt lat="44.75735" lon="5.77466">
        <ele>1086</ele>
        <time>2017-08-08T14:09:25Z</time>
      </trkpt>
      <trkpt lat="44.75739" lon="5.77469">
        <ele>1087</ele>
        <time>2017-08-08T14:09:28Z</time>
      </trkpt>
      <trkpt lat="44.75747" lon="5.77468">
        <ele>1087</ele>
        <time>2017-08-08T14:09:31Z</time>
      </trkpt>
      <trkpt lat="44.75761" lon="5.77453">
        <ele>1100</ele>
        <time>2017-08-08T14:09:33Z</time>
      </trkpt>
      <trkpt lat="44.75792" lon="5.77414">
        <ele>1091</ele>
        <time>2017-08-08T14:09:44Z</time>
      </trkpt>
      <trkpt lat="44.758" lon="5.77381">
        <ele>1089</ele>
        <time>2017-08-08T14:10:04Z</time>
      </trkpt>
      <trkpt lat="44.75802" lon="5.77356">
        <ele>1087</ele>
        <time>2017-08-08T14:10:14Z</time>
      </trkpt>
      <trkpt lat="44.7581" lon="5.77328">
        <ele>1078</ele>
        <time>2017-08-08T14:10:31Z</time>
      </trkpt>
      <trkpt lat="44.75821" lon="5.77299">
        <ele>1076</ele>
        <time>2017-08-08T14:10:49Z</time>
      </trkpt>
      <trkpt lat="44.75829" lon="5.77296">
        <ele>1076</ele>
        <time>2017-08-08T14:11:06Z</time>
      </trkpt>
      <trkpt lat="44.75834" lon="5.77299">
        <ele>1092</ele>
        <time>2017-08-08T14:11:17Z</time>
      </trkpt>
      <trkpt lat="44.75846" lon="5.77322">
        <ele>1094</ele>
        <time>2017-08-08T14:11:27Z</time>
      </trkpt>
      <trkpt lat="44.75857" lon="5.77335">
        <ele>1109</ele>
        <time>2017-08-08T14:11:36Z</time>
      </trkpt>
      <trkpt lat="44.75867" lon="5.77338">
        <ele>1113</ele>
        <time>2017-08-08T14:11:44Z</time>
      </trkpt>
      <trkpt lat="44.75884" lon="5.77337">
        <ele>1117</ele>
        <time>2017-08-08T14:11:52Z</time>
      </trkpt>
      <trkpt lat="44.75898" lon="5.77332">
        <ele>1106</ele>
        <time>2017-08-08T14:12:05Z</time>
      </trkpt>
      <trkpt lat="44.75926" lon="5.77315">
        <ele>1120</ele>
        <time>2017-08-08T14:12:22Z</time>
      </trkpt>
      <trkpt lat="44.75934" lon="5.77305">
        <ele>1120</ele>
        <time>2017-08-08T14:12:30Z</time>
      </trkpt>
      <trkpt lat="44.7594" lon="5.77286">
        <ele>1118</ele>
        <time>2017-08-08T14:12:50Z</time>
      </trkpt>
      <trkpt lat="44.7595" lon="5.77262">
        <ele>1116</ele>
        <time>2017-08-08T14:12:57Z</time>
      </trkpt>
      <trkpt lat="44.75963" lon="5.77246">
        <ele>1106</ele>
        <time>2017-08-08T14:13:13Z</time>
      </trkpt>
      <trkpt lat="44.76002" lon="5.77188">
        <ele>1113</ele>
        <time>2017-08-08T14:13:23Z</time>
      </trkpt>
      <trkpt lat="44.76016" lon="5.77165">
        <ele>1111</ele>
        <time>2017-08-08T14:13:39Z</time>
      </trkpt>
      <trkpt lat="44.76019" lon="5.77161">
        <ele>1111</ele>
        <time>2017-08-08T14:13:59Z</time>
      </trkpt>
      <trkpt lat="44.76025" lon="5.77159">
        <ele>1111</ele>
        <time>2017-08-08T14:14:06Z</time>
      </trkpt>
      <trkpt lat="44.76041" lon="5.77157">
        <ele>1112</ele>
        <time>2017-08-08T14:14:13Z</time>
      </trkpt>
      <trkpt lat="44.76048" lon="5.77169">
        <ele>1112</ele>
        <time>2017-08-08T14:14:27Z</time>
      </trkpt>
      <trkpt lat="44.76052" lon="5.772">
        <ele>1113</ele>
        <time>2017-08-08T14:14:36Z</time>
      </trkpt>
      <trkpt lat="44.76059" lon="5.77227">
        <ele>1115</ele>
        <time>2017-08-08T14:14:45Z</time>
      </trkpt>
      <trkpt lat="44.76068" lon="5.77243">
        <ele>1115</ele>
        <time>2017-08-08T14:14:51Z</time>
      </trkpt>
      <trkpt lat="44.76094" lon="5.77291">
        <ele>1101</ele>
        <time>2017-08-08T14:15:02Z</time>
      </trkpt>
      <trkpt lat="44.76103" lon="5.77315">
        <ele>1103</ele>
        <time>2017-08-08T14:15:11Z</time>
      </trkpt>
      <trkpt lat="44.76102" lon="5.77347">
        <ele>1102</ele>
        <time>2017-08-08T14:15:31Z</time>
      </trkpt>
      <trkpt lat="44.7609" lon="5.77375">
        <ele>1098</ele>
        <time>2017-08-08T14:15:50Z</time>
      </trkpt>
      <trkpt lat="44.76074" lon="5.7742">
        <ele>1115</ele>
        <time>2017-08-08T14:16:04Z</time>
      </trkpt>
      <trkpt lat="44.76069" lon="5.77459">
        <ele>1120</ele>
        <time>2017-08-08T14:16:06Z</time>
      </trkpt>
      <trkpt lat="44.76059" lon="5.77495">
        <ele>1117</ele>
        <time>2017-08-08T14:16:18Z</time>
      </trkpt>
      <trkpt lat="44.76057" lon="5.77512">
        <ele>1118</ele>
        <time>2017-08-08T14:16:26Z</time>
      </trkpt>
      <trkpt lat="44.7606" lon="5.77521">
        <ele>1118</ele>
        <time>2017-08-08T14:16:29Z</time>
      </trkpt>
      <trkpt lat="44.76075" lon="5.77546">
        <ele>1117</ele>
        <time>2017-08-08T14:16:41Z</time>
      </trkpt>
      <trkpt lat="44.76095" lon="5.77573">
        <ele>1091</ele>
        <time>2017-08-08T14:16:59Z</time>
      </trkpt>
      <trkpt lat="44.7612" lon="5.7761">
        <ele>1090</ele>
        <time>2017-08-08T14:17:18Z</time>
      </trkpt>
      <trkpt lat="44.7613" lon="5.77618">
        <ele>1088</ele>
        <time>2017-08-08T14:17:21Z</time>
      </trkpt>
      <trkpt lat="44.7614" lon="5.77621">
        <ele>1086</ele>
        <time>2017-08-08T14:17:24Z</time>
      </trkpt>
      <trkpt lat="44.76144" lon="5.77631">
        <ele>1086</ele>
        <time>2017-08-08T14:17:44Z</time>
      </trkpt>
      <trkpt lat="44.76144" lon="5.77639">
        <ele>1086</ele>
        <time>2017-08-08T14:17:53Z</time>
      </trkpt>
      <trkpt lat="44.7613" lon="5.77682">
        <ele>1101</ele>
        <time>2017-08-08T14:18:02Z</time>
      </trkpt>
      <trkpt lat="44.76124" lon="5.77714">
        <ele>1106</ele>
        <time>2017-08-08T14:18:10Z</time>
      </trkpt>
      <trkpt lat="44.76124" lon="5.77737">
        <ele>1108</ele>
        <time>2017-08-08T14:18:25Z</time>
      </trkpt>
      <trkpt lat="44.7613" lon="5.77749">
        <ele>1107</ele>
        <time>2017-08-08T14:18:28Z</time>
      </trkpt>
      <trkpt lat="44.76133" lon="5.77751">
        <ele>1119</ele>
        <time>2017-08-08T14:18:37Z</time>
      </trkpt>
      <trkpt lat="44.7615" lon="5.77752">
        <ele>1109</ele>
        <time>2017-08-08T14:18:57Z</time>
      </trkpt>
      <trkpt lat="44.76172" lon="5.77746">
        <ele>1088</ele>
        <time>2017-08-08T14:19:09Z</time>
      </trkpt>
      <trkpt lat="44.76186" lon="5.77734">
        <ele>1084</ele>
        <time>2017-08-08T14:19:19Z</time>
      </trkpt>
      <trkpt lat="44.76198" lon="5.77732">
        <ele>1083</ele>
        <time>2017-08-08T14:19:28Z</time>
      </trkpt>
      <trkpt lat="44.76208" lon="5.77742">
        <ele>1084</ele>
        <time>2017-08-08T14:19:42Z</time>
      </trkpt>
      <trkpt lat="44.76219" lon="5.77752">
        <ele>1103</ele>
        <time>2017-08-08T14:19:46Z</time>
      </trkpt>
      <trkpt lat="44.76231" lon="5.77748">
        <ele>1086</ele>
        <time>2017-08-08T14:19:50Z</time>
      </trkpt>
      <trkpt lat="44.7625" lon="5.77715">
        <ele>1083</ele>
        <time>2017-08-08T14:19:52Z</time>
      </trkpt>
      <trkpt lat="44.76259" lon="5.77702">
        <ele>1080</ele>
        <time>2017-08-08T14:20:07Z</time>
      </trkpt>
      <trkpt lat="44.76264" lon="5.777">
        <ele>1079</ele>
        <time>2017-08-08T14:20:13Z</time>
      </trkpt>
      <trkpt lat="44.76271" lon="5.77704">
        <ele>1081</ele>
        <time>2017-08-08T14:20:16Z</time>
      </trkpt>
      <trkpt lat="44.76282" lon="5.7772">
        <ele>1085</ele>
        <time>2017-08-08T14:20:24Z</time>
      </trkpt>
      <trkpt lat="44.76286" lon="5.77723">
        <ele>1085</ele>
        <time>2017-08-08T14:20:37Z</time>
      </trkpt>
      <trkpt lat="44.76291" lon="5.77723">
        <ele>1086</ele>
        <time>2017-08-08T14:20:40Z</time>
      </trkpt>
      <trkpt lat="44.76296" lon="5.7772">
        <ele>1085</ele>
        <time>2017-08-08T14:20:57Z</time>
      </trkpt>
      <trkpt lat="44.76299" lon="5.77713">
        <ele>1085</ele>
        <time>2017-08-08T14:21:02Z</time>
      </trkpt>
      <trkpt lat="44.76305" lon="5.77684">
        <ele>1081</ele>
        <time>2017-08-08T14:21:22Z</time>
      </trkpt>
      <trkpt lat="44.76306" lon="5.77663">
        <ele>1064</ele>
        <time>2017-08-08T14:21:40Z</time>
      </trkpt>
      <trkpt lat="44.76311" lon="5.77654">
        <ele>1064</ele>
        <time>2017-08-08T14:21:48Z</time>
      </trkpt>
      <trkpt lat="44.76317" lon="5.77645">
        <ele>1063</ele>
        <time>2017-08-08T14:22:02Z</time>
      </trkpt>
      <trkpt lat="44.76335" lon="5.77629">
        <ele>1065</ele>
        <time>2017-08-08T14:22:06Z</time>
      </trkpt>
      <trkpt lat="44.76362" lon="5.7761">
        <ele>1062</ele>
        <time>2017-08-08T14:22:09Z</time>
      </trkpt>
      <trkpt lat="44.76369" lon="5.77609">
        <ele>1062</ele>
        <time>2017-08-08T14:22:24Z</time>
      </trkpt>
      <trkpt lat="44.76378" lon="5.7761">
        <ele>1063</ele>
        <time>2017-08-08T14:22:44Z</time>
      </trkpt>
      <trkpt lat="44.76393" lon="5.77606">
        <ele>1062</ele>
        <time>2017-08-08T14:22:55Z</time>
      </trkpt>
      <trkpt lat="44.76433" lon="5.77584">
        <ele>1057</ele>
        <time>2017-08-08T14:23:01Z</time>
      </trkpt>
      <trkpt lat="44.76467" lon="5.77561">
        <ele>1045</ele>
        <time>2017-08-08T14:23:19Z</time>
      </trkpt>
      <trkpt lat="44.76487" lon="5.7755">
        <ele>1044</ele>
        <time>2017-08-08T14:23:29Z</time>
      </trkpt>
      <trkpt lat="44.76504" lon="5.77548">
        <ele>1040</ele>
        <time>2017-08-08T14:23:38Z</time>
      </trkpt>
      <trkpt lat="44.76513" lon="5.77544">
        <ele>1039</ele>
        <time>2017-08-08T14:23:55Z</time>
      </trkpt>
      <trkpt lat="44.76536" lon="5.77522">
        <ele>1037</ele>
        <time>2017-08-08T14:23:59Z</time>
      </trkpt>
      <trkpt lat="44.7657" lon="5.77503">
        <ele>1036</ele>
        <time>2017-08-08T14:24:08Z</time>
      </trkpt>
      <trkpt lat="44.76583" lon="5.77491">
        <ele>1032</ele>
        <time>2017-08-08T14:24:21Z</time>
      </trkpt>
      <trkpt lat="44.76614" lon="5.77452">
        <ele>1027</ele>
        <time>2017-08-08T14:24:23Z</time>
      </trkpt>
      <trkpt lat="44.76631" lon="5.77439">
        <ele>1026</ele>
        <time>2017-08-08T14:24:32Z</time>
      </trkpt>
      <trkpt lat="44.76646" lon="5.77435">
        <ele>1026</ele>
        <time>2017-08-08T14:24:51Z</time>
      </trkpt>
      <trkpt lat="44.76696" lon="5.77445">
        <ele>1023</ele>
        <time>2017-08-08T14:25:03Z</time>
      </trkpt>
      <trkpt lat="44.76711" lon="5.77446">
        <ele>1022</ele>
        <time>2017-08-08T14:25:08Z</time>
      </trkpt>
      <trkpt lat="44.76718" lon="5.77443">
        <ele>1022</ele>
        <time>2017-08-08T14:25:20Z</time>
      </trkpt>
      <trkpt lat="44.76737" lon="5.77427">
        <ele>1023</ele>
        <time>2017-08-08T14:25:39Z</time>
      </trkpt>
      <trkpt lat="44.76756" lon="5.77416">
        <ele>1024</ele>
        <time>2017-08-08T14:25:43Z</time>
      </trkpt>
      <trkpt lat="44.76767" lon="5.77416">
        <ele>1024</ele>
        <time>2017-08-08T14:25:58Z</time>
      </trkpt>
      <trkpt lat="44.76779" lon="5.77421">
        <ele>1022</ele>
        <time>2017-08-08T14:26:14Z</time>
      </trkpt>
      <trkpt lat="44.76801" lon="5.7745">
        <ele>1021</ele>
        <time>2017-08-08T14:26:18Z</time>
      </trkpt>
      <trkpt lat="44.76834" lon="5.77493">
        <ele>1017</ele>
        <time>2017-08-08T14:26:36Z</time>
      </trkpt>
      <trkpt lat="44.76904" lon="5.77586">
        <ele>1004</ele>
        <time>2017-08-08T14:26:47Z</time>
      </trkpt>
      <trkpt lat="44.76932" lon="5.77621">
        <ele>1005</ele>
        <time>2017-08-08T14:26:51Z</time>
      </trkpt>
      <trkpt lat="44.76961" lon="5.77642">
        <ele>1005</ele>
        <time>2017-08-08T14:27:11Z</time>
      </trkpt>
      <trkpt lat="44.76965" lon="5.77654">
        <ele>1004</ele>
        <time>2017-08-08T14:27:28Z</time>
      </trkpt>
      <trkpt lat="44.76963" lon="5.77666">
        <ele>1004</ele>
        <time>2017-08-08T14:27:34Z</time>
      </trkpt>
      <trkpt lat="44.76955" lon="5.77673">
        <ele>995</ele>
        <time>2017-08-08T14:27:42Z</time>
      </trkpt>
      <trkpt lat="44.76948" lon="5.77674">
        <ele>995</ele>
        <time>2017-08-08T14:27:51Z</time>
      </trkpt>
      <trkpt lat="44.76936" lon="5.77669">
        <ele>995</ele>
        <time>2017-08-08T14:27:57Z</time>
      </trkpt>
      <trkpt lat="44.76896" lon="5.77643">
        <ele>998</ele>
        <time>2017-08-08T14:28:11Z</time>
      </trkpt>
      <trkpt lat="44.76868" lon="5.7763">
        <ele>996</ele>
        <time>2017-08-08T14:28:18Z</time>
      </trkpt>
      <trkpt lat="44.76838" lon="5.77621">
        <ele>995</ele>
        <time>2017-08-08T14:28:38Z</time>
      </trkpt>
      <trkpt lat="44.76809" lon="5.7763">
        <ele>991</ele>
        <time>2017-08-08T14:28:51Z</time>
      </trkpt>
      <trkpt lat="44.76766" lon="5.7764">
        <ele>990</ele>
        <time>2017-08-08T14:28:59Z</time>
      </trkpt>
      <trkpt lat="44.76743" lon="5.77648">
        <ele>991</ele>
        <time>2017-08-08T14:29:05Z</time>
      </trkpt>
      <trkpt lat="44.76715" lon="5.77676">
        <ele>988</ele>
        <time>2017-08-08T14:29:15Z</time>
      </trkpt>
      <trkpt lat="44.76692" lon="5.77719">
        <ele>989</ele>
        <time>2017-08-08T14:29:32Z</time>
      </trkpt>
      <trkpt lat="44.76684" lon="5.77756">
        <ele>987</ele>
        <time>2017-08-08T14:29:46Z</time>
      </trkpt>
      <trkpt lat="44.76688" lon="5.77818">
        <ele>984</ele>
        <time>2017-08-08T14:30:02Z</time>
      </trkpt>
      <trkpt lat="44.76692" lon="5.77878">
        <ele>976</ele>
        <time>2017-08-08T14:30:09Z</time>
      </trkpt>
      <trkpt lat="44.76692" lon="5.77901">
        <ele>975</ele>
        <time>2017-08-08T14:30:20Z</time>
      </trkpt>
      <trkpt lat="44.76667" lon="5.77946">
        <ele>968</ele>
        <time>2017-08-08T14:30:37Z</time>
      </trkpt>
      <trkpt lat="44.76648" lon="5.77991">
        <ele>967</ele>
        <time>2017-08-08T14:30:56Z</time>
      </trkpt>
      <trkpt lat="44.76642" lon="5.78011">
        <ele>964</ele>
        <time>2017-08-08T14:31:12Z</time>
      </trkpt>
      <trkpt lat="44.76642" lon="5.78026">
        <ele>964</ele>
        <time>2017-08-08T14:31:14Z</time>
      </trkpt>
      <trkpt lat="44.76647" lon="5.78041">
        <ele>964</ele>
        <time>2017-08-08T14:31:34Z</time>
      </trkpt>
      <trkpt lat="44.76684" lon="5.78089">
        <ele>956</ele>
        <time>2017-08-08T14:31:37Z</time>
      </trkpt>
      <trkpt lat="44.76708" lon="5.78112">
        <ele>954</ele>
        <time>2017-08-08T14:31:53Z</time>
      </trkpt>
      <trkpt lat="44.76743" lon="5.78133">
        <ele>952</ele>
        <time>2017-08-08T14:32:00Z</time>
      </trkpt>
      <trkpt lat="44.76802" lon="5.78166">
        <ele>946</ele>
        <time>2017-08-08T14:32:05Z</time>
      </trkpt>
      <trkpt lat="44.76825" lon="5.78176">
        <ele>946</ele>
        <time>2017-08-08T14:32:23Z</time>
      </trkpt>
      <trkpt lat="44.76856" lon="5.78176">
        <ele>945</ele>
        <time>2017-08-08T14:32:30Z</time>
      </trkpt>
      <trkpt lat="44.76899" lon="5.78173">
        <ele>943</ele>
        <time>2017-08-08T14:32:40Z</time>
      </trkpt>
      <trkpt lat="44.76923" lon="5.78171">
        <ele>940</ele>
        <time>2017-08-08T14:32:52Z</time>
      </trkpt>
      <trkpt lat="44.76951" lon="5.78172">
        <ele>939</ele>
        <time>2017-08-08T14:33:06Z</time>
      </trkpt>
      <trkpt lat="44.77036" lon="5.78184">
        <ele>931</ele>
        <time>2017-08-08T14:33:17Z</time>
      </trkpt>
      <trkpt lat="44.77085" lon="5.78184">
        <ele>925</ele>
        <time>2017-08-08T14:33:36Z</time>
      </trkpt>
      <trkpt lat="44.77159" lon="5.78187">
        <ele>921</ele>
        <time>2017-08-08T14:33:39Z</time>
      </trkpt>
      <trkpt lat="44.77218" lon="5.78191">
        <ele>914</ele>
        <time>2017-08-08T14:33:55Z</time>
      </trkpt>
      <trkpt lat="44.77264" lon="5.78179">
        <ele>909</ele>
        <time>2017-08-08T14:34:04Z</time>
      </trkpt>
      <trkpt lat="44.77279" lon="5.78175">
        <ele>908</ele>
        <time>2017-08-08T14:34:19Z</time>
      </trkpt>
      <trkpt lat="44.77294" lon="5.78174">
        <ele>908</ele>
        <time>2017-08-08T14:34:25Z</time>
      </trkpt>
      <trkpt lat="44.7733" lon="5.78179">
        <ele>907</ele>
        <time>2017-08-08T14:34:29Z</time>
      </trkpt>
      <trkpt lat="44.7736" lon="5.78178">
        <ele>905</ele>
        <time>2017-08-08T14:34:44Z</time>
      </trkpt>
      <trkpt lat="44.7739" lon="5.78174">
        <ele>903</ele>
        <time>2017-08-08T14:34:58Z</time>
      </trkpt>
      <trkpt lat="44.77414" lon="5.78172">
        <ele>902</ele>
        <time>2017-08-08T14:35:17Z</time>
      </trkpt>
      <trkpt lat="44.77426" lon="5.78179">
        <ele>901</ele>
        <time>2017-08-08T14:35:33Z</time>
      </trkpt>
      <trkpt lat="44.77475" lon="5.78209">
        <ele>901</ele>
        <time>2017-08-08T14:35:36Z</time>
      </trkpt>
      <trkpt lat="44.77497" lon="5.78215">
        <ele>901</ele>
        <time>2017-08-08T14:35:52Z</time>
      </trkpt>
      <trkpt lat="44.77524" lon="5.78216">
        <ele>898</ele>
        <time>2017-08-08T14:36:01Z</time>
      </trkpt>
      <trkpt lat="44.77556" lon="5.78211">
        <ele>897</ele>
        <time>2017-08-08T14:36:13Z</time>
      </trkpt>
      <trkpt lat="44.7758" lon="5.78205">
        <ele>896</ele>
        <time>2017-08-08T14:36:23Z</time>
      </trkpt>
      <trkpt lat="44.77614" lon="5.78191">
        <ele>893</ele>
        <time>2017-08-08T14:36:36Z</time>
      </trkpt>
      <trkpt lat="44.77649" lon="5.78172">
        <ele>892</ele>
        <time>2017-08-08T14:36:41Z</time>
      </trkpt>
      <trkpt lat="44.77662" lon="5.78172">
        <ele>891</ele>
        <time>2017-08-08T14:36:43Z</time>
      </trkpt>
      <trkpt lat="44.7766" lon="5.78168">
        <ele>891</ele>
        <time>2017-08-08T14:36:52Z</time>
      </trkpt>
      <trkpt lat="44.77654" lon="5.78161">
        <ele>891</ele>
        <time>2017-08-08T14:36:55Z</time>
      </trkpt>
      <trkpt lat="44.7766" lon="5.78168">
        <ele>891</ele>
        <time>2017-08-08T14:37:03Z</time>
      </trkpt>
      <trkpt lat="44.77662" lon="5.78172">
        <ele>891</ele>
        <time>2017-08-08T14:37:19Z</time>
      </trkpt>
      <trkpt lat="44.77669" lon="5.78173">
        <ele>890</ele>
        <time>2017-08-08T14:37:25Z</time>
      </trkpt>
      <trkpt lat="44.77706" lon="5.78196">
        <ele>891</ele>
        <time>2017-08-08T14:37:45Z</time>
      </trkpt>
      <trkpt lat="44.77721" lon="5.78198">
        <ele>891</ele>
        <time>2017-08-08T14:38:00Z</time>
      </trkpt>
      <trkpt lat="44.77751" lon="5.78193">
        <ele>890</ele>
        <time>2017-08-08T14:38:06Z</time>
      </trkpt>
      <trkpt lat="44.77795" lon="5.78181">
        <ele>890</ele>
        <time>2017-08-08T14:38:21Z</time>
      </trkpt>
      <trkpt lat="44.77834" lon="5.78167">
        <ele>889</ele>
        <time>2017-08-08T14:38:41Z</time>
      </trkpt>
      <trkpt lat="44.77891" lon="5.78134">
        <ele>888</ele>
        <time>2017-08-08T14:38:55Z</time>
      </trkpt>
      <trkpt lat="44.77943" lon="5.78102">
        <ele>887</ele>
        <time>2017-08-08T14:39:00Z</time>
      </trkpt>
      <trkpt lat="44.77962" lon="5.78077">
        <ele>884</ele>
        <time>2017-08-08T14:39:05Z</time>
      </trkpt>
      <trkpt lat="44.77972" lon="5.78062">
        <ele>884</ele>
        <time>2017-08-08T14:39:15Z</time>
      </trkpt>
      <trkpt lat="44.77981" lon="5.78052">
        <ele>884</ele>
        <time>2017-08-08T14:39:22Z</time>
      </trkpt>
      <trkpt lat="44.77992" lon="5.78044">
        <ele>883</ele>
        <time>2017-08-08T14:39:29Z</time>
      </trkpt>
      <trkpt lat="44.78031" lon="5.78026">
        <ele>884</ele>
        <time>2017-08-08T14:39:44Z</time>
      </trkpt>
      <trkpt lat="44.78071" lon="5.78009">
        <ele>884</ele>
        <time>2017-08-08T14:39:59Z</time>
      </trkpt>
      <trkpt lat="44.78079" lon="5.78002">
        <ele>885</ele>
        <time>2017-08-08T14:40:03Z</time>
      </trkpt>
      <trkpt lat="44.78083" lon="5.77994">
        <ele>885</ele>
        <time>2017-08-08T14:40:07Z</time>
      </trkpt>
      <trkpt lat="44.78086" lon="5.77983">
        <ele>892</ele>
        <time>2017-08-08T14:40:26Z</time>
      </trkpt>
      <trkpt lat="44.78086" lon="5.77966">
        <ele>894</ele>
        <time>2017-08-08T14:40:41Z</time>
      </trkpt>
      <trkpt lat="44.78081" lon="5.7785">
        <ele>882</ele>
        <time>2017-08-08T14:40:47Z</time>
      </trkpt>
      <trkpt lat="44.78076" lon="5.77743">
        <ele>875</ele>
        <time>2017-08-08T14:40:58Z</time>
      </trkpt>
      <trkpt lat="44.78077" lon="5.7769">
        <ele>871</ele>
        <time>2017-08-08T14:41:09Z</time>
      </trkpt>
      <trkpt lat="44.78079" lon="5.77659">
        <ele>870</ele>
        <time>2017-08-08T14:41:15Z</time>
      </trkpt>
      <trkpt lat="44.78079" lon="5.77602">
        <ele>867</ele>
        <time>2017-08-08T14:41:33Z</time>
      </trkpt>
      <trkpt lat="44.78072" lon="5.77455">
        <ele>862</ele>
        <time>2017-08-08T14:41:45Z</time>
      </trkpt>
      <trkpt lat="44.78073" lon="5.7743">
        <ele>862</ele>
        <time>2017-08-08T14:41:53Z</time>
      </trkpt>
      <trkpt lat="44.78077" lon="5.77396">
        <ele>860</ele>
        <time>2017-08-08T14:42:01Z</time>
      </trkpt>
      <trkpt lat="44.78085" lon="5.77361">
        <ele>861</ele>
        <time>2017-08-08T14:42:17Z</time>
      </trkpt>
      <trkpt lat="44.78101" lon="5.77327">
        <ele>858</ele>
        <time>2017-08-08T14:42:28Z</time>
      </trkpt>
      <trkpt lat="44.78138" lon="5.77274">
        <ele>858</ele>
        <time>2017-08-08T14:42:33Z</time>
      </trkpt>
      <trkpt lat="44.78149" lon="5.77252">
        <ele>858</ele>
        <time>2017-08-08T14:42:45Z</time>
      </trkpt>
      <trkpt lat="44.78181" lon="5.77168">
        <ele>855</ele>
        <time>2017-08-08T14:43:04Z</time>
      </trkpt>
      <trkpt lat="44.782" lon="5.77139">
        <ele>851</ele>
        <time>2017-08-08T14:43:08Z</time>
      </trkpt>
      <trkpt lat="44.78223" lon="5.77119">
        <ele>851</ele>
        <time>2017-08-08T14:43:25Z</time>
      </trkpt>
      <trkpt lat="44.78234" lon="5.77105">
        <ele>850</ele>
        <time>2017-08-08T14:43:29Z</time>
      </trkpt>
      <trkpt lat="44.78249" lon="5.77068">
        <ele>848</ele>
        <time>2017-08-08T14:43:36Z</time>
      </trkpt>
      <trkpt lat="44.78257" lon="5.77047">
        <ele>849</ele>
        <time>2017-08-08T14:43:56Z</time>
      </trkpt>
      <trkpt lat="44.78271" lon="5.77022">
        <ele>848</ele>
        <time>2017-08-08T14:44:03Z</time>
      </trkpt>
      <trkpt lat="44.7832" lon="5.76957">
        <ele>847</ele>
        <time>2017-08-08T14:44:08Z</time>
      </trkpt>
      <trkpt lat="44.78336" lon="5.76945">
        <ele>850</ele>
        <time>2017-08-08T14:44:12Z</time>
      </trkpt>
      <trkpt lat="44.78347" lon="5.76939">
        <ele>850</ele>
        <time>2017-08-08T14:44:20Z</time>
      </trkpt>
      <trkpt lat="44.78369" lon="5.76931">
        <ele>850</ele>
        <time>2017-08-08T14:44:26Z</time>
      </trkpt>
      <trkpt lat="44.78391" lon="5.76919">
        <ele>851</ele>
        <time>2017-08-08T14:44:45Z</time>
      </trkpt>
      <trkpt lat="44.78416" lon="5.76901">
        <ele>849</ele>
        <time>2017-08-08T14:44:58Z</time>
      </trkpt>
      <trkpt lat="44.78441" lon="5.76874">
        <ele>850</ele>
        <time>2017-08-08T14:45:16Z</time>
      </trkpt>
      <trkpt lat="44.78463" lon="5.76847">
        <ele>850</ele>
        <time>2017-08-08T14:45:20Z</time>
      </trkpt>
      <trkpt lat="44.7847" lon="5.76839">
        <ele>850</ele>
        <time>2017-08-08T14:45:39Z</time>
      </trkpt>
      <trkpt lat="44.78487" lon="5.76825">
        <ele>848</ele>
        <time>2017-08-08T14:45:56Z</time>
      </trkpt>
      <trkpt lat="44.78512" lon="5.7681">
        <ele>848</ele>
        <time>2017-08-08T14:46:08Z</time>
      </trkpt>
      <trkpt lat="44.78569" lon="5.76776">
        <ele>847</ele>
        <time>2017-08-08T14:46:20Z</time>
      </trkpt>
      <trkpt lat="44.78612" lon="5.76755">
        <ele>846</ele>
        <time>2017-08-08T14:46:39Z</time>
      </trkpt>
      <trkpt lat="44.78691" lon="5.76732">
        <ele>844</ele>
        <time>2017-08-08T14:46:49Z</time>
      </trkpt>
      <trkpt lat="44.78723" lon="5.76723">
        <ele>844</ele>
        <time>2017-08-08T14:46:59Z</time>
      </trkpt>
      <trkpt lat="44.78777" lon="5.76701">
        <ele>846</ele>
        <time>2017-08-08T14:47:08Z</time>
      </trkpt>
      <trkpt lat="44.78801" lon="5.76687">
        <ele>847</ele>
        <time>2017-08-08T14:47:22Z</time>
      </trkpt>
      <trkpt lat="44.78813" lon="5.76672">
        <ele>847</ele>
        <time>2017-08-08T14:47:29Z</time>
      </trkpt>
      <trkpt lat="44.78825" lon="5.76647">
        <ele>845</ele>
        <time>2017-08-08T14:47:47Z</time>
      </trkpt>
      <trkpt lat="44.78843" lon="5.76583">
        <ele>844</ele>
        <time>2017-08-08T14:47:53Z</time>
      </trkpt>
      <trkpt lat="44.78873" lon="5.76513">
        <ele>844</ele>
        <time>2017-08-08T14:48:11Z</time>
      </trkpt>
      <trkpt lat="44.7889" lon="5.76485">
        <ele>839</ele>
        <time>2017-08-08T14:48:29Z</time>
      </trkpt>
      <trkpt lat="44.78905" lon="5.76466">
        <ele>838</ele>
        <time>2017-08-08T14:48:48Z</time>
      </trkpt>
      <trkpt lat="44.78934" lon="5.76434">
        <ele>841</ele>
        <time>2017-08-08T14:48:57Z</time>
      </trkpt>
      <trkpt lat="44.78947" lon="5.76416">
        <ele>837</ele>
        <time>2017-08-08T14:49:00Z</time>
      </trkpt>
      <trkpt lat="44.79007" lon="5.76313">
        <ele>836</ele>
        <time>2017-08-08T14:49:10Z</time>
      </trkpt>
      <trkpt lat="44.79035" lon="5.76266">
        <ele>835</ele>
        <time>2017-08-08T14:49:18Z</time>
      </trkpt>
      <trkpt lat="44.79059" lon="5.76232">
        <ele>830</ele>
        <time>2017-08-08T14:49:34Z</time>
      </trkpt>
      <trkpt lat="44.79092" lon="5.76193">
        <ele>833</ele>
        <time>2017-08-08T14:49:50Z</time>
      </trkpt>
      <trkpt lat="44.79146" lon="5.76142">
        <ele>828</ele>
        <time>2017-08-08T14:50:01Z</time>
      </trkpt>
      <trkpt lat="44.79177" lon="5.76108">
        <ele>832</ele>
        <time>2017-08-08T14:50:17Z</time>
      </trkpt>
      <trkpt lat="44.79202" lon="5.76071">
        <ele>826</ele>
        <time>2017-08-08T14:50:24Z</time>
      </trkpt>
      <trkpt lat="44.79228" lon="5.76026">
        <ele>826</ele>
        <time>2017-08-08T14:50:30Z</time>
      </trkpt>
      <trkpt lat="44.79245" lon="5.75997">
        <ele>823</ele>
        <time>2017-08-08T14:50:49Z</time>
      </trkpt>
      <trkpt lat="44.79262" lon="5.75981">
        <ele>826</ele>
        <time>2017-08-08T14:51:00Z</time>
      </trkpt>
      <trkpt lat="44.79273" lon="5.75975">
        <ele>827</ele>
        <time>2017-08-08T14:51:14Z</time>
      </trkpt>
      <trkpt lat="44.79285" lon="5.75966">
        <ele>827</ele>
        <time>2017-08-08T14:51:22Z</time>
      </trkpt>
      <trkpt lat="44.79288" lon="5.75952">
        <ele>826</ele>
        <time>2017-08-08T14:51:26Z</time>
      </trkpt>
      <trkpt lat="44.79303" lon="5.75944">
        <ele>827</ele>
        <time>2017-08-08T14:51:38Z</time>
      </trkpt>
      <trkpt lat="44.79339" lon="5.75918">
        <ele>830</ele>
        <time>2017-08-08T14:51:51Z</time>
      </trkpt>
      <trkpt lat="44.79377" lon="5.75885">
        <ele>826</ele>
        <time>2017-08-08T14:51:54Z</time>
      </trkpt>
      <trkpt lat="44.79406" lon="5.75855">
        <ele>824</ele>
        <time>2017-08-08T14:51:58Z</time>
      </trkpt>
      <trkpt lat="44.79439" lon="5.75809">
        <ele>824</ele>
        <time>2017-08-08T14:52:08Z</time>
      </trkpt>
      <trkpt lat="44.79472" lon="5.75762">
        <ele>825</ele>
        <time>2017-08-08T14:52:24Z</time>
      </trkpt>
      <trkpt lat="44.79513" lon="5.75715">
        <ele>820</ele>
        <time>2017-08-08T14:52:30Z</time>
      </trkpt>
      <trkpt lat="44.79545" lon="5.75686">
        <ele>818</ele>
        <time>2017-08-08T14:52:33Z</time>
      </trkpt>
      <trkpt lat="44.79562" lon="5.75675">
        <ele>819</ele>
        <time>2017-08-08T14:52:43Z</time>
      </trkpt>
      <trkpt lat="44.7958" lon="5.75667">
        <ele>818</ele>
        <time>2017-08-08T14:52:49Z</time>
      </trkpt>
      <trkpt lat="44.79599" lon="5.75659">
        <ele>815</ele>
        <time>2017-08-08T14:52:55Z</time>
      </trkpt>
      <trkpt lat="44.79612" lon="5.75651">
        <ele>814</ele>
        <time>2017-08-08T14:53:01Z</time>
      </trkpt>
      <trkpt lat="44.79625" lon="5.75639">
        <ele>813</ele>
        <time>2017-08-08T14:53:06Z</time>
      </trkpt>
      <trkpt lat="44.79639" lon="5.75621">
        <ele>813</ele>
        <time>2017-08-08T14:53:11Z</time>
      </trkpt>
      <trkpt lat="44.79667" lon="5.75584">
        <ele>813</ele>
        <time>2017-08-08T14:53:25Z</time>
      </trkpt>
      <trkpt lat="44.79683" lon="5.7557">
        <ele>808</ele>
        <time>2017-08-08T14:53:40Z</time>
      </trkpt>
      <trkpt lat="44.79701" lon="5.75558">
        <ele>806</ele>
        <time>2017-08-08T14:53:59Z</time>
      </trkpt>
      <trkpt lat="44.79747" lon="5.75524">
        <ele>805</ele>
        <time>2017-08-08T14:54:19Z</time>
      </trkpt>
      <trkpt lat="44.79764" lon="5.7551">
        <ele>805</ele>
        <time>2017-08-08T14:54:32Z</time>
      </trkpt>
      <trkpt lat="44.79781" lon="5.75501">
        <ele>806</ele>
        <time>2017-08-08T14:54:52Z</time>
      </trkpt>
      <trkpt lat="44.79799" lon="5.75495">
        <ele>807</ele>
        <time>2017-08-08T14:54:56Z</time>
      </trkpt>
      <trkpt lat="44.79818" lon="5.75493">
        <ele>807</ele>
        <time>2017-08-08T14:55:15Z</time>
      </trkpt>
      <trkpt lat="44.7987" lon="5.75485">
        <ele>812</ele>
        <time>2017-08-08T14:55:30Z</time>
      </trkpt>
      <trkpt lat="44.79952" lon="5.75474">
        <ele>809</ele>
        <time>2017-08-08T14:55:34Z</time>
      </trkpt>
      <trkpt lat="44.79977" lon="5.7547">
        <ele>808</ele>
        <time>2017-08-08T14:55:40Z</time>
      </trkpt>
      <trkpt lat="44.80006" lon="5.75461">
        <ele>803</ele>
        <time>2017-08-08T14:55:44Z</time>
      </trkpt>
      <trkpt lat="44.80029" lon="5.75455">
        <ele>802</ele>
        <time>2017-08-08T14:55:56Z</time>
      </trkpt>
      <trkpt lat="44.80051" lon="5.75454">
        <ele>802</ele>
        <time>2017-08-08T14:56:08Z</time>
      </trkpt>
      <trkpt lat="44.80091" lon="5.75461">
        <ele>798</ele>
        <time>2017-08-08T14:56:26Z</time>
      </trkpt>
      <trkpt lat="44.8011" lon="5.75463">
        <ele>797</ele>
        <time>2017-08-08T14:56:33Z</time>
      </trkpt>
      <trkpt lat="44.80132" lon="5.75461">
        <ele>797</ele>
        <time>2017-08-08T14:56:53Z</time>
      </trkpt>
      <trkpt lat="44.80152" lon="5.75458">
        <ele>796</ele>
        <time>2017-08-08T14:56:58Z</time>
      </trkpt>
      <trkpt lat="44.80171" lon="5.75452">
        <ele>794</ele>
        <time>2017-08-08T14:57:07Z</time>
      </trkpt>
      <trkpt lat="44.80182" lon="5.75448">
        <ele>794</ele>
        <time>2017-08-08T14:57:14Z</time>
      </trkpt>
      <trkpt lat="44.80201" lon="5.75438">
        <ele>795</ele>
        <time>2017-08-08T14:57:17Z</time>
      </trkpt>
      <trkpt lat="44.80244" lon="5.75398">
        <ele>794</ele>
        <time>2017-08-08T14:57:21Z</time>
      </trkpt>
      <trkpt lat="44.8027" lon="5.75368">
        <ele>802</ele>
        <time>2017-08-08T14:57:34Z</time>
      </trkpt>
      <trkpt lat="44.8028" lon="5.75351">
        <ele>802</ele>
        <time>2017-08-08T14:57:45Z</time>
      </trkpt>
      <trkpt lat="44.80291" lon="5.75328">
        <ele>801</ele>
        <time>2017-08-08T14:57:49Z</time>
      </trkpt>
      <trkpt lat="44.80305" lon="5.75293">
        <ele>802</ele>
        <time>2017-08-08T14:58:01Z</time>
      </trkpt>
      <trkpt lat="44.80334" lon="5.75218">
        <ele>810</ele>
        <time>2017-08-08T14:58:17Z</time>
      </trkpt>
      <trkpt lat="44.80357" lon="5.75168">
        <ele>808</ele>
        <time>2017-08-08T14:58:28Z</time>
      </trkpt>
      <trkpt lat="44.80371" lon="5.75148">
        <ele>805</ele>
        <time>2017-08-08T14:58:31Z</time>
      </trkpt>
      <trkpt lat="44.80386" lon="5.75129">
        <ele>806</ele>
        <time>2017-08-08T14:58:40Z</time>
      </trkpt>
      <trkpt lat="44.80401" lon="5.7511">
        <ele>807</ele>
        <time>2017-08-08T14:58:53Z</time>
      </trkpt>
      <trkpt lat="44.80413" lon="5.75087">
        <ele>809</ele>
        <time>2017-08-08T14:58:55Z</time>
      </trkpt>
      <trkpt lat="44.80437" lon="5.75031">
        <ele>810</ele>
        <time>2017-08-08T14:59:14Z</time>
      </trkpt>
      <trkpt lat="44.80449" lon="5.75014">
        <ele>810</ele>
        <time>2017-08-08T14:59:28Z</time>
      </trkpt>
      <trkpt lat="44.80462" lon="5.75">
        <ele>806</ele>
        <time>2017-08-08T14:59:41Z</time>
      </trkpt>
      <trkpt lat="44.8049" lon="5.74977">
        <ele>809</ele>
        <time>2017-08-08T15:00:00Z</time>
      </trkpt>
      <trkpt lat="44.80504" lon="5.74969">
        <ele>815</ele>
        <time>2017-08-08T15:00:08Z</time>
      </trkpt>
      <trkpt lat="44.80518" lon="5.74966">
        <ele>815</ele>
        <time>2017-08-08T15:00:20Z</time>
      </trkpt>
      <trkpt lat="44.80531" lon="5.74966">
        <ele>815</ele>
        <time>2017-08-08T15:00:23Z</time>
      </trkpt>
      <trkpt lat="44.80544" lon="5.74969">
        <ele>815</ele>
        <time>2017-08-08T15:00:38Z</time>
      </trkpt>
      <trkpt lat="44.8057" lon="5.7498">
        <ele>817</ele>
        <time>2017-08-08T15:00:43Z</time>
      </trkpt>
      <trkpt lat="44.80582" lon="5.74985">
        <ele>817</ele>
        <time>2017-08-08T15:00:53Z</time>
      </trkpt>
      <trkpt lat="44.80591" lon="5.74987">
        <ele>818</ele>
        <time>2017-08-08T15:01:09Z</time>
      </trkpt>
      <trkpt lat="44.80604" lon="5.74984">
        <ele>818</ele>
        <time>2017-08-08T15:01:13Z</time>
      </trkpt>
      <trkpt lat="44.80624" lon="5.74969">
        <ele>818</ele>
        <time>2017-08-08T15:01:29Z</time>
      </trkpt>
      <trkpt lat="44.80668" lon="5.74921">
        <ele>818</ele>
        <time>2017-08-08T15:01:42Z</time>
      </trkpt>
      <trkpt lat="44.80699" lon="5.74891">
        <ele>817</ele>
        <time>2017-08-08T15:01:53Z</time>
      </trkpt>
      <trkpt lat="44.80748" lon="5.74851">
        <ele>815</ele>
        <time>2017-08-08T15:02:10Z</time>
      </trkpt>
      <trkpt lat="44.80762" lon="5.74843">
        <ele>815</ele>
        <time>2017-08-08T15:02:25Z</time>
      </trkpt>
      <trkpt lat="44.80793" lon="5.74829">
        <ele>810</ele>
        <time>2017-08-08T15:02:27Z</time>
      </trkpt>
      <trkpt lat="44.80821" lon="5.7482">
        <ele>810</ele>
        <time>2017-08-08T15:02:43Z</time>
      </trkpt>
      <trkpt lat="44.80857" lon="5.74811">
        <ele>807</ele>
        <time>2017-08-08T15:02:58Z</time>
      </trkpt>
      <trkpt lat="44.80892" lon="5.74808">
        <ele>806</ele>
        <time>2017-08-08T15:03:14Z</time>
      </trkpt>
      <trkpt lat="44.80907" lon="5.74808">
        <ele>806</ele>
        <time>2017-08-08T15:03:29Z</time>
      </trkpt>
      <trkpt lat="44.80923" lon="5.74813">
        <ele>802</ele>
        <time>2017-08-08T15:03:37Z</time>
      </trkpt>
      <trkpt lat="44.80938" lon="5.74822">
        <ele>802</ele>
        <time>2017-08-08T15:03:53Z</time>
      </trkpt>
      <trkpt lat="44.8101" lon="5.74872">
        <ele>799</ele>
        <time>2017-08-08T15:04:06Z</time>
      </trkpt>
      <trkpt lat="44.81036" lon="5.74892">
        <ele>799</ele>
        <time>2017-08-08T15:04:13Z</time>
      </trkpt>
      <trkpt lat="44.81049" lon="5.74902">
        <ele>798</ele>
        <time>2017-08-08T15:04:29Z</time>
      </trkpt>
      <trkpt lat="44.81063" lon="5.74909">
        <ele>798</ele>
        <time>2017-08-08T15:04:42Z</time>
      </trkpt>
      <trkpt lat="44.81077" lon="5.7491">
        <ele>797</ele>
        <time>2017-08-08T15:04:48Z</time>
      </trkpt>
      <trkpt lat="44.81092" lon="5.74905">
        <ele>795</ele>
        <time>2017-08-08T15:04:51Z</time>
      </trkpt>
      <trkpt lat="44.81115" lon="5.74885">
        <ele>794</ele>
        <time>2017-08-08T15:04:57Z</time>
      </trkpt>
      <trkpt lat="44.81148" lon="5.74864">
        <ele>792</ele>
        <time>2017-08-08T15:05:15Z</time>
      </trkpt>
      <trkpt lat="44.81183" lon="5.74849">
        <ele>791</ele>
        <time>2017-08-08T15:05:27Z</time>
      </trkpt>
      <trkpt lat="44.81215" lon="5.74833">
        <ele>787</ele>
        <time>2017-08-08T15:05:43Z</time>
      </trkpt>
      <trkpt lat="44.81247" lon="5.74816">
        <ele>787</ele>
        <time>2017-08-08T15:05:46Z</time>
      </trkpt>
      <trkpt lat="44.81253" lon="5.74815">
        <ele>785</ele>
        <time>2017-08-08T15:06:02Z</time>
      </trkpt>
      <trkpt lat="44.81264" lon="5.74818">
        <ele>785</ele>
        <time>2017-08-08T15:06:20Z</time>
      </trkpt>
      <trkpt lat="44.81278" lon="5.7483">
        <ele>784</ele>
        <time>2017-08-08T15:06:34Z</time>
      </trkpt>
      <trkpt lat="44.81288" lon="5.74845">
        <ele>786</ele>
        <time>2017-08-08T15:06:41Z</time>
      </trkpt>
      <trkpt lat="44.81304" lon="5.74875">
        <ele>786</ele>
        <time>2017-08-08T15:06:56Z</time>
      </trkpt>
      <trkpt lat="44.81314" lon="5.74899">
        <ele>785</ele>
        <time>2017-08-08T15:07:02Z</time>
      </trkpt>
      <trkpt lat="44.81337" lon="5.74971">
        <ele>780</ele>
        <time>2017-08-08T15:07:22Z</time>
      </trkpt>
      <trkpt lat="44.81368" lon="5.75072">
        <ele>779</ele>
        <time>2017-08-08T15:07:29Z</time>
      </trkpt>
      <trkpt lat="44.81376" lon="5.75085">
        <ele>779</ele>
        <time>2017-08-08T15:07:49Z</time>
      </trkpt>
      <trkpt lat="44.81387" lon="5.75095">
        <ele>778</ele>
        <time>2017-08-08T15:07:51Z</time>
      </trkpt>
      <trkpt lat="44.814" lon="5.75102">
        <ele>777</ele>
        <time>2017-08-08T15:08:07Z</time>
      </trkpt>
      <trkpt lat="44.81412" lon="5.75104">
        <ele>777</ele>
        <time>2017-08-08T15:08:17Z</time>
      </trkpt>
      <trkpt lat="44.81434" lon="5.75105">
        <ele>775</ele>
        <time>2017-08-08T15:08:23Z</time>
      </trkpt>
      <trkpt lat="44.81472" lon="5.75099">
        <ele>775</ele>
        <time>2017-08-08T15:08:29Z</time>
      </trkpt>
      <trkpt lat="44.81453" lon="5.75038">
        <ele>773</ele>
        <time>2017-08-08T15:08:44Z</time>
      </trkpt>
      <trkpt lat="44.81444" lon="5.74992">
        <ele>772</ele>
        <time>2017-08-08T15:09:04Z</time>
      </trkpt>
      <trkpt lat="44.81442" lon="5.74965">
        <ele>772</ele>
        <time>2017-08-08T15:09:09Z</time>
      </trkpt>
      <trkpt lat="44.81439" lon="5.74915">
        <ele>771</ele>
        <time>2017-08-08T15:09:13Z</time>
      </trkpt>
      <trkpt lat="44.81472" lon="5.74912">
        <ele>770</ele>
        <time>2017-08-08T15:09:16Z</time>
      </trkpt>
      <trkpt lat="44.81482" lon="5.74907">
        <ele>769</ele>
        <time>2017-08-08T15:09:36Z</time>
      </trkpt>
      <trkpt lat="44.81496" lon="5.74888">
        <ele>769</ele>
        <time>2017-08-08T15:09:46Z</time>
      </trkpt>
      <trkpt lat="44.81515" lon="5.74863">
        <ele>769</ele>
        <time>2017-08-08T15:10:05Z</time>
      </trkpt>
      <trkpt lat="44.81533" lon="5.74849">
        <ele>769</ele>
        <time>2017-08-08T15:10:22Z</time>
      </trkpt>
    </trkseg>
  </trk>
</gpx>